Provisional Data: Nanticoke Creek near Maine, NY


Please select a monitoring station.
Please select start date.
Please select start date.

Toggle Unit: C/F Toggle Unit: C/F
Sample Time Temperature (C) Temperature (F) Specific Conductivity (mS/cm) pH   Turbidity (NTU+) DO (mg/L)
9/6/2021 12:00:00 AM 17.99 64.382 0.173 7.43 4.32 9.64
9/6/2021 12:15:00 AM 17.97 64.346 0.172 7.43 5.37 9.64
9/6/2021 12:30:00 AM 17.94 64.292 0.17 7.42 5.88 9.62
9/6/2021 12:45:00 AM 17.9 64.22 0.169 7.41 6.89 9.62
9/6/2021 1:00:00 AM 17.86 64.148 0.169 7.39 8.34 9.63
9/6/2021 1:15:00 AM 17.82 64.076 0.169 7.38 10.92 9.65
9/6/2021 1:30:00 AM 17.8 64.04 0.17 7.36 11.65 9.68
9/6/2021 1:45:00 AM 17.78 64.004 0.17 7.38 15.15 9.69
9/6/2021 2:00:00 AM 17.77 63.986 0.17 7.39 21.94 9.7
9/6/2021 2:15:00 AM 17.73 63.914 0.17 7.39 40.1 9.69
9/6/2021 2:30:00 AM 17.7 63.86 0.172 7.38 44.69 9.69
9/6/2021 2:45:00 AM 17.67 63.806 0.173 7.39 47.61 9.69
9/6/2021 3:00:00 AM 17.66 63.788 0.173 7.4 40.25 9.7
9/6/2021 3:15:00 AM 17.65 63.77 0.174 7.41 32.93 9.71
9/6/2021 3:30:00 AM 17.64 63.752 0.174 7.42 25.41 9.72
9/6/2021 3:45:00 AM 17.63 63.734 0.175 7.41 21.52 9.73
9/6/2021 4:00:00 AM 17.61 63.698 0.176 7.4 17.79 9.74
9/6/2021 4:15:00 AM 17.6 63.68 0.177 7.4 13.44 9.75
9/6/2021 4:30:00 AM 17.58 63.644 0.176 7.4 11.47 9.77
9/6/2021 4:45:00 AM 17.56 63.608 0.176 7.42 10.38 9.77
9/6/2021 5:00:00 AM 17.54 63.572 0.177 7.44 10.27 9.78
9/6/2021 5:15:00 AM 17.51 63.518 0.176 7.42 8.23 9.78
9/6/2021 5:30:00 AM 17.48 63.464 0.179 7.43 8.36 9.79
9/6/2021 5:45:00 AM 17.44 63.392 0.176 7.44 7.8 9.79
9/6/2021 6:00:00 AM 17.41 63.338 0.177 7.43 8.07 9.78
9/6/2021 6:15:00 AM 17.37 63.266 0.176 7.42 7.63 9.77
9/6/2021 6:30:00 AM 17.34 63.212 0.175 7.42 7.62 9.78
9/6/2021 6:45:00 AM 17.31 63.158 0.174 7.41 8 9.77
9/6/2021 7:00:00 AM 17.28 63.104 0.172 7.4 7.86 9.79
9/6/2021 7:15:00 AM 17.25 63.05 0.172 7.4 7.91 9.81
9/6/2021 7:30:00 AM 17.23 63.014 0.171 7.39 7.09 9.84
9/6/2021 7:45:00 AM 17.22 62.996 0.168 7.39 7.16 9.88
9/6/2021 8:00:00 AM 17.21 62.978 0.167 7.4 6.74 9.94
9/6/2021 8:15:00 AM 17.2 62.96 0.165 7.4 6.96 10
9/6/2021 8:30:00 AM 17.2 62.96 0.164 7.4 6.41 10.07
9/6/2021 8:45:00 AM 17.22 62.996 0.163 7.42 6.03 10.14
9/6/2021 9:00:00 AM 17.23 63.014 0.162 7.42 6.27 10.22
9/6/2021 9:15:00 AM 17.25 63.05 0.161 7.41 6.53 10.28
9/6/2021 9:30:00 AM 17.29 63.122 0.16 7.42 6.51 10.34
9/6/2021 9:45:00 AM 17.34 63.212 0.159 7.43 6.1 10.41
9/6/2021 10:00:00 AM 17.37 63.266 0.158 7.44 6.8 10.55
9/6/2021 10:15:00 AM 17.39 63.302 0.157 7.46 6.61 10.58
9/6/2021 10:30:00 AM 17.43 63.374 0.157 7.46 6.8 10.62
9/6/2021 10:45:00 AM 17.46 63.428 0.156 7.48 6.89 10.71
9/6/2021 11:00:00 AM 17.5 63.5 0.155 7.49 6.83 10.82
9/6/2021 11:15:00 AM 17.59 63.662 0.155 7.51 7.84 10.92
9/6/2021 11:30:00 AM 17.63 63.734 0.154 7.53 7.63 10.99
9/6/2021 11:45:00 AM 17.75 63.95 0.154 7.55 7.91 11.05
9/6/2021 12:00:00 PM 17.87 64.166 0.154 7.57 8.01 11.1
9/6/2021 12:15:00 PM 17.92 64.256 0.154 7.57 7.59 11.11
9/6/2021 12:30:00 PM 17.99 64.382 0.154 7.58 8.17 11.17
9/6/2021 12:45:00 PM 18.01 64.418 0.154 7.6 8.24 11.21
9/6/2021 1:00:00 PM 18.03 64.454 0.154 7.62 8.82 11.13
9/6/2021 1:15:00 PM 18.14 64.652 0.154 7.6 9.09 11.09
9/6/2021 1:30:00 PM 18.21 64.778 0.154 7.64 9.59 11.23
9/6/2021 1:45:00 PM 18.24 64.832 0.154 7.65 10.28 11.31
9/6/2021 2:00:00 PM 18.36 65.048 0.154 7.69 9.32 11.39
9/6/2021 2:15:00 PM 18.54 65.372 0.155 7.71 10.3 11.45
9/6/2021 2:30:00 PM 18.68 65.624 0.156 7.72 10.06 11.46
9/6/2021 2:45:00 PM 18.84 65.912 0.155 7.72 10.31 11.49
9/6/2021 3:00:00 PM 18.98 66.164 0.155 7.75 10.96 11.52
9/6/2021 3:15:00 PM 19.09 66.362 0.155 7.76 10.49 11.52
9/6/2021 3:30:00 PM 19.18 66.524 0.155 7.76 10.56 11.5
9/6/2021 3:45:00 PM 19.27 66.686 0.155 7.76 10.4 11.46
9/6/2021 4:00:00 PM 19.35 66.83 0.154 7.76 10.12 11.42
9/6/2021 4:15:00 PM 19.43 66.974 0.154 7.75 10.71 11.37
9/6/2021 4:30:00 PM 19.47 67.046 0.154 7.75 10.29 11.29
9/6/2021 4:45:00 PM 19.44 66.992 0.154 7.72 10.39 11.1
9/6/2021 5:00:00 PM 19.42 66.956 0.154 7.69 9.94 10.97
9/6/2021 5:15:00 PM 19.41 66.938 0.155 7.65 10.12 10.88
9/6/2021 5:30:00 PM 19.4 66.92 0.153 7.64 10.15 10.78
9/6/2021 5:45:00 PM 19.4 66.92 0.153 7.62 9.27 10.68
9/6/2021 6:00:00 PM 19.41 66.938 0.153 7.62 9.4 10.6
9/6/2021 6:15:00 PM 19.41 66.938 0.153 7.61 9.47 10.52
9/6/2021 6:30:00 PM 19.41 66.938 0.153 7.6 10.23 10.43
9/6/2021 6:45:00 PM 19.4 66.92 0.153 7.58 11.19 10.33
9/6/2021 7:00:00 PM 19.4 66.92 0.153 7.57 13.68 10.23
9/6/2021 7:15:00 PM 19.38 66.884 0.153 7.54 16.93 10.13
9/6/2021 7:30:00 PM 19.35 66.83 0.155 7.49 19.17 10.03
9/6/2021 7:45:00 PM 19.31 66.758 0.153 7.51 20.8 9.93
9/6/2021 8:00:00 PM 19.27 66.686 0.152 7.49 20.83 9.86
9/6/2021 8:15:00 PM 19.22 66.596 0.153 7.47 21.33 9.8
9/6/2021 8:30:00 PM 19.18 66.524 0.153 7.47 20.82 9.75
9/6/2021 8:45:00 PM 19.12 66.416 0.153 7.46 19.54 9.71
9/6/2021 9:00:00 PM 19.06 66.308 0.153 7.45 18.64 9.67
9/6/2021 9:15:00 PM 19.01 66.218 0.152 7.44 15.34 9.64
9/6/2021 9:30:00 PM 18.95 66.11 0.152 7.45 14.94 9.61
9/6/2021 9:45:00 PM 18.89 66.002 0.152 7.43 12.81 9.6
9/6/2021 10:00:00 PM 18.84 65.912 0.152 7.42 11.25 9.6
9/6/2021 10:15:00 PM 18.77 65.786 0.152 7.42 9.89 9.59
9/6/2021 10:30:00 PM 18.71 65.67799 0.152 7.4 10.59 9.57
9/6/2021 10:45:00 PM 18.66 65.588 0.152 7.4 9.42 9.56
9/6/2021 11:00:00 PM 18.61 65.498 0.152 7.39 8.73 9.55
9/6/2021 11:15:00 PM 18.55 65.39 0.152 7.4 8.08 9.52
9/6/2021 11:30:00 PM 18.49 65.282 0.152 7.39 7.21 9.52
9/6/2021 11:45:00 PM 18.43 65.174 0.152 7.39 7.12 9.5
9/7/2021 12:00:00 AM 18.38 65.084 0.152 7.39 6.43 9.5
9/7/2021 12:15:00 AM 18.32 64.976 0.152 7.37 6.54 9.51
9/7/2021 12:30:00 AM 18.25 64.85 0.152 7.38 6.05 9.51
9/7/2021 12:45:00 AM 18.19 64.742 0.152 7.38 5.83 9.51
9/7/2021 1:00:00 AM 18.13 64.634 0.152 7.37 5.72 9.52
9/7/2021 1:15:00 AM 18.08 64.544 0.152 7.37 5.36 9.52
9/7/2021 1:30:00 AM 18.03 64.454 0.152 7.36 5.48 9.51
9/7/2021 1:45:00 AM 17.98 64.364 0.152 7.37 5.44 9.51
9/7/2021 2:00:00 AM 17.93 64.274 0.152 7.34 4.86 9.51
9/7/2021 2:15:00 AM 17.87 64.166 0.152 7.35 5.09 9.52
9/7/2021 2:30:00 AM 17.81 64.058 0.152 7.35 5.37 9.53
9/7/2021 2:45:00 AM 17.75 63.95 0.152 7.36 5.02 9.55
9/7/2021 3:00:00 AM 17.67 63.806 0.152 7.35 5.09 9.55
9/7/2021 3:15:00 AM 17.6 63.68 0.152 7.35 4.64 9.57
9/7/2021 3:30:00 AM 17.53 63.554 0.152 7.36 4.94 9.57
9/7/2021 3:45:00 AM 17.46 63.428 0.152 7.35 4.68 9.59
9/7/2021 4:00:00 AM 17.4 63.32 0.152 7.35 4.49 9.59
9/7/2021 4:15:00 AM 17.35 63.23 0.152 7.35 4.62 9.61
9/7/2021 4:30:00 AM 17.3 63.14 0.152 7.35 4.73 9.61
9/7/2021 4:45:00 AM 17.25 63.05 0.152 7.34 4.45 9.64
9/7/2021 5:00:00 AM 17.2 62.96 0.152 7.35 4.55 9.65
9/7/2021 5:15:00 AM 17.15 62.87 0.152 7.35 4.58 9.66
9/7/2021 5:30:00 AM 17.1 62.78 0.152 7.35 4.55 9.67
9/7/2021 5:45:00 AM 17.05 62.69 0.152 7.35 4.4 9.68
9/7/2021 6:00:00 AM 17 62.6 0.152 7.34 4.52 9.69
9/7/2021 6:15:00 AM 16.95 62.51 0.152 7.35 4.96 9.7
9/7/2021 6:30:00 AM 16.9 62.42 0.152 7.34 4.47 9.71
9/7/2021 6:45:00 AM 16.85 62.33 0.152 7.34 4.29 9.72
9/7/2021 7:00:00 AM 16.81 62.258 0.152 7.33 4.52 9.73
9/7/2021 7:15:00 AM 16.76 62.168 0.152 7.32 4.38 9.76
9/7/2021 7:30:00 AM 16.72 62.096 0.152 7.32 4.23 9.82
9/7/2021 7:45:00 AM 16.7 62.06 0.152 7.31 4.37 9.88
9/7/2021 8:00:00 AM 16.67 62.006 0.152 7.33 4.06 9.95
9/7/2021 8:15:00 AM 16.65 61.97 0.152 7.34 4.03 10.06
9/7/2021 8:30:00 AM 16.63 61.934 0.152 7.35 3.79 10.16
9/7/2021 8:45:00 AM 16.63 61.934 0.152 7.37 3.75 10.28
9/7/2021 9:00:00 AM 16.63 61.934 0.152 7.36 3.84 10.42
9/7/2021 9:15:00 AM 16.63 61.934 0.152 7.41 3.74 10.51
9/7/2021 9:30:00 AM 16.64 61.952 0.152 7.41 3.83 10.55
9/7/2021 9:45:00 AM 16.66 61.988 0.152 7.42 3.43 10.61
9/7/2021 10:00:00 AM 16.7 62.06 0.152 7.43 3.42 10.65
9/7/2021 10:15:00 AM 16.76 62.168 0.152 7.44 3.12 10.72
9/7/2021 10:30:00 AM 16.83 62.294 0.152 7.47 3.33 10.81
9/7/2021 10:45:00 AM 16.91 62.438 0.153 7.48 3.03 10.89
9/7/2021 11:00:00 AM 17.01 62.618 0.153 7.5 3.15 11.02
9/7/2021 11:15:00 AM 17.11 62.798 0.153 7.52 3.12 11.09
9/7/2021 11:30:00 AM 17.2 62.96 0.153 7.54 3.02 11.16
9/7/2021 11:45:00 AM 17.28 63.104 0.153 7.54 2.88 11.21
9/7/2021 12:00:00 PM 17.36 63.248 0.153 7.57 2.99 11.28
9/7/2021 12:15:00 PM 17.42 63.356 0.153 7.58 2.89 11.31
9/7/2021 12:30:00 PM 17.57 63.626 0.153 7.59 2.92 11.42
9/7/2021 12:45:00 PM 17.73 63.914 0.154 7.62 2.98 11.52
9/7/2021 1:00:00 PM 17.88 64.184 0.154 7.64 2.84 11.6
9/7/2021 1:15:00 PM 17.99 64.382 0.153 7.66 2.88 11.69
9/7/2021 1:30:00 PM 18.08 64.544 0.154 7.69 2.93 11.74
9/7/2021 1:45:00 PM 18.24 64.832 0.154 7.7 2.94 11.8
9/7/2021 2:00:00 PM 18.36 65.048 0.154 7.7 2.84 11.79
9/7/2021 2:15:00 PM 18.48 65.264 0.154 7.72 2.77 11.85
9/7/2021 2:30:00 PM 18.64 65.552 0.154 7.75 2.85 11.92
9/7/2021 2:45:00 PM 18.75 65.75 0.154 7.76 2.79 11.92
9/7/2021 3:00:00 PM 18.88 65.984 0.154 7.78 2.74 11.94
9/7/2021 3:15:00 PM 19 66.2 0.154 7.8 2.94 11.94
9/7/2021 3:30:00 PM 19.13 66.434 0.154 7.82 2.63 11.94
9/7/2021 3:45:00 PM 19.23 66.614 0.154 7.81 2.65 11.92
9/7/2021 4:00:00 PM 19.35 66.83 0.154 7.83 2.65 11.89
9/7/2021 4:15:00 PM 19.44 66.992 0.155 7.83 2.68 11.83
9/7/2021 4:30:00 PM 19.53 67.154 0.154 7.82 2.63 11.72
9/7/2021 4:45:00 PM 19.61 67.298 0.155 7.82 2.55 11.65
9/7/2021 5:00:00 PM 19.66 67.388 0.155 7.82 2.46 11.55
9/7/2021 5:15:00 PM 19.69 67.442 0.155 7.79 2.62 11.41
9/7/2021 5:30:00 PM 19.7 67.46 0.155 7.78 2.61 11.24
9/7/2021 5:45:00 PM 19.72 67.496 0.155 7.74 2.49 11.08
9/7/2021 6:00:00 PM 19.74 67.532 0.155 7.76 2.52 10.93
9/7/2021 6:15:00 PM 19.75 67.55 0.155 7.87 2.63 10.81
9/7/2021 6:30:00 PM 19.76 67.568 0.156 7.88 2.68 10.69
9/7/2021 6:45:00 PM 19.78 67.604 0.156 7.93 2.66 10.58
9/7/2021 7:00:00 PM 19.77 67.586 0.156 7.84 2.62 10.45
9/7/2021 7:15:00 PM 19.78 67.604 0.156 7.8 2.75 10.34
9/7/2021 7:30:00 PM 19.77 67.586 0.156 7.86 2.75 10.22
9/7/2021 7:45:00 PM 19.75 67.55 0.156 7.85 2.86 10.1
9/7/2021 8:00:00 PM 19.72 67.496 0.156 7.84 2.84 9.98
9/7/2021 8:15:00 PM 19.68 67.424 0.156 7.8 3.17 9.87
9/7/2021 8:30:00 PM 19.64 67.352 0.157 7.81 3.12 9.77
9/7/2021 8:45:00 PM 19.6 67.28 0.157 7.79 3.49 9.68
9/7/2021 9:00:00 PM 19.56 67.208 0.157 7.64 3.66 9.62
9/7/2021 9:15:00 PM 19.51 67.118 0.157 7.49 3.63 9.56
9/7/2021 9:30:00 PM 19.46 67.028 0.157 7.51 3.57 9.52
9/7/2021 9:45:00 PM 19.4 66.92 0.157 7.51 3.26 9.49
9/7/2021 10:00:00 PM 19.35 66.83 0.157 7.5 3.15 9.46
9/7/2021 10:15:00 PM 19.29 66.722 0.157 7.48 3.4 9.43
9/7/2021 10:30:00 PM 19.21 66.578 0.157 7.43 3.51 9.41
9/7/2021 10:45:00 PM 19.15 66.47 0.157 7.43 3.21 9.39
9/7/2021 11:00:00 PM 19.08 66.344 0.157 7.43 3.39 9.36
9/7/2021 11:15:00 PM 19 66.2 0.157 7.49 3.85 9.35
9/7/2021 11:30:00 PM 18.94 66.092 0.157 7.53 4.18 9.33
9/7/2021 11:45:00 PM 18.86 65.948 0.157 7.59 4.2 9.32
9/8/2021 12:00:00 AM 18.79 65.82201 0.157 7.57 3.97 9.33
9/8/2021 12:15:00 AM 18.72 65.696 0.158 7.62 3.95 9.32
9/8/2021 12:30:00 AM 18.66 65.588 0.158 7.6 3.93 9.32
9/8/2021 12:45:00 AM 18.59 65.462 0.158 7.62 3.81 9.32
9/8/2021 1:00:00 AM 18.53 65.354 0.158 7.62 3.71 9.3
9/8/2021 1:15:00 AM 18.47 65.246 0.158 7.59 3.56 9.29
9/8/2021 1:30:00 AM 18.41 65.138 0.158 7.58 3.71 9.3
9/8/2021 1:45:00 AM 18.34 65.012 0.158 7.57 3.78 9.3
9/8/2021 2:00:00 AM 18.29 64.922 0.158 7.49 3.31 9.31
9/8/2021 2:15:00 AM 18.23 64.814 0.159 7.53 3.4 9.31
9/8/2021 2:30:00 AM 18.17 64.706 0.158 7.51 3.3 9.32
9/8/2021 2:45:00 AM 18.1 64.58 0.158 7.53 3.22 9.33
9/8/2021 3:00:00 AM 18.05 64.49 0.158 7.53 3.45 9.32
9/8/2021 3:15:00 AM 17.98 64.364 0.158 7.53 3.57 9.33
9/8/2021 3:30:00 AM 17.92 64.256 0.158 7.5 3.24 9.33
9/8/2021 3:45:00 AM 17.86 64.148 0.158 7.51 3.11 9.34
9/8/2021 4:00:00 AM 17.79 64.022 0.159 7.48 3.19 9.35
9/8/2021 4:15:00 AM 17.73 63.914 0.159 7.34 3.22 9.36
9/8/2021 4:30:00 AM 17.67 63.806 0.159 7.34 3.11 9.37
9/8/2021 4:45:00 AM 17.6 63.68 0.159 7.35 3.17 9.39
9/8/2021 5:00:00 AM 17.55 63.59 0.159 7.34 3.65 9.4
9/8/2021 5:15:00 AM 17.49 63.482 0.159 7.37 4.06 9.4
9/8/2021 5:30:00 AM 17.43 63.374 0.159 7.4 4.36 9.4
9/8/2021 5:45:00 AM 17.37 63.266 0.159 7.48 4.18 9.4
9/8/2021 6:00:00 AM 17.32 63.176 0.159 7.43 3.96 9.41
9/8/2021 6:15:00 AM 17.26 63.068 0.159 7.38 4.15 9.43
9/8/2021 6:30:00 AM 17.2 62.96 0.16 7.43 3.83 9.43
9/8/2021 6:45:00 AM 17.15 62.87 0.16 7.44 4.44 9.45
9/8/2021 7:00:00 AM 17.11 62.798 0.16 7.44 3.58 9.47
9/8/2021 7:15:00 AM 17.07 62.726 0.16 7.46 3.46 9.53
9/8/2021 7:30:00 AM 17.04 62.672 0.16 7.48 3.34 9.61
9/8/2021 7:45:00 AM 17.02 62.636 0.16 7.5 3.27 9.72
9/8/2021 8:00:00 AM 17.02 62.636 0.16 7.5 3.09 9.81
9/8/2021 8:15:00 AM 17.03 62.654 0.16 7.5 3.11 9.94
9/8/2021 8:30:00 AM 17.04 62.672 0.16 7.53 3.5 10.07
9/8/2021 8:45:00 AM 17.06 62.708 0.16 7.56 3.07 10.19
9/8/2021 9:00:00 AM 17.1 62.78 0.16 7.6 3.11 10.36
9/8/2021 9:15:00 AM 17.13 62.834 0.16 7.59 3.16 10.48
9/8/2021 9:30:00 AM 17.15 62.87 0.16 7.62 3.01 10.61
9/8/2021 9:45:00 AM 17.2 62.96 0.16 7.65 2.8 10.73
9/8/2021 10:00:00 AM 17.25 63.05 0.16 7.67 2.66 10.84
9/8/2021 10:15:00 AM 17.31 63.158 0.16 7.7 2.55 10.93
9/8/2021 10:30:00 AM 17.4 63.32 0.16 7.73 2.56 11.06
9/8/2021 10:45:00 AM 17.52 63.536 0.16 7.75 2.64 11.22
9/8/2021 11:00:00 AM 17.63 63.734 0.16 7.75 2.61 11.34
9/8/2021 11:15:00 AM 17.74 63.932 0.161 7.75 2.52 11.41
9/8/2021 11:30:00 AM 17.88 64.184 0.161 7.71 2.45 11.52
9/8/2021 11:45:00 AM 17.97 64.346 0.161 7.62 2.3 11.61
9/8/2021 12:00:00 PM 18.05 64.49 0.161 7.73 2.49 11.7
9/8/2021 12:15:00 PM 18.14 64.652 0.161 7.75 2.23 11.79
9/8/2021 12:30:00 PM 18.27 64.886 0.161 7.8 2.37 11.85
9/8/2021 12:45:00 PM 18.39 65.102 0.161 7.78 2.24 11.92
9/8/2021 1:00:00 PM 18.52 65.336 0.161 7.85 2.21 11.97
9/8/2021 1:15:00 PM 18.6 65.48 0.162 7.81 2.26 12.03
9/8/2021 1:30:00 PM 18.69 65.642 0.162 7.88 2.12 12.1
9/8/2021 1:45:00 PM 18.72 65.696 0.162 7.92 2.16 12.16
9/8/2021 2:00:00 PM 18.78 65.804 0.162 7.96 2.21 12.23
9/8/2021 2:15:00 PM 18.84 65.912 0.162 7.96 2.18 12.2
9/8/2021 2:30:00 PM 18.86 65.948 0.162 7.99 2.02 12.17
9/8/2021 2:45:00 PM 18.88 65.984 0.162 8 2.13 12.11
9/8/2021 3:00:00 PM 18.89 66.002 0.162 8 2.19 12.01
9/8/2021 3:15:00 PM 18.88 65.984 0.163 7.99 2.13 11.9
9/8/2021 3:30:00 PM 18.89 66.002 0.163 7.98 2.16 11.83
9/8/2021 3:45:00 PM 18.86 65.948 0.163 7.92 2.01 11.53
9/8/2021 4:00:00 PM 18.84 65.912 0.163 7.89 2.13 11.21
9/8/2021 4:15:00 PM 18.83 65.894 0.163 7.85 2.49 10.99
9/8/2021 4:30:00 PM 18.82 65.876 0.162 7.78 2.53 10.81
9/8/2021 4:45:00 PM 18.82 65.876 0.162 7.79 2.65 10.69
9/8/2021 5:00:00 PM 18.82 65.876 0.161 7.76 2.72 10.55
9/8/2021 5:15:00 PM 18.84 65.912 0.161 7.74 2.67 10.41
9/8/2021 5:30:00 PM 18.85 65.93 0.16 7.72 2.98 10.28
9/8/2021 5:45:00 PM 18.86 65.948 0.16 7.69 3.1 10.17
9/8/2021 6:00:00 PM 18.88 65.984 0.16 7.66 3.42 10.07
9/8/2021 6:15:00 PM 18.91 66.038 0.16 7.64 3.38 10.01
9/8/2021 6:30:00 PM 18.94 66.092 0.161 7.62 3.46 9.92
9/8/2021 6:45:00 PM 18.97 66.146 0.161 7.54 3.64 9.84
9/8/2021 7:00:00 PM 19 66.2 0.161 7.59 3.7 9.8
9/8/2021 7:15:00 PM 19.04 66.272 0.16 7.58 3.49 9.77
9/8/2021 7:30:00 PM 19.06 66.308 0.16 7.6 3.77 9.72
9/8/2021 7:45:00 PM 19.09 66.362 0.16 7.58 3.81 9.67
9/8/2021 8:00:00 PM 19.11 66.398 0.16 7.55 3.81 9.61
9/8/2021 8:15:00 PM 19.1 66.38 0.16 7.53 4 9.58
9/8/2021 8:30:00 PM 19.1 66.38 0.159 7.54 4.32 9.54
9/8/2021 8:45:00 PM 19.1 66.38 0.159 7.53 4.05 9.53
9/8/2021 9:00:00 PM 19.07 66.326 0.159 7.56 4.72 9.5
9/8/2021 9:15:00 PM 19.04 66.272 0.159 7.56 4.54 9.48
9/8/2021 9:30:00 PM 19 66.2 0.16 7.44 4.53 9.47
9/8/2021 9:45:00 PM 18.95 66.11 0.16 7.4 5.01 9.45
9/8/2021 10:00:00 PM 18.89 66.002 0.16 7.39 5.69 9.44
9/8/2021 10:15:00 PM 18.83 65.894 0.161 7.39 5.95 9.45
9/8/2021 10:30:00 PM 18.77 65.786 0.161 7.36 6.32 9.44
9/8/2021 10:45:00 PM 18.71 65.67799 0.162 7.36 7.52 9.47
9/8/2021 11:00:00 PM 18.68 65.624 0.162 7.37 8.04 9.47
9/8/2021 11:15:00 PM 18.65 65.57 0.163 7.4 11.01 9.47
9/8/2021 11:30:00 PM 18.63 65.534 0.162 7.4 20.57 9.48
9/8/2021 11:45:00 PM 18.62 65.516 0.159 7.38 43.75 9.48
9/9/2021 12:00:00 AM 18.61 65.498 0.156 7.37 53.64 9.5
9/9/2021 12:15:00 AM 18.58 65.444 0.154 7.39 53.34 9.5
9/9/2021 12:30:00 AM 18.55 65.39 0.155 7.36 46.84 9.5
9/9/2021 12:45:00 AM 18.52 65.336 0.157 7.39 37.59 9.51
9/9/2021 1:00:00 AM 18.49 65.282 0.158 7.4 27.6 9.54
9/9/2021 1:15:00 AM 18.46 65.228 0.159 7.42 23.07 9.56
9/9/2021 1:30:00 AM 18.43 65.174 0.16 7.42 19.1 9.58
9/9/2021 1:45:00 AM 18.4 65.12 0.161 7.42 17.02 9.59
9/9/2021 2:00:00 AM 18.37 65.066 0.161 7.44 14.61 9.6
9/9/2021 2:15:00 AM 18.34 65.012 0.161 7.43 13.09 9.62
9/9/2021 2:30:00 AM 18.31 64.958 0.162 7.45 12.7 9.62
9/9/2021 2:45:00 AM 18.28 64.904 0.162 7.49 11.24 9.64
9/9/2021 3:00:00 AM 18.24 64.832 0.162 7.44 11.37 9.65
9/9/2021 3:15:00 AM 18.21 64.778 0.161 7.43 10.51 9.64
9/9/2021 3:30:00 AM 18.18 64.724 0.16 7.39 10.93 9.65
9/9/2021 3:45:00 AM 18.16 64.688 0.159 7.41 10.43 9.65
9/9/2021 4:00:00 AM 18.14 64.652 0.158 7.41 10.22 9.65
9/9/2021 4:15:00 AM 18.13 64.634 0.156 7.41 9.97 9.65
9/9/2021 4:30:00 AM 18.13 64.634 0.155 7.44 10.15 9.65
9/9/2021 4:45:00 AM 18.12 64.616 0.153 7.42 10.1 9.64
9/9/2021 5:00:00 AM 18.12 64.616 0.152 7.45 9.62 9.64
9/9/2021 5:15:00 AM 18.12 64.616 0.151 7.26 9.49 9.64
9/9/2021 5:30:00 AM 18.1 64.58 0.15 7.29 9.55 9.65
9/9/2021 5:45:00 AM 18.09 64.562 0.15 7.29 9.89 9.65
9/9/2021 6:00:00 AM 18.08 64.544 0.149 7.29 9.64 9.66
9/9/2021 6:15:00 AM 18.06 64.508 0.148 7.3 10.17 9.65
9/9/2021 6:30:00 AM 18.04 64.472 0.148 7.34 10.31 9.66
9/9/2021 6:45:00 AM 18.01 64.418 0.148 7.35 10.82 9.66
9/9/2021 7:00:00 AM 17.99 64.382 0.147 7.37 10.38 9.66
9/9/2021 7:15:00 AM 17.96 64.328 0.147 7.39 10.22 9.68
9/9/2021 7:30:00 AM 17.94 64.292 0.147 7.39 10.85 9.7
9/9/2021 7:45:00 AM 17.92 64.256 0.147 7.4 10.67 9.72
9/9/2021 8:00:00 AM 17.91 64.238 0.147 7.37 10.36 9.76
9/9/2021 8:15:00 AM 17.89 64.202 0.147 7.42 10.62 9.8
9/9/2021 8:30:00 AM 17.88 64.184 0.147 7.43 10.74 9.85
9/9/2021 8:45:00 AM 17.87 64.166 0.147 7.44 11.18 9.88
9/9/2021 9:00:00 AM 17.85 64.13 0.147 7.45 11.07 9.89
9/9/2021 9:15:00 AM 17.84 64.112 0.146 7.46 12.04 9.91
9/9/2021 9:30:00 AM 17.84 64.112 0.146 7.44 11.94 9.97
9/9/2021 9:45:00 AM 17.85 64.13 0.146 7.47 12.6 10.02
9/9/2021 10:00:00 AM 17.85 64.13 0.146 7.49 12.68 10.08
9/9/2021 10:15:00 AM 17.88 64.184 0.145 7.48 12.99 10.12
9/9/2021 10:30:00 AM 17.91 64.238 0.145 7.49 13.14 10.23
9/9/2021 10:45:00 AM 17.93 64.274 0.145 7.49 12.32 10.3
9/9/2021 11:00:00 AM 17.97 64.346 0.145 7.52 13.32 10.36
9/9/2021 11:15:00 AM 18.04 64.472 0.144 7.52 12.48 10.49
9/9/2021 11:30:00 AM 18.12 64.616 0.144 7.54 13.31 10.61
9/9/2021 11:45:00 AM 18.16 64.688 0.143 7.57 12.36 10.7
9/9/2021 12:00:00 PM 18.23 64.814 0.143 7.6 11.85 10.8
9/9/2021 12:15:00 PM 18.28 64.904 0.143 7.61 11.31 10.86
9/9/2021 12:30:00 PM 18.32 64.976 0.142 7.62 10.78 10.93
9/9/2021 12:45:00 PM 18.36 65.048 0.142 7.63 10.33 10.98
9/9/2021 1:00:00 PM 18.42 65.156 0.142 7.65 9.62 11.03
9/9/2021 1:15:00 PM 18.47 65.246 0.141 7.65 9.57 11.08
9/9/2021 1:30:00 PM 18.54 65.372 0.141 7.67 9.1 11.15
9/9/2021 1:45:00 PM 18.6 65.48 0.14 7.65 8.38 11.2
9/9/2021 2:00:00 PM 18.65 65.57 0.14 7.69 8.34 11.19
9/9/2021 2:15:00 PM 18.7 65.66 0.14 7.67 7.88 11.19
9/9/2021 2:30:00 PM 18.76 65.768 0.14 7.69 7.59 11.19
9/9/2021 2:45:00 PM 18.82 65.876 0.14 7.71 7.55 11.22
9/9/2021 3:00:00 PM 18.86 65.948 0.139 7.71 7 11.17
9/9/2021 3:15:00 PM 18.89 66.002 0.139 7.69 6.85 11.1
9/9/2021 3:30:00 PM 18.96 66.128 0.139 7.68 6.9 11.09
9/9/2021 3:45:00 PM 19.03 66.254 0.139 7.71 6.53 11.15
9/9/2021 4:00:00 PM 19.08 66.344 0.139 7.7 6.31 11.14
9/9/2021 4:15:00 PM 19.14 66.452 0.139 7.71 6.3 11.12
9/9/2021 4:30:00 PM 19.2 66.56 0.139 7.71 6.19 11.08
9/9/2021 4:45:00 PM 19.24 66.632 0.139 7.7 6.08 11.01
9/9/2021 5:00:00 PM 19.23 66.614 0.138 7.65 5.9 10.89
9/9/2021 5:15:00 PM 19.22 66.596 0.139 7.67 6.13 10.83
9/9/2021 5:30:00 PM 19.21 66.578 0.139 7.65 5.79 10.8
9/9/2021 5:45:00 PM 19.19 66.542 0.138 7.61 6.2 10.68
9/9/2021 6:00:00 PM 19.18 66.524 0.139 7.62 5.6 10.58
9/9/2021 6:15:00 PM 19.17 66.506 0.139 7.6 5.74 10.49
9/9/2021 6:30:00 PM 19.16 66.488 0.139 7.58 5.85 10.42
9/9/2021 6:45:00 PM 19.12 66.416 0.139 7.55 5.88 10.33
9/9/2021 7:00:00 PM 19.09 66.362 0.139 7.51 6.02 10.23
9/9/2021 7:15:00 PM 19.06 66.308 0.139 7.53 5.92 10.17
9/9/2021 7:30:00 PM 19.03 66.254 0.139 7.51 5.62 10.1
9/9/2021 7:45:00 PM 19 66.2 0.138 7.49 6.45 10.02
9/9/2021 8:00:00 PM 18.96 66.128 0.139 7.49 6.39 9.95
9/9/2021 8:15:00 PM 18.92 66.056 0.139 7.5 6.75 9.91
9/9/2021 8:30:00 PM 18.87 65.966 0.138 7.48 6.71 9.87
9/9/2021 8:45:00 PM 18.82 65.876 0.138 7.48 6.6 9.84
9/9/2021 9:00:00 PM 18.77 65.786 0.138 7.45 7.12 9.82
9/9/2021 9:15:00 PM 18.72 65.696 0.137 7.43 7.72 9.81
9/9/2021 9:30:00 PM 18.69 65.642 0.137 7.42 8.46 9.81
9/9/2021 9:45:00 PM 18.65 65.57 0.139 7.4 8.88 9.8
9/9/2021 10:00:00 PM 18.59 65.462 0.142 7.4 9.19 9.79
9/9/2021 10:15:00 PM 18.52 65.336 0.145 7.45 9.05 9.78
9/9/2021 10:30:00 PM 18.46 65.228 0.146 7.4 9.34 9.76
9/9/2021 10:45:00 PM 18.41 65.138 0.146 7.41 9.31 9.75
9/9/2021 11:00:00 PM 18.35 65.03 0.146 7.41 9.53 9.74
9/9/2021 11:15:00 PM 18.29 64.922 0.147 7.41 9.59 9.75
9/9/2021 11:30:00 PM 18.24 64.832 0.148 7.39 9.98 9.76
9/9/2021 11:45:00 PM 18.19 64.742 0.148 7.41 9.74 9.76
9/10/2021 12:00:00 AM 18.14 64.652 0.148 7.4 9.73 9.76
9/10/2021 12:15:00 AM 18.1 64.58 0.148 7.41 10.26 9.76
9/10/2021 12:30:00 AM 18.05 64.49 0.149 7.42 9.95 9.76
9/10/2021 12:45:00 AM 18 64.4 0.149 7.39 10.23 9.75
9/10/2021 1:00:00 AM 17.96 64.328 0.148 7.4 10.23 9.75
9/10/2021 1:15:00 AM 17.91 64.238 0.148 7.38 10.84 9.75
9/10/2021 1:30:00 AM 17.87 64.166 0.147 7.37 10.76 9.75
9/10/2021 1:45:00 AM 17.83 64.094 0.147 7.37 10.87 9.75
9/10/2021 2:00:00 AM 17.78 64.004 0.146 7.37 11.01 9.75
9/10/2021 2:15:00 AM 17.74 63.932 0.144 7.36 11.33 9.75
9/10/2021 2:30:00 AM 17.69 63.842 0.144 7.35 11.78 9.76
9/10/2021 2:45:00 AM 17.65 63.77 0.143 7.35 11.78 9.76
9/10/2021 3:00:00 AM 17.6 63.68 0.142 7.34 11.95 9.77
9/10/2021 3:15:00 AM 17.55 63.59 0.142 7.34 12.17 9.78
9/10/2021 3:30:00 AM 17.5 63.5 0.141 7.34 12.43 9.78
9/10/2021 3:45:00 AM 17.45 63.41 0.141 7.33 12.19 9.78
9/10/2021 4:00:00 AM 17.4 63.32 0.141 7.33 13.29 9.79
9/10/2021 4:15:00 AM 17.35 63.23 0.141 7.33 13.57 9.79
9/10/2021 4:30:00 AM 17.3 63.14 0.142 7.33 14.83 9.8
9/10/2021 4:45:00 AM 17.25 63.05 0.142 7.32 15.54 9.8
9/10/2021 5:00:00 AM 17.2 62.96 0.143 7.31 16.81 9.81
9/10/2021 5:15:00 AM 17.15 62.87 0.143 7.32 16.95 9.81
9/10/2021 5:30:00 AM 17.1 62.78 0.143 7.32 17.76 9.82
9/10/2021 5:45:00 AM 17.05 62.69 0.143 7.34 18.24 9.82
9/10/2021 6:00:00 AM 17 62.6 0.143 7.34 17.97 9.83
9/10/2021 6:15:00 AM 16.94 62.492 0.142 7.33 16.59 9.84
9/10/2021 6:30:00 AM 16.89 62.402 0.142 7.32 17.2 9.84
9/10/2021 6:45:00 AM 16.83 62.294 0.142 7.31 16.39 9.86
9/10/2021 7:00:00 AM 16.78 62.204 0.142 7.31 16.33 9.87
9/10/2021 7:15:00 AM 16.74 62.132 0.141 7.3 15.33 9.89
9/10/2021 7:30:00 AM 16.69 62.042 0.141 7.29 14.2 9.93
9/10/2021 7:45:00 AM 16.64 61.952 0.14 7.26 13.92 9.97
9/10/2021 8:00:00 AM 16.6 61.88 0.14 7.29 12.68 9.99
9/10/2021 8:15:00 AM 16.57 61.826 0.14 7.31 12.67 10.03
9/10/2021 8:30:00 AM 16.55 61.79 0.14 7.31 11.45 10.09
9/10/2021 8:45:00 AM 16.53 61.754 0.139 7.28 11.17 10.13
9/10/2021 9:00:00 AM 16.52 61.736 0.139 7.33 10.93 10.19
9/10/2021 9:15:00 AM 16.51 61.718 0.139 7.35 9.99 10.25
9/10/2021 9:30:00 AM 16.52 61.736 0.139 7.36 9.46 10.36
9/10/2021 9:45:00 AM 16.51 61.718 0.139 7.39 9.29 10.39
9/10/2021 10:00:00 AM 16.54 61.772 0.138 7.39 8.79 10.47
9/10/2021 10:15:00 AM 16.57 61.826 0.138 7.41 8.95 10.55
9/10/2021 10:30:00 AM 16.62 61.916 0.138 7.42 8.6 10.64
9/10/2021 10:45:00 AM 16.67 62.006 0.138 7.44 8 10.72
9/10/2021 11:00:00 AM 16.7 62.06 0.138 7.46 7.8 10.78
9/10/2021 11:15:00 AM 16.77 62.186 0.138 7.47 7.62 10.85
9/10/2021 11:30:00 AM 16.8 62.24 0.138 7.49 7.18 10.91
9/10/2021 11:45:00 AM 16.84 62.312 0.138 7.48 7.07 10.95
9/10/2021 12:00:00 PM 16.95 62.51 0.138 7.51 6.75 11.03
9/10/2021 12:15:00 PM 17.04 62.672 0.138 7.53 6.35 11.13
9/10/2021 12:30:00 PM 17.15 62.87 0.138 7.56 6.56 11.2
9/10/2021 12:45:00 PM 17.29 63.122 0.138 7.58 6.29 11.28
9/10/2021 1:00:00 PM 17.39 63.302 0.139 7.6 5.94 11.35
9/10/2021 1:15:00 PM 17.44 63.392 0.138 7.6 5.81 11.33
9/10/2021 1:30:00 PM 17.54 63.572 0.138 7.63 5.98 11.4
9/10/2021 1:45:00 PM 17.56 63.608 0.137 7.63 5.99 11.39
9/10/2021 2:00:00 PM 17.67 63.806 0.138 7.65 5.6 11.42
9/10/2021 2:15:00 PM 17.81 64.058 0.138 7.67 5.45 11.46
9/10/2021 2:30:00 PM 18 64.4 0.139 7.69 5.39 11.54
9/10/2021 2:45:00 PM 18.09 64.562 0.139 7.71 5.04 11.56
9/10/2021 3:00:00 PM 18.13 64.634 0.139 7.7 5.17 11.47
9/10/2021 3:15:00 PM 18.24 64.832 0.139 7.71 5.21 11.46
9/10/2021 3:30:00 PM 18.42 65.156 0.139 7.73 4.79 11.52
9/10/2021 3:45:00 PM 18.57 65.426 0.139 7.76 5.08 11.56
9/10/2021 4:00:00 PM 18.7 65.66 0.139 7.77 4.83 11.57
9/10/2021 4:15:00 PM 18.78 65.804 0.139 7.77 4.76 11.52
9/10/2021 4:30:00 PM 18.85 65.93 0.139 7.78 4.85 11.47
9/10/2021 4:45:00 PM 18.87 65.966 0.139 7.77 4.78 11.39
9/10/2021 5:00:00 PM 18.83 65.894 0.139 7.74 4.65 11.23
9/10/2021 5:15:00 PM 18.79 65.82201 0.14 7.7 4.86 11.06
9/10/2021 5:30:00 PM 18.76 65.768 0.14 7.67 4.8 10.92
9/10/2021 5:45:00 PM 18.74 65.732 0.14 7.65 4.87 10.81
9/10/2021 6:00:00 PM 18.73 65.714 0.14 7.63 5 10.72
9/10/2021 6:15:00 PM 18.71 65.67799 0.14 7.62 4.9 10.63
9/10/2021 6:30:00 PM 18.69 65.642 0.14 7.6 5.02 10.56
9/10/2021 6:45:00 PM 18.66 65.588 0.14 7.58 4.93 10.48
9/10/2021 7:00:00 PM 18.63 65.534 0.141 7.56 4.93 10.41
9/10/2021 7:15:00 PM 18.58 65.444 0.141 7.54 4.85 10.33
9/10/2021 7:30:00 PM 18.52 65.336 0.141 7.53 4.94 10.24
9/10/2021 7:45:00 PM 18.46 65.228 0.141 7.51 5.3 10.16
9/10/2021 8:00:00 PM 18.39 65.102 0.141 7.5 5.35 10.1
9/10/2021 8:15:00 PM 18.33 64.994 0.141 7.48 5.48 10.06
9/10/2021 8:30:00 PM 18.27 64.886 0.141 7.46 5.46 10.02
9/10/2021 8:45:00 PM 18.2 64.76 0.141 7.46 4.95 9.98
9/10/2021 9:00:00 PM 18.14 64.652 0.141 7.45 5.1 9.95
9/10/2021 9:15:00 PM 18.08 64.544 0.141 7.44 5.29 9.93
9/10/2021 9:30:00 PM 18.02 64.436 0.141 7.43 4.98 9.89
9/10/2021 9:45:00 PM 17.95 64.31 0.142 7.42 5.25 9.87
9/10/2021 10:00:00 PM 17.88 64.184 0.142 7.41 5.01 9.85
9/10/2021 10:15:00 PM 17.82 64.076 0.142 7.41 5.22 9.84
9/10/2021 10:30:00 PM 17.75 63.95 0.142 7.41 6.25 9.83
9/10/2021 10:45:00 PM 17.68 63.824 0.142 7.39 5.15 9.83
9/10/2021 11:00:00 PM 17.61 63.698 0.142 7.39 5.04 9.82
9/10/2021 11:15:00 PM 17.54 63.572 0.142 7.39 4.97 9.81
9/10/2021 11:30:00 PM 17.46 63.428 0.142 7.38 5.04 9.81
9/10/2021 11:45:00 PM 17.39 63.302 0.142 7.37 4.8 9.79
9/11/2021 12:00:00 AM 17.32 63.176 0.142 7.36 5.08 9.8
9/11/2021 12:15:00 AM 17.25 63.05 0.142 7.36 4.71 9.79
9/11/2021 12:30:00 AM 17.18 62.924 0.142 7.35 5.09 9.81
9/11/2021 12:45:00 AM 17.11 62.798 0.142 7.34 4.76 9.81
9/11/2021 1:00:00 AM 17.04 62.672 0.142 7.35 4.48 9.82
9/11/2021 1:15:00 AM 16.98 62.564 0.142 7.35 4.74 9.83
9/11/2021 1:30:00 AM 16.93 62.474 0.142 7.34 4.7 9.83
9/11/2021 1:45:00 AM 16.88 62.384 0.143 7.34 4.9 9.83
9/11/2021 2:00:00 AM 16.83 62.294 0.143 7.33 4.62 9.83
9/11/2021 2:15:00 AM 16.77 62.186 0.143 7.33 4.56 9.85
9/11/2021 2:30:00 AM 16.72 62.096 0.142 7.34 4.63 9.85
9/11/2021 2:45:00 AM 16.67 62.006 0.143 7.33 5.37 9.87
9/11/2021 3:00:00 AM 16.62 61.916 0.142 7.32 4.86 9.88
9/11/2021 3:15:00 AM 16.57 61.826 0.143 7.31 4.75 9.88
9/11/2021 3:30:00 AM 16.52 61.736 0.143 7.31 5.1 9.9
9/11/2021 3:45:00 AM 16.48 61.664 0.143 7.31 4.54 9.9
9/11/2021 4:00:00 AM 16.43 61.574 0.144 7.3 4.78 9.9
9/11/2021 4:15:00 AM 16.38 61.484 0.142 7.28 4.69 9.92
9/11/2021 4:30:00 AM 16.34 61.412 0.143 7.28 4.85 9.93
9/11/2021 4:45:00 AM 16.29 61.322 0.142 7.29 4.72 9.92
9/11/2021 5:00:00 AM 16.24 61.232 0.144 7.3 4.52 9.93
9/11/2021 5:15:00 AM 16.21 61.178 0.144 7.29 4.36 9.95
9/11/2021 5:30:00 AM 16.18 61.124 0.144 7.29 4.5 9.94
9/11/2021 5:45:00 AM 16.14 61.052 0.144 7.29 4.48 9.96
9/11/2021 6:00:00 AM 16.1 60.98 0.144 7.3 4.52 9.98
9/11/2021 6:15:00 AM 16.06 60.908 0.144 7.3 4.43 9.97
9/11/2021 6:30:00 AM 16.03 60.854 0.144 7.3 4.78 9.98
9/11/2021 6:45:00 AM 16 60.8 0.144 7.3 4.72 10
9/11/2021 7:00:00 AM 15.98 60.764 0.144 7.3 4.44 10.01
9/11/2021 7:15:00 AM 15.95 60.71 0.144 7.31 4.51 10.03
9/11/2021 7:30:00 AM 15.92 60.656 0.144 7.31 4.12 10.07
9/11/2021 7:45:00 AM 15.88 60.584 0.144 7.32 4.27 10.12
9/11/2021 8:00:00 AM 15.85 60.53 0.144 7.3 4.06 10.18
9/11/2021 8:15:00 AM 15.82 60.476 0.144 7.33 4.25 10.24
9/11/2021 8:30:00 AM 15.8 60.44 0.144 7.35 4.41 10.34
9/11/2021 8:45:00 AM 15.8 60.44 0.144 7.36 3.91 10.47
9/11/2021 9:00:00 AM 15.79 60.422 0.144 7.4 3.93 10.59
9/11/2021 9:15:00 AM 15.8 60.44 0.145 7.41 3.84 10.69
9/11/2021 9:30:00 AM 15.81 60.458 0.145 7.42 3.62 10.79
9/11/2021 9:45:00 AM 15.83 60.494 0.145 7.44 3.58 10.85
9/11/2021 10:00:00 AM 15.87 60.566 0.145 7.45 3.51 10.96
9/11/2021 10:15:00 AM 15.92 60.656 0.145 7.47 3.44 11.03
9/11/2021 10:30:00 AM 15.99 60.782 0.145 7.47 3.51 11.1
9/11/2021 10:45:00 AM 16.06 60.908 0.145 7.49 3.32 11.18
9/11/2021 11:00:00 AM 16.14 61.052 0.145 7.51 3.13 11.26
9/11/2021 11:15:00 AM 16.24 61.232 0.145 7.52 3.15 11.32
9/11/2021 11:30:00 AM 16.34 61.412 0.146 7.54 3.65 11.39
9/11/2021 11:45:00 AM 16.45 61.61 0.146 7.54 3.01 11.49
9/11/2021 12:00:00 PM 16.57 61.826 0.145 7.59 2.93 11.55
9/11/2021 12:15:00 PM 16.68 62.024 0.145 7.61 2.8 11.61
9/11/2021 12:30:00 PM 16.81 62.258 0.145 7.63 2.85 11.66
9/11/2021 12:45:00 PM 16.95 62.51 0.146 7.66 2.68 11.73
9/11/2021 1:00:00 PM 17.07 62.726 0.145 7.68 2.69 11.8
9/11/2021 1:15:00 PM 17.2 62.96 0.145 7.7 2.72 11.87
9/11/2021 1:30:00 PM 17.34 63.212 0.146 7.72 2.82 11.91
9/11/2021 1:45:00 PM 17.48 63.464 0.145 7.74 2.75 11.95
9/11/2021 2:00:00 PM 17.6 63.68 0.146 7.76 2.71 12
9/11/2021 2:15:00 PM 17.71 63.878 0.146 7.77 2.61 12.02
9/11/2021 2:30:00 PM 17.86 64.148 0.146 7.8 2.71 12.07
9/11/2021 2:45:00 PM 18.02 64.436 0.145 7.83 2.59 12.11
9/11/2021 3:00:00 PM 18.13 64.634 0.145 7.84 2.57 12.14
9/11/2021 3:15:00 PM 18.28 64.904 0.147 7.86 2.57 12.15
9/11/2021 3:30:00 PM 18.41 65.138 0.146 7.87 2.64 12.14
9/11/2021 3:45:00 PM 18.55 65.39 0.147 7.88 2.6 12.12
9/11/2021 4:00:00 PM 18.63 65.534 0.149 7.89 2.62 12.07
9/11/2021 4:15:00 PM 18.72 65.696 0.149 7.89 2.67 12.01
9/11/2021 4:30:00 PM 18.82 65.876 0.148 7.88 2.55 11.93
9/11/2021 4:45:00 PM 18.89 66.002 0.149 7.87 2.64 11.85
9/11/2021 5:00:00 PM 18.94 66.092 0.149 7.84 2.63 11.73
9/11/2021 5:15:00 PM 18.99 66.182 0.149 7.84 2.63 11.61
9/11/2021 5:30:00 PM 19.04 66.272 0.149 7.8 2.84 11.51
9/11/2021 5:45:00 PM 19.08 66.344 0.149 7.78 2.65 11.39
9/11/2021 6:00:00 PM 19.1 66.38 0.149 7.75 2.71 11.24
9/11/2021 6:15:00 PM 19.11 66.398 0.149 7.75 2.78 11.11
9/11/2021 6:30:00 PM 19.12 66.416 0.149 7.73 2.66 10.98
9/11/2021 6:45:00 PM 19.12 66.416 0.15 7.7 2.72 10.85
9/11/2021 7:00:00 PM 19.12 66.416 0.15 7.68 2.84 10.72
9/11/2021 7:15:00 PM 19.1 66.38 0.15 7.66 3.05 10.59
9/11/2021 7:30:00 PM 19.08 66.344 0.15 7.64 2.88 10.44
9/11/2021 7:45:00 PM 19.04 66.272 0.148 7.61 2.97 10.33
9/11/2021 8:00:00 PM 18.99 66.182 0.149 7.59 3.3 10.21
9/11/2021 8:15:00 PM 18.95 66.11 0.15 7.57 3.27 10.12
9/11/2021 8:30:00 PM 18.91 66.038 0.148 7.55 3.48 10.05
9/11/2021 8:45:00 PM 18.87 65.966 0.149 7.53 3.26 9.96
9/11/2021 9:00:00 PM 18.82 65.876 0.148 7.52 3.28 9.91
9/11/2021 9:15:00 PM 18.76 65.768 0.15 7.5 3.68 9.87
9/11/2021 9:30:00 PM 18.71 65.67799 0.149 7.5 3.46 9.83
9/11/2021 9:45:00 PM 18.66 65.588 0.15 7.48 3.59 9.78
9/11/2021 10:00:00 PM 18.6 65.48 0.149 7.47 3.79 9.74
9/11/2021 10:15:00 PM 18.54 65.372 0.149 7.47 3.6 9.71
9/11/2021 10:30:00 PM 18.48 65.264 0.15 7.46 3.5 9.69
9/11/2021 10:45:00 PM 18.42 65.156 0.149 7.45 3.39 9.67
9/11/2021 11:00:00 PM 18.36 65.048 0.15 7.45 3.57 9.66
9/11/2021 11:15:00 PM 18.3 64.94 0.151 7.44 3.74 9.64
9/11/2021 11:30:00 PM 18.24 64.832 0.151 7.43 3.37 9.62
9/11/2021 11:45:00 PM 18.18 64.724 0.152 7.42 3.73 9.6
9/12/2021 12:00:00 AM 18.13 64.634 0.152 7.42 3.55 9.59
9/12/2021 12:15:00 AM 18.07 64.526 0.152 7.42 3.43 9.58
9/12/2021 12:30:00 AM 18.01 64.418 0.152 7.41 3.45 9.56
9/12/2021 12:45:00 AM 17.96 64.328 0.152 7.37 3.32 9.56
9/12/2021 1:00:00 AM 17.9 64.22 0.152 7.4 3.31 9.55
9/12/2021 1:15:00 AM 17.84 64.112 0.152 7.39 3.49 9.57
9/12/2021 1:30:00 AM 17.78 64.004 0.152 7.39 3.47 9.57
9/12/2021 1:45:00 AM 17.71 63.878 0.152 7.39 3.48 9.58
9/12/2021 2:00:00 AM 17.66 63.788 0.152 7.38 3.42 9.57
9/12/2021 2:15:00 AM 17.62 63.716 0.152 7.38 3.32 9.57
9/12/2021 2:30:00 AM 17.56 63.608 0.152 7.37 3.45 9.56
9/12/2021 2:45:00 AM 17.53 63.554 0.153 7.37 3.39 9.56
9/12/2021 3:00:00 AM 17.49 63.482 0.153 7.37 3.45 9.56
9/12/2021 3:15:00 AM 17.49 63.482 0.153 7.36 3.26 9.55
9/12/2021 3:30:00 AM 17.45 63.41 0.153 7.36 4.48 9.56
9/12/2021 3:45:00 AM 17.41 63.338 0.153 7.36 3.41 9.56
9/12/2021 4:00:00 AM 17.38 63.284 0.153 7.36 3.44 9.57
9/12/2021 4:15:00 AM 17.34 63.212 0.153 7.36 3.48 9.58
9/12/2021 4:30:00 AM 17.3 63.14 0.153 7.36 3.32 9.59
9/12/2021 4:45:00 AM 17.26 63.068 0.153 7.35 3.69 9.59
9/12/2021 5:00:00 AM 17.23 63.014 0.151 7.36 3.7 9.6
9/12/2021 5:15:00 AM 17.19 62.942 0.153 7.36 4.64 9.6
9/12/2021 5:30:00 AM 17.16 62.888 0.154 7.34 4.24 9.6
9/12/2021 5:45:00 AM 17.12 62.816 0.154 7.33 4.73 9.61
9/12/2021 6:00:00 AM 17.09 62.762 0.154 7.35 4.41 9.61
9/12/2021 6:15:00 AM 17.06 62.708 0.154 7.33 4.09 9.62
9/12/2021 6:30:00 AM 17.03 62.654 0.154 7.34 3.99 9.62
9/12/2021 6:45:00 AM 17 62.6 0.154 7.35 3.76 9.63
9/12/2021 7:00:00 AM 16.98 62.564 0.154 7.35 3.67 9.63
9/12/2021 7:15:00 AM 16.96 62.528 0.154 7.35 3.66 9.65
9/12/2021 7:30:00 AM 16.95 62.51 0.154 7.36 3.71 9.69
9/12/2021 7:45:00 AM 16.95 62.51 0.154 7.36 3.64 9.76
9/12/2021 8:00:00 AM 16.95 62.51 0.154 7.37 3.65 9.83
9/12/2021 8:15:00 AM 16.96 62.528 0.154 7.38 3.95 9.95
9/12/2021 8:30:00 AM 16.98 62.564 0.154 7.39 3.81 10.05
9/12/2021 8:45:00 AM 16.99 62.582 0.154 7.4 3.59 10.15
9/12/2021 9:00:00 AM 17.03 62.654 0.154 7.41 3.39 10.3
9/12/2021 9:15:00 AM 17.06 62.708 0.153 7.42 3.44 10.42
9/12/2021 9:30:00 AM 17.1 62.78 0.154 7.45 3.44 10.57
9/12/2021 9:45:00 AM 17.16 62.888 0.153 7.47 3.36 10.72
9/12/2021 10:00:00 AM 17.23 63.014 0.154 7.51 3.34 10.86
9/12/2021 10:15:00 AM 17.27 63.086 0.154 7.52 3.25 10.97
9/12/2021 10:30:00 AM 17.34 63.212 0.154 7.54 3.19 11.11
9/12/2021 10:45:00 AM 17.44 63.392 0.155 7.57 3.36 11.23
9/12/2021 11:00:00 AM 17.51 63.518 0.155 7.59 3.42 11.33
9/12/2021 11:15:00 AM 17.54 63.572 0.155 7.61 3.18 11.41
9/12/2021 11:30:00 AM 17.59 63.662 0.155 7.63 3.16 11.47
9/12/2021 11:45:00 AM 17.66 63.788 0.155 7.65 2.99 11.56
9/12/2021 12:00:00 PM 17.74 63.932 0.155 7.67 2.89 11.66
9/12/2021 12:15:00 PM 17.8 64.04 0.155 7.69 2.87 11.72
9/12/2021 12:30:00 PM 17.89 64.202 0.155 7.72 2.84 11.81
9/12/2021 12:45:00 PM 18.01 64.418 0.155 7.75 2.84 11.91
9/12/2021 1:00:00 PM 18.09 64.562 0.155 7.77 2.63 12
9/12/2021 1:15:00 PM 18.12 64.616 0.155 7.78 2.9 11.98
9/12/2021 1:30:00 PM 18.16 64.688 0.156 7.78 2.68 11.95
9/12/2021 1:45:00 PM 18.21 64.778 0.156 7.8 2.8 11.98
9/12/2021 2:00:00 PM 18.24 64.832 0.156 7.77 2.71 11.96
9/12/2021 2:15:00 PM 18.26 64.868 0.156 7.79 2.58 11.84
9/12/2021 2:30:00 PM 18.27 64.886 0.156 7.77 2.48 11.74
9/12/2021 2:45:00 PM 18.3 64.94 0.156 7.76 2.6 11.65
9/12/2021 3:00:00 PM 18.33 64.994 0.156 7.76 2.63 11.62
9/12/2021 3:15:00 PM 18.41 65.138 0.156 7.77 2.38 11.64
9/12/2021 3:30:00 PM 18.51 65.318 0.157 7.77 2.33 11.76
9/12/2021 3:45:00 PM 18.68 65.624 0.157 7.82 2.37 11.87
9/12/2021 4:00:00 PM 18.8 65.84 0.156 7.85 2.27 11.93
9/12/2021 4:15:00 PM 18.83 65.894 0.156 7.86 2.2 11.82
9/12/2021 4:30:00 PM 18.86 65.948 0.157 7.83 2.33 11.68
9/12/2021 4:45:00 PM 18.91 66.038 0.157 7.81 2.44 11.6
9/12/2021 5:00:00 PM 18.99 66.182 0.157 7.81 2.42 11.64
9/12/2021 5:15:00 PM 19.03 66.254 0.157 7.83 2.28 11.66
9/12/2021 5:30:00 PM 19.07 66.326 0.157 7.84 2.29 11.63
9/12/2021 5:45:00 PM 19.1 66.38 0.157 7.81 2.31 11.5
9/12/2021 6:00:00 PM 19.11 66.398 0.158 7.75 2.22 11.27
9/12/2021 6:15:00 PM 19.11 66.398 0.158 7.74 2.39 11.08
9/12/2021 6:30:00 PM 19.12 66.416 0.159 7.71 2.31 10.94
9/12/2021 6:45:00 PM 19.12 66.416 0.158 7.68 2.37 10.83
9/12/2021 7:00:00 PM 19.12 66.416 0.158 7.66 2.35 10.68
9/12/2021 7:15:00 PM 19.1 66.38 0.16 7.63 2.36 10.51
9/12/2021 7:30:00 PM 19.08 66.344 0.159 7.6 2.48 10.37
9/12/2021 7:45:00 PM 19.07 66.326 0.159 7.57 2.52 10.24
9/12/2021 8:00:00 PM 19.05 66.29 0.16 7.55 2.81 10.11
9/12/2021 8:15:00 PM 19.04 66.272 0.16 7.52 2.98 10.01
9/12/2021 8:30:00 PM 19.04 66.272 0.16 7.5 2.95 9.93
9/12/2021 8:45:00 PM 19.03 66.254 0.161 7.49 3.03 9.85
9/12/2021 9:00:00 PM 19.03 66.254 0.16 7.48 3.13 9.79
9/12/2021 9:15:00 PM 19.02 66.236 0.16 7.46 3.05 9.74
9/12/2021 9:30:00 PM 19.02 66.236 0.16 7.44 3.11 9.67
9/12/2021 9:45:00 PM 19.01 66.218 0.161 7.43 2.97 9.63
9/12/2021 10:00:00 PM 19 66.2 0.161 7.42 3.05 9.6
9/12/2021 10:15:00 PM 19 66.2 0.16 7.41 2.89 9.55
9/12/2021 10:30:00 PM 18.99 66.182 0.161 7.41 3.22 9.51
9/12/2021 10:45:00 PM 18.97 66.146 0.161 7.4 3.18 9.48
9/12/2021 11:00:00 PM 18.96 66.128 0.16 7.39 3.35 9.46
9/12/2021 11:15:00 PM 18.93 66.074 0.161 7.38 3.05 9.44
9/12/2021 11:30:00 PM 18.92 66.056 0.16 7.38 3.07 9.42
9/12/2021 11:45:00 PM 18.9 66.02 0.161 7.37 2.8 9.4
9/13/2021 12:00:00 AM 18.88 65.984 0.161 7.37 3.04 9.37
9/13/2021 12:15:00 AM 18.86 65.948 0.161 7.36 2.88 9.35
9/13/2021 12:30:00 AM 18.84 65.912 0.161 7.36 3.11 9.35
9/13/2021 12:45:00 AM 18.83 65.894 0.161 7.35 2.82 9.33
9/13/2021 1:00:00 AM 18.81 65.858 0.162 7.34 2.67 9.31
9/13/2021 1:15:00 AM 18.8 65.84 0.161 7.33 2.8 9.29
9/13/2021 1:30:00 AM 18.78 65.804 0.162 7.33 2.79 9.27
9/13/2021 1:45:00 AM 18.77 65.786 0.162 7.34 2.96 9.26
9/13/2021 2:00:00 AM 18.75 65.75 0.162 7.31 3.06 9.25
9/13/2021 2:15:00 AM 18.74 65.732 0.162 7.33 2.97 9.26
9/13/2021 2:30:00 AM 18.72 65.696 0.162 7.32 2.85 9.25
9/13/2021 2:45:00 AM 18.71 65.67799 0.162 7.31 3.24 9.25
9/13/2021 3:00:00 AM 18.69 65.642 0.161 7.3 3.41 9.24
9/13/2021 3:15:00 AM 18.67 65.606 0.163 7.3 3.71 9.23
9/13/2021 3:30:00 AM 18.66 65.588 0.16 7.29 3.29 9.23
9/13/2021 3:45:00 AM 18.64 65.552 0.162 7.29 3.25 9.22
9/13/2021 4:00:00 AM 18.62 65.516 0.162 7.28 3.15 9.22
9/13/2021 4:15:00 AM 18.6 65.48 0.162 7.28 2.83 9.2
9/13/2021 4:30:00 AM 18.58 65.444 0.162 7.28 3.18 9.21
9/13/2021 4:45:00 AM 18.57 65.426 0.162 7.29 3.02 9.22
9/13/2021 5:00:00 AM 18.56 65.408 0.163 7.27 2.8 9.22
9/13/2021 5:15:00 AM 18.54 65.372 0.163 7.27 2.93 9.21
9/13/2021 5:30:00 AM 18.52 65.336 0.163 7.27 2.9 9.21
9/13/2021 5:45:00 AM 18.5 65.3 0.163 7.28 2.96 9.22
9/13/2021 6:00:00 AM 18.48 65.264 0.163 7.29 3.25 9.23
9/13/2021 6:15:00 AM 18.46 65.228 0.163 7.28 3.27 9.22
9/13/2021 6:30:00 AM 18.43 65.174 0.163 7.29 3.45 9.24
9/13/2021 6:45:00 AM 18.42 65.156 0.163 7.29 3.5 9.23
9/13/2021 7:00:00 AM 18.39 65.102 0.163 7.28 3.53 9.24
9/13/2021 7:15:00 AM 18.38 65.084 0.163 7.31 3.5 9.26
9/13/2021 7:30:00 AM 18.37 65.066 0.163 7.32 3.48 9.27
9/13/2021 7:45:00 AM 18.35 65.03 0.164 7.29 3.41 9.34
9/13/2021 8:00:00 AM 18.35 65.03 0.164 7.32 3.51 9.43
9/13/2021 8:15:00 AM 18.35 65.03 0.163 7.34 3.72 9.52
9/13/2021 8:30:00 AM 18.35 65.03 0.164 7.33 3.44 9.61
9/13/2021 8:45:00 AM 18.37 65.066 0.164 7.34 3.42 9.79
9/13/2021 9:00:00 AM 18.37 65.066 0.164 7.36 3.36 9.92
9/13/2021 9:15:00 AM 18.38 65.084 0.164 7.37 3.17 10.03
9/13/2021 9:30:00 AM 18.4 65.12 0.164 7.4 2.9 10.14
9/13/2021 9:45:00 AM 18.44 65.192 0.164 7.44 2.78 10.32
9/13/2021 10:00:00 AM 18.47 65.246 0.164 7.46 2.8 10.5
9/13/2021 10:15:00 AM 18.51 65.318 0.164 7.46 2.65 10.68
9/13/2021 10:30:00 AM 18.53 65.354 0.164 7.49 2.8 10.81
9/13/2021 10:45:00 AM 18.56 65.408 0.164 7.47 2.71 10.89
9/13/2021 11:00:00 AM 18.6 65.48 0.164 7.53 2.76 11.06
9/13/2021 11:15:00 AM 18.71 65.67799 0.164 7.59 2.7 11.22
9/13/2021 11:30:00 AM 18.84 65.912 0.164 7.61 2.46 11.39
9/13/2021 11:45:00 AM 18.95 66.11 0.164 7.65 2.53 11.47
9/13/2021 12:00:00 PM 19.02 66.236 0.164 7.64 2.66 11.51
9/13/2021 12:15:00 PM 19.13 66.434 0.164 7.67 2.59 11.59
9/13/2021 12:30:00 PM 19.23 66.614 0.164 7.72 2.44 11.68
9/13/2021 12:45:00 PM 19.36 66.848 0.164 7.72 2.43 11.75
9/13/2021 1:00:00 PM 19.49 67.082 0.164 7.76 2.6 11.82
9/13/2021 1:15:00 PM 19.59 67.262 0.164 7.77 2.33 11.88
9/13/2021 1:30:00 PM 19.67 67.406 0.164 7.8 2.29 11.93
9/13/2021 1:45:00 PM 19.78 67.604 0.164 7.83 2.62 12.01
9/13/2021 2:00:00 PM 19.83 67.694 0.164 7.86 2.29 12.06
9/13/2021 2:15:00 PM 19.96 67.92799 0.164 7.9 2.29 12.15
9/13/2021 2:30:00 PM 20.05 68.09 0.164 7.92 2.32 12.2
9/13/2021 2:45:00 PM 20.13 68.234 0.164 7.96 2.31 12.21
9/13/2021 3:00:00 PM 20.2 68.36 0.164 7.96 2.44 12.22
9/13/2021 3:15:00 PM 20.28 68.504 0.164 7.97 2.24 12.23
9/13/2021 3:30:00 PM 20.36 68.648 0.164 8 2.32 12.24
9/13/2021 3:45:00 PM 20.43 68.774 0.164 8 2.27 12.24
9/13/2021 4:00:00 PM 20.48 68.864 0.163 8.02 2.37 12.2
9/13/2021 4:15:00 PM 20.52 68.936 0.164 8 2.2 12.14
9/13/2021 4:30:00 PM 20.55 68.99 0.164 8.03 2.23 12.06
9/13/2021 4:45:00 PM 20.59 69.062 0.164 7.98 2.32 11.96
9/13/2021 5:00:00 PM 20.6 69.08 0.163 7.97 2.22 11.85
9/13/2021 5:15:00 PM 20.61 69.098 0.164 7.94 2.07 11.72
9/13/2021 5:30:00 PM 20.6 69.08 0.165 7.91 2.28 11.59
9/13/2021 5:45:00 PM 20.62 69.116 0.164 7.87 2.26 11.44
9/13/2021 6:00:00 PM 20.63 69.134 0.165 7.88 2.42 11.3
9/13/2021 6:15:00 PM 20.64 69.152 0.165 7.8 2.21 11.15
9/13/2021 6:30:00 PM 20.65 69.17 0.166 7.79 2.26 10.98
9/13/2021 6:45:00 PM 20.65 69.17 0.166 7.79 2.33 10.81
9/13/2021 7:00:00 PM 20.66 69.188 0.167 7.7 2.29 10.62
9/13/2021 7:15:00 PM 20.65 69.17 0.167 7.67 2.28 10.44
9/13/2021 7:30:00 PM 20.65 69.17 0.167 7.64 2.49 10.25
9/13/2021 7:45:00 PM 20.65 69.17 0.167 7.6 2.6 10.08
9/13/2021 8:00:00 PM 20.64 69.152 0.167 7.58 2.69 9.93
9/13/2021 8:15:00 PM 20.63 69.134 0.168 7.55 2.97 9.81
9/13/2021 8:30:00 PM 20.62 69.116 0.168 7.51 2.79 9.69
9/13/2021 8:45:00 PM 20.6 69.08 0.168 7.5 2.84 9.6
9/13/2021 9:00:00 PM 20.58 69.044 0.168 7.49 3.9 9.51
9/13/2021 9:15:00 PM 20.56 69.008 0.168 7.47 2.88 9.42
9/13/2021 9:30:00 PM 20.54 68.972 0.168 7.45 2.85 9.35
9/13/2021 9:45:00 PM 20.49 68.882 0.168 7.46 2.93 9.3
9/13/2021 10:00:00 PM 20.45 68.81 0.168 7.44 3.25 9.25
9/13/2021 10:15:00 PM 20.4 68.72 0.168 7.43 3.35 9.21
9/13/2021 10:30:00 PM 20.37 68.666 0.168 7.42 3.34 9.17
9/13/2021 10:45:00 PM 20.3 68.54 0.168 7.42 3.05 9.15
9/13/2021 11:00:00 PM 20.24 68.432 0.168 7.4 2.89 9.13
9/13/2021 11:15:00 PM 20.18 68.324 0.168 7.41 2.79 9.11
9/13/2021 11:30:00 PM 20.12 68.216 0.168 7.39 2.71 9.09
9/13/2021 11:45:00 PM 20.06 68.108 0.168 7.38 2.65 9.07
9/14/2021 12:00:00 AM 20.01 68.018 0.169 7.38 2.76 9.05
9/14/2021 12:15:00 AM 19.96 67.92799 0.169 7.37 2.81 9.02
9/14/2021 12:30:00 AM 19.9 67.82 0.169 7.37 2.89 9.02
9/14/2021 12:45:00 AM 19.86 67.748 0.169 7.37 3.18 8.99
9/14/2021 1:00:00 AM 19.8 67.64 0.169 7.37 3.09 9
9/14/2021 1:15:00 AM 19.76 67.568 0.169 7.35 3.41 8.99
9/14/2021 1:30:00 AM 19.71 67.478 0.169 7.36 3.65 8.99
9/14/2021 1:45:00 AM 19.67 67.406 0.168 7.35 3.82 8.99
9/14/2021 2:00:00 AM 19.63 67.334 0.168 7.35 3.39 8.98
9/14/2021 2:15:00 AM 19.61 67.298 0.169 7.35 3.39 8.99
9/14/2021 2:30:00 AM 19.56 67.208 0.169 7.35 3.09 9
9/14/2021 2:45:00 AM 19.51 67.118 0.169 7.35 4.51 9
9/14/2021 3:00:00 AM 19.46 67.028 0.169 7.34 3.17 8.98
9/14/2021 3:15:00 AM 19.43 66.974 0.169 7.34 3.03 8.97
9/14/2021 3:30:00 AM 19.38 66.884 0.169 7.34 3.07 8.98
9/14/2021 3:45:00 AM 19.32 66.776 0.168 7.35 3.85 9.05
9/14/2021 4:00:00 AM 19.27 66.686 0.168 7.35 3.66 9.05
9/14/2021 4:15:00 AM 19.22 66.596 0.167 7.34 3.74 9.08
9/14/2021 4:30:00 AM 19.18 66.524 0.167 7.33 4.11 9.05
9/14/2021 4:45:00 AM 19.14 66.452 0.167 7.33 4.11 9.04
9/14/2021 5:00:00 AM 19.11 66.398 0.167 7.31 3.87 9.03
9/14/2021 5:15:00 AM 19.06 66.308 0.166 7.31 3.7 9.04
9/14/2021 5:30:00 AM 19.02 66.236 0.167 7.31 4 9.05
9/14/2021 5:45:00 AM 18.99 66.182 0.166 7.31 3.87 9.05
9/14/2021 6:00:00 AM 18.95 66.11 0.168 7.31 3.97 9.06
9/14/2021 6:15:00 AM 18.92 66.056 0.167 7.31 3.76 9.07
9/14/2021 6:30:00 AM 18.87 65.966 0.167 7.31 3.94 9.06
9/14/2021 6:45:00 AM 18.85 65.93 0.167 7.31 4.11 9.06
9/14/2021 7:00:00 AM 18.81 65.858 0.166 7.31 3.92 9.08
9/14/2021 7:15:00 AM 18.77 65.786 0.164 7.31 3.92 9.09
9/14/2021 7:30:00 AM 18.73 65.714 0.167 7.31 3.85 9.12
9/14/2021 7:45:00 AM 18.71 65.67799 0.168 7.3 3.94 9.17
9/14/2021 8:00:00 AM 18.68 65.624 0.167 7.31 3.92 9.27
9/14/2021 8:15:00 AM 18.66 65.588 0.165 7.32 3.99 9.41
9/14/2021 8:30:00 AM 18.66 65.588 0.167 7.33 4.12 9.51
9/14/2021 8:45:00 AM 18.66 65.588 0.167 7.35 4.1 9.69
9/14/2021 9:00:00 AM 18.66 65.588 0.167 7.36 4.4 9.81
9/14/2021 9:15:00 AM 18.67 65.606 0.168 7.38 4.42 9.93
9/14/2021 9:30:00 AM 18.7 65.66 0.168 7.42 4.31 10.11
9/14/2021 9:45:00 AM 18.74 65.732 0.169 7.42 4.41 10.26
9/14/2021 10:00:00 AM 18.78 65.804 0.169 7.44 4.21 10.44
9/14/2021 10:15:00 AM 18.84 65.912 0.169 7.47 4.48 10.61
9/14/2021 10:30:00 AM 18.91 66.038 0.169 7.5 4.46 10.77
9/14/2021 10:45:00 AM 18.97 66.146 0.17 7.52 4.09 10.9
9/14/2021 11:00:00 AM 19.03 66.254 0.17 7.55 4.3 11.04
9/14/2021 11:15:00 AM 19.08 66.344 0.17 7.58 4.1 11.19
9/14/2021 11:30:00 AM 19.15 66.47 0.17 7.6 4.46 11.27
9/14/2021 11:45:00 AM 19.26 66.668 0.17 7.63 4.86 11.34
9/14/2021 12:00:00 PM 19.38 66.884 0.169 7.67 6.56 11.46
9/14/2021 12:15:00 PM 19.48 67.064 0.169 7.71 8.63 11.55
9/14/2021 12:30:00 PM 19.59 67.262 0.169 7.71 11.01 11.6
9/14/2021 12:45:00 PM 19.65 67.37 0.168 7.73 13.67 11.59
9/14/2021 1:00:00 PM 19.73 67.514 0.168 7.77 15.45 11.62
9/14/2021 1:15:00 PM 19.8 67.64 0.167 7.75 17.23 11.64
9/14/2021 1:30:00 PM 19.96 67.92799 0.166 7.79 17.54 11.72
9/14/2021 1:45:00 PM 20.14 68.252 0.166 7.85 19.04 11.86
9/14/2021 2:00:00 PM 20.25 68.45 0.166 7.89 17.97 11.92
9/14/2021 2:15:00 PM 20.33 68.594 0.165 7.92 15.12 11.96
9/14/2021 2:30:00 PM 20.37 68.666 0.165 7.91 16.61 11.93
9/14/2021 2:45:00 PM 20.38 68.684 0.165 7.9 14.52 11.86
9/14/2021 3:00:00 PM 20.43 68.774 0.165 7.9 13.16 11.82
9/14/2021 3:15:00 PM 20.49 68.882 0.165 7.91 12.08 11.82
9/14/2021 3:30:00 PM 20.57 69.026 0.164 7.93 10.66 11.85
9/14/2021 3:45:00 PM 20.64 69.152 0.165 7.94 9.53 11.87
9/14/2021 4:00:00 PM 20.7 69.26 0.165 7.96 8.6 11.85
9/14/2021 4:15:00 PM 20.76 69.368 0.165 7.96 7.82 11.82
9/14/2021 4:30:00 PM 20.83 69.494 0.165 7.97 6.78 11.78
9/14/2021 4:45:00 PM 20.89 69.602 0.165 7.97 5.89 11.73
9/14/2021 5:00:00 PM 20.93 69.674 0.165 7.95 5.02 11.6
9/14/2021 5:15:00 PM 20.95 69.71 0.166 7.92 5.29 11.44
9/14/2021 5:30:00 PM 20.98 69.764 0.167 7.89 4.83 11.31
9/14/2021 5:45:00 PM 21 69.8 0.167 7.85 4.39 11.12
9/14/2021 6:00:00 PM 21.03 69.854 0.167 7.81 4.09 10.96
9/14/2021 6:15:00 PM 21.05 69.89 0.168 7.79 4.11 10.85
9/14/2021 6:30:00 PM 21.07 69.926 0.168 7.76 3.88 10.72
9/14/2021 6:45:00 PM 21.09 69.962 0.168 7.74 3.58 10.57
9/14/2021 7:00:00 PM 21.09 69.962 0.168 7.7 3.58 10.4
9/14/2021 7:15:00 PM 21.09 69.962 0.169 7.67 3.67 10.24
9/14/2021 7:30:00 PM 21.1 69.98 0.17 7.63 3.45 10.06
9/14/2021 7:45:00 PM 21.09 69.962 0.17 7.6 3.37 9.91
9/14/2021 8:00:00 PM 21.09 69.962 0.17 7.58 3.63 9.77
9/14/2021 8:15:00 PM 21.07 69.926 0.171 7.57 3.71 9.65
9/14/2021 8:30:00 PM 21.05 69.89 0.169 7.54 3.59 9.55
9/14/2021 8:45:00 PM 21.03 69.854 0.168 7.52 3.51 9.47
9/14/2021 9:00:00 PM 21.02 69.836 0.17 7.5 3.55 9.39
9/14/2021 9:15:00 PM 20.99 69.782 0.17 7.49 3.5 9.32
9/14/2021 9:30:00 PM 20.96 69.728 0.17 7.48 3.49 9.27
9/14/2021 9:45:00 PM 20.93 69.674 0.17 7.45 3.53 9.22
9/14/2021 10:00:00 PM 20.9 69.62 0.17 7.45 3.42 9.18
9/14/2021 10:15:00 PM 20.87 69.566 0.17 7.45 3.67 9.13
9/14/2021 10:30:00 PM 20.84 69.512 0.17 7.44 3.45 9.09
9/14/2021 10:45:00 PM 20.81 69.458 0.17 7.42 3.43 9.06
9/14/2021 11:00:00 PM 20.78 69.404 0.17 7.41 3.35 9.03
9/14/2021 11:15:00 PM 20.75 69.35 0.17 7.4 3.63 9
9/14/2021 11:30:00 PM 20.71 69.278 0.17 7.4 3.37 8.98
9/14/2021 11:45:00 PM 20.68 69.224 0.17 7.39 3.32 8.95
9/15/2021 12:00:00 AM 20.63 69.134 0.17 7.4 3.45 8.93
9/15/2021 12:15:00 AM 20.59 69.062 0.17 7.39 3.27 8.9
9/15/2021 12:30:00 AM 20.55 68.99 0.169 7.37 3.29 8.9
9/15/2021 12:45:00 AM 20.52 68.936 0.17 7.36 3.19 8.87
9/15/2021 1:00:00 AM 20.48 68.864 0.17 7.35 3.29 8.84
9/15/2021 1:15:00 AM 20.44 68.792 0.169 7.35 3.06 8.84
9/15/2021 1:30:00 AM 20.4 68.72 0.168 7.34 3.44 8.84
9/15/2021 1:45:00 AM 20.36 68.648 0.169 7.33 3.22 8.84
9/15/2021 2:00:00 AM 20.32 68.576 0.169 7.33 3.17 8.83
9/15/2021 2:15:00 AM 20.29 68.522 0.169 7.33 3.62 8.83
9/15/2021 2:30:00 AM 20.24 68.432 0.17 7.33 3.08 8.83
9/15/2021 2:45:00 AM 20.2 68.36 0.169 7.33 3.32 8.82
9/15/2021 3:00:00 AM 20.15 68.27 0.169 7.32 3.27 8.82
9/15/2021 3:15:00 AM 20.12 68.216 0.169 7.32 3.24 8.81
9/15/2021 3:30:00 AM 20.08 68.144 0.169 7.31 3.17 8.81
9/15/2021 3:45:00 AM 20.04 68.07201 0.169 7.31 3.17 8.8
9/15/2021 4:00:00 AM 19.99 67.982 0.168 7.3 3.4 8.82
9/15/2021 4:15:00 AM 19.96 67.92799 0.168 7.3 3.26 8.81
9/15/2021 4:30:00 AM 19.92 67.856 0.168 7.3 3.33 8.81
9/15/2021 4:45:00 AM 19.87 67.766 0.166 7.29 3.14 8.83
9/15/2021 5:00:00 AM 19.83 67.694 0.167 7.3 3.44 8.82
9/15/2021 5:15:00 AM 19.78 67.604 0.167 7.29 3.77 8.83
9/15/2021 5:30:00 AM 19.74 67.532 0.168 7.29 3.68 8.85
9/15/2021 5:45:00 AM 19.68 67.424 0.167 7.29 3.79 8.86
9/15/2021 6:00:00 AM 19.63 67.334 0.167 7.29 3.72 8.85
9/15/2021 6:15:00 AM 19.58 67.244 0.168 7.28 4.1 8.86
9/15/2021 6:30:00 AM 19.54 67.172 0.167 7.27 4.16 8.86
9/15/2021 6:45:00 AM 19.5 67.1 0.167 7.27 4.04 8.87
9/15/2021 7:00:00 AM 19.46 67.028 0.167 7.28 4.02 8.87
9/15/2021 7:15:00 AM 19.43 66.974 0.167 7.28 3.94 8.89
9/15/2021 7:30:00 AM 19.46 67.028 0.166 7.27 3.49 8.92
9/15/2021 7:45:00 AM 19.45 67.01 0.168 7.28 3.58 9
9/15/2021 8:00:00 AM 19.42 66.956 0.167 7.29 3.45 9.1
9/15/2021 8:15:00 AM 19.39 66.902 0.167 7.3 3.35 9.19
9/15/2021 8:30:00 AM 19.38 66.884 0.168 7.31 3.29 9.34
9/15/2021 8:45:00 AM 19.39 66.902 0.168 7.32 3.3 9.46
9/15/2021 9:00:00 AM 19.41 66.938 0.168 7.34 3.34 9.6
9/15/2021 9:15:00 AM 19.44 66.992 0.168 7.35 3.22 9.76
9/15/2021 9:30:00 AM 19.49 67.082 0.168 7.39 3.21 9.93
9/15/2021 9:45:00 AM 19.55 67.19 0.168 7.4 3.15 10.08
9/15/2021 10:00:00 AM 19.58 67.244 0.168 7.43 3.2 10.23
9/15/2021 10:15:00 AM 19.63 67.334 0.168 7.44 3.03 10.34
9/15/2021 10:30:00 AM 19.71 67.478 0.167 7.47 2.99 10.52
9/15/2021 10:45:00 AM 19.79 67.622 0.167 7.51 3 10.7
9/15/2021 11:00:00 AM 19.84 67.712 0.167 7.54 2.81 10.87
9/15/2021 11:15:00 AM 19.84 67.712 0.167 7.55 2.84 10.87
9/15/2021 11:30:00 AM 19.88 67.784 0.167 7.56 2.85 10.86
9/15/2021 11:45:00 AM 19.92 67.856 0.167 7.57 2.82 10.9
9/15/2021 12:00:00 PM 19.97 67.946 0.167 7.6 2.8 11.01
9/15/2021 12:15:00 PM 19.97 67.946 0.166 7.62 2.81 11.06
9/15/2021 12:30:00 PM 19.96 67.92799 0.166 7.64 3.05 11.06
9/15/2021 12:45:00 PM 19.93 67.874 0.165 7.63 3.13 10.87
9/15/2021 1:00:00 PM 19.9 67.82 0.165 7.62 3.12 10.78
9/15/2021 1:15:00 PM 19.85 67.73 0.166 7.58 3.22 10.6
9/15/2021 1:30:00 PM 19.83 67.694 0.166 7.55 2.97 10.46
9/15/2021 1:45:00 PM 19.83 67.694 0.166 7.54 2.83 10.41
9/15/2021 2:00:00 PM 19.89 67.802 0.166 7.58 2.98 10.67
9/15/2021 2:15:00 PM 19.97 67.946 0.166 7.58 2.89 10.9
9/15/2021 2:30:00 PM 20.05 68.09 0.165 7.66 2.89 11.12
9/15/2021 2:45:00 PM 20.04 68.07201 0.166 7.68 2.76 11.03
9/15/2021 3:00:00 PM 20.07 68.126 0.166 7.68 2.71 11.03
9/15/2021 3:15:00 PM 20.08 68.144 0.166 7.67 2.59 10.99
9/15/2021 3:30:00 PM 20.11 68.198 0.166 7.69 2.66 11.07
9/15/2021 3:45:00 PM 20.11 68.198 0.166 7.68 2.76 10.92
9/15/2021 4:00:00 PM 20.11 68.198 0.166 7.65 2.77 10.78
9/15/2021 4:15:00 PM 20.1 68.18 0.165 7.64 2.63 10.67
9/15/2021 4:30:00 PM 20.11 68.198 0.163 7.65 2.79 10.7
9/15/2021 4:45:00 PM 20.11 68.198 0.163 7.65 2.9 10.68
9/15/2021 5:00:00 PM 20.1 68.18 0.163 7.61 3.17 10.5
9/15/2021 5:15:00 PM 20.09 68.162 0.162 7.61 4.26 10.31
9/15/2021 5:30:00 PM 20.07 68.126 0.16 7.58 6.91 10.19
9/15/2021 5:45:00 PM 20.04 68.07201 0.156 7.5 14.7 10.03
9/15/2021 6:00:00 PM 20.01 68.018 0.153 7.42 26.75 9.9
9/15/2021 6:15:00 PM 20.02 68.036 0.158 7.43 24.77 9.95
9/15/2021 6:30:00 PM 20.02 68.036 0.167 7.46 21.54 9.99
9/15/2021 6:45:00 PM 20.06 68.108 0.171 7.48 17.51 9.98
9/15/2021 7:00:00 PM 20.07 68.126 0.17 7.48 17.08 9.92
9/15/2021 7:15:00 PM 20.04 68.07201 0.171 7.44 17.23 9.85
9/15/2021 7:30:00 PM 20 68 0.169 7.44 19.27 9.78
9/15/2021 7:45:00 PM 19.94 67.892 0.167 7.43 17.52 9.73
9/15/2021 8:00:00 PM 19.89 67.802 0.165 7.41 20.14 9.68
9/15/2021 8:15:00 PM 19.88 67.784 0.161 7.4 19.95 9.63
9/15/2021 8:30:00 PM 19.86 67.748 0.158 7.39 21.49 9.59
9/15/2021 8:45:00 PM 19.84 67.712 0.154 7.37 26.68 9.54
9/15/2021 9:00:00 PM 19.82 67.676 0.151 7.35 33.94 9.49
9/15/2021 9:15:00 PM 19.79 67.622 0.147 7.33 48.71 9.45
9/15/2021 9:30:00 PM 19.76 67.568 0.143 7.31 62.82 9.4
9/15/2021 9:45:00 PM 19.74 67.532 0.139 7.29 77.06 9.37
9/15/2021 10:00:00 PM 19.71 67.478 0.135 7.27 89.87 9.34
9/15/2021 10:15:00 PM 19.68 67.424 0.133 7.25 96.38 9.33
9/15/2021 10:30:00 PM 19.65 67.37 0.132 7.25 96.72 9.32
9/15/2021 10:45:00 PM 19.61 67.298 0.131 7.24 89.25 9.32
9/15/2021 11:00:00 PM 19.57 67.226 0.131 7.23 81.64 9.34
9/15/2021 11:15:00 PM 19.52 67.136 0.131 7.24 75.09 9.34
9/15/2021 11:30:00 PM 19.47 67.046 0.131 7.24 65.92 9.36
9/15/2021 11:45:00 PM 19.41 66.938 0.133 7.23 59.32 9.38
9/16/2021 12:00:00 AM 19.36 66.848 0.133 7.23 51.24 9.4
9/16/2021 12:15:00 AM 19.3 66.74 0.134 7.23 46.46 9.42
9/16/2021 12:30:00 AM 19.24 66.632 0.134 7.23 42.22 9.46
9/16/2021 12:45:00 AM 19.19 66.542 0.134 7.22 37.45 9.46
9/16/2021 1:00:00 AM 19.13 66.434 0.134 7.22 35.63 9.49
9/16/2021 1:15:00 AM 19.08 66.344 0.134 7.22 32.86 9.51
9/16/2021 1:30:00 AM 19.04 66.272 0.134 7.21 30.75 9.54
9/16/2021 1:45:00 AM 19 66.2 0.134 7.22 28.12 9.54
9/16/2021 2:00:00 AM 18.96 66.128 0.134 7.22 27.67 9.54
9/16/2021 2:15:00 AM 18.91 66.038 0.134 7.24 27.61 9.55
9/16/2021 2:30:00 AM 18.88 65.984 0.134 7.23 27.15 9.56
9/16/2021 2:45:00 AM 18.84 65.912 0.134 7.22 28.43 9.57
9/16/2021 3:00:00 AM 18.81 65.858 0.135 7.23 28.96 9.58
9/16/2021 3:15:00 AM 18.78 65.804 0.134 7.23 30.99 9.59
9/16/2021 3:30:00 AM 18.84 65.912 0.135 7.21 32.77 9.57
9/16/2021 3:45:00 AM 18.72 65.696 0.135 7.22 34.48 9.6
9/16/2021 4:00:00 AM 18.72 65.696 0.134 7.21 35.75 9.6
9/16/2021 4:15:00 AM 18.67 65.606 0.135 7.22 38.03 9.62
9/16/2021 4:30:00 AM 18.63 65.534 0.135 7.21 37.05 9.63
9/16/2021 4:45:00 AM 18.6 65.48 0.135 7.21 38.02 9.63
9/16/2021 5:00:00 AM 18.57 65.426 0.135 7.21 38.7 9.64
9/16/2021 5:15:00 AM 18.54 65.372 0.135 7.17 39.76 9.65
9/16/2021 5:30:00 AM 18.52 65.336 0.135 7.21 37.65 9.65
9/16/2021 5:45:00 AM 18.49 65.282 0.135 7.22 36.85 9.67
9/16/2021 6:00:00 AM 18.47 65.246 0.135 7.22 37.72 9.67
9/16/2021 6:15:00 AM 18.44 65.192 0.135 7.22 34.54 9.67
9/16/2021 6:30:00 AM 18.42 65.156 0.135 7.23 33.21 9.67
9/16/2021 6:45:00 AM 18.39 65.102 0.135 7.24 31.95 9.69
9/16/2021 7:00:00 AM 18.38 65.084 0.135 7.25 30.71 9.67
9/16/2021 7:15:00 AM 18.36 65.048 0.135 7.24 28.77 9.69
9/16/2021 7:30:00 AM 18.34 65.012 0.134 7.23 27.81 9.69
9/16/2021 7:45:00 AM 18.33 64.994 0.134 7.25 26.18 9.71
9/16/2021 8:00:00 AM 18.31 64.958 0.135 7.24 25.11 9.73
9/16/2021 8:15:00 AM 18.31 64.958 0.135 7.23 23.99 9.75
9/16/2021 8:30:00 AM 18.3 64.94 0.135 7.24 22.08 9.77
9/16/2021 8:45:00 AM 18.29 64.922 0.135 7.25 20.84 9.8
9/16/2021 9:00:00 AM 18.3 64.94 0.134 7.25 20.01 9.84
9/16/2021 9:15:00 AM 18.31 64.958 0.134 7.26 19.73 9.89
9/16/2021 9:30:00 AM 18.32 64.976 0.134 7.27 18.7 9.93
9/16/2021 9:45:00 AM 18.34 65.012 0.134 7.28 18.18 9.99
9/16/2021 10:00:00 AM 18.35 65.03 0.134 7.28 16.94 10.03
9/16/2021 10:15:00 AM 18.38 65.084 0.134 7.29 16.62 10.1
9/16/2021 10:30:00 AM 18.4 65.12 0.134 7.31 15.96 10.17
9/16/2021 10:45:00 AM 18.44 65.192 0.134 7.33 15.46 10.25
9/16/2021 11:00:00 AM 18.48 65.264 0.133 7.34 15.03 10.31
9/16/2021 11:15:00 AM 18.53 65.354 0.133 7.35 14.37 10.4
9/16/2021 11:30:00 AM 18.64 65.552 0.133 7.36 13.75 10.49
9/16/2021 11:45:00 AM 18.72 65.696 0.132 7.39 13.36 10.57
9/16/2021 12:00:00 PM 18.8 65.84 0.133 7.37 13.42 10.64
9/16/2021 12:15:00 PM 18.83 65.894 0.133 7.42 12.71 10.66
9/16/2021 12:30:00 PM 18.88 65.984 0.133 7.41 12.28 10.68
9/16/2021 12:45:00 PM 18.94 66.092 0.132 7.44 12.44 10.72
9/16/2021 1:00:00 PM 19 66.2 0.131 7.45 12.15 10.77
9/16/2021 1:15:00 PM 19.12 66.416 0.131 7.47 12.02 10.84
9/16/2021 1:30:00 PM 19.21 66.578 0.132 7.48 11.86 10.86
9/16/2021 1:45:00 PM 19.31 66.758 0.132 7.49 11.36 10.9
9/16/2021 2:00:00 PM 19.42 66.956 0.132 7.51 11.26 10.91
9/16/2021 2:15:00 PM 19.58 67.244 0.132 7.54 11.23 11.02
9/16/2021 2:30:00 PM 19.71 67.478 0.132 7.56 11.09 11.05
9/16/2021 2:45:00 PM 19.8 67.64 0.132 7.57 10.93 11.03
9/16/2021 3:00:00 PM 19.86 67.748 0.131 7.57 10.73 11
9/16/2021 3:15:00 PM 19.91 67.838 0.131 7.57 10.51 10.98
9/16/2021 3:30:00 PM 20 68 0.131 7.58 10.74 10.97
9/16/2021 3:45:00 PM 20.11 68.198 0.131 7.59 10.49 10.96
9/16/2021 4:00:00 PM 20.19 68.342 0.131 7.59 10.25 10.9
9/16/2021 4:15:00 PM 20.22 68.396 0.131 7.57 10.09 10.81
9/16/2021 4:30:00 PM 20.25 68.45 0.13 7.56 10.03 10.74
9/16/2021 4:45:00 PM 20.29 68.522 0.13 7.55 9.96 10.69
9/16/2021 5:00:00 PM 20.34 68.612 0.13 7.53 9.78 10.65
9/16/2021 5:15:00 PM 20.37 68.666 0.13 7.53 9.78 10.57
9/16/2021 5:30:00 PM 20.39 68.702 0.13 7.52 9.65 10.5
9/16/2021 5:45:00 PM 20.39 68.702 0.13 7.51 9.71 10.42
9/16/2021 6:00:00 PM 20.39 68.702 0.13 7.49 9.53 10.33
9/16/2021 6:15:00 PM 20.37 68.666 0.13 7.48 9.7 10.24
9/16/2021 6:30:00 PM 20.34 68.612 0.131 7.46 9.54 10.15
9/16/2021 6:45:00 PM 20.32 68.576 0.13 7.45 9.72 10.07
9/16/2021 7:00:00 PM 20.31 68.558 0.129 7.43 9.71 10.01
9/16/2021 7:15:00 PM 20.3 68.54 0.13 7.41 9.71 9.93
9/16/2021 7:30:00 PM 20.3 68.54 0.13 7.4 9.96 9.86
9/16/2021 7:45:00 PM 20.3 68.54 0.13 7.38 9.96 9.78
9/16/2021 8:00:00 PM 20.3 68.54 0.129 7.37 10.21 9.72
9/16/2021 8:15:00 PM 20.29 68.522 0.13 7.36 10.19 9.68
9/16/2021 8:30:00 PM 20.29 68.522 0.129 7.35 9.95 9.63
9/16/2021 8:45:00 PM 20.28 68.504 0.13 7.34 9.67 9.58
9/16/2021 9:00:00 PM 20.26 68.468 0.13 7.33 9.8 9.55
9/16/2021 9:15:00 PM 20.25 68.45 0.13 7.33 9.61 9.5
9/16/2021 9:30:00 PM 20.22 68.396 0.13 7.32 9.87 9.48
9/16/2021 9:45:00 PM 20.2 68.36 0.129 7.31 9.66 9.44
9/16/2021 10:00:00 PM 20.16 68.288 0.13 7.3 9.6 9.41
9/16/2021 10:15:00 PM 20.13 68.234 0.13 7.29 9.6 9.4
9/16/2021 10:30:00 PM 20.1 68.18 0.13 7.28 9.62 9.37
9/16/2021 10:45:00 PM 20.06 68.108 0.13 7.28 9.74 9.36
9/16/2021 11:00:00 PM 20.02 68.036 0.13 7.27 9.42 9.35
9/16/2021 11:15:00 PM 19.98 67.964 0.13 7.27 9.51 9.33
9/16/2021 11:30:00 PM 19.94 67.892 0.13 7.26 9.41 9.33
9/16/2021 11:45:00 PM 19.89 67.802 0.129 7.26 9.78 9.33
9/17/2021 12:00:00 AM 19.84 67.712 0.129 7.26 9.5 9.33
9/17/2021 12:15:00 AM 19.8 67.64 0.129 7.25 9.32 9.33
9/17/2021 12:30:00 AM 19.75 67.55 0.129 7.24 9.14 9.34
9/17/2021 12:45:00 AM 19.72 67.496 0.129 7.24 8.97 9.33
9/17/2021 1:00:00 AM 19.68 67.424 0.129 7.24 9.1 9.34
9/17/2021 1:15:00 AM 19.65 67.37 0.129 7.24 9.25 9.33
9/17/2021 1:30:00 AM 19.62 67.316 0.129 7.23 9.17 9.34
9/17/2021 1:45:00 AM 19.59 67.262 0.129 7.24 8.77 9.34
9/17/2021 2:00:00 AM 19.56 67.208 0.129 7.23 8.59 9.35
9/17/2021 2:15:00 AM 19.51 67.118 0.129 7.23 8.78 9.35
9/17/2021 2:30:00 AM 19.48 67.064 0.129 7.22 8.49 9.34
9/17/2021 2:45:00 AM 19.44 66.992 0.128 7.23 8.34 9.35
9/17/2021 3:00:00 AM 19.4 66.92 0.128 7.22 8.29 9.36
9/17/2021 3:15:00 AM 19.37 66.866 0.128 7.21 8.39 9.36
9/17/2021 3:30:00 AM 19.34 66.812 0.128 7.22 8.65 9.36
9/17/2021 3:45:00 AM 19.32 66.776 0.128 7.21 9.5 9.36
9/17/2021 4:00:00 AM 19.28 66.704 0.128 7.21 10.18 9.37
9/17/2021 4:15:00 AM 19.25 66.65 0.128 7.21 10.03 9.38
9/17/2021 4:30:00 AM 19.22 66.596 0.128 7.2 9.57 9.39
9/17/2021 4:45:00 AM 19.18 66.524 0.128 7.21 8.97 9.41
9/17/2021 5:00:00 AM 19.14 66.452 0.128 7.21 8.97 9.41
9/17/2021 5:15:00 AM 19.12 66.416 0.127 7.21 8.92 9.43
9/17/2021 5:30:00 AM 19.09 66.362 0.128 7.21 8.54 9.41
9/17/2021 5:45:00 AM 19.06 66.308 0.127 7.2 8.72 9.43
9/17/2021 6:00:00 AM 19.03 66.254 0.128 7.19 8.58 9.44
9/17/2021 6:15:00 AM 19 66.2 0.128 7.21 8.73 9.44
9/17/2021 6:30:00 AM 18.97 66.146 0.128 7.22 8.93 9.45
9/17/2021 6:45:00 AM 18.95 66.11 0.128 7.18 8.77 9.45
9/17/2021 7:00:00 AM 18.93 66.074 0.128 7.21 8.9 9.46
9/17/2021 7:15:00 AM 18.9 66.02 0.128 7.22 8.38 9.47
9/17/2021 7:30:00 AM 18.88 65.984 0.128 7.21 8.13 9.49
9/17/2021 7:45:00 AM 18.86 65.948 0.128 7.21 7.99 9.52
9/17/2021 8:00:00 AM 18.85 65.93 0.128 7.21 7.83 9.55
9/17/2021 8:15:00 AM 18.84 65.912 0.128 7.22 7.68 9.61
9/17/2021 8:30:00 AM 18.84 65.912 0.128 7.22 7.34 9.67
9/17/2021 8:45:00 AM 18.84 65.912 0.128 7.23 7.32 9.74
9/17/2021 9:00:00 AM 18.84 65.912 0.128 7.25 7.07 9.8
9/17/2021 9:15:00 AM 18.85 65.93 0.128 7.25 6.85 9.85
9/17/2021 9:30:00 AM 18.86 65.948 0.129 7.26 6.77 9.91
9/17/2021 9:45:00 AM 18.88 65.984 0.128 7.27 6.8 9.98
9/17/2021 10:00:00 AM 18.94 66.092 0.128 7.29 6.44 10.11
9/17/2021 10:15:00 AM 19 66.2 0.128 7.32 6.38 10.29
9/17/2021 10:30:00 AM 19.06 66.308 0.128 7.34 6.2 10.42
9/17/2021 10:45:00 AM 19.11 66.398 0.128 7.36 6.06 10.52
9/17/2021 11:00:00 AM 19.17 66.506 0.128 7.36 6.04 10.62
9/17/2021 11:15:00 AM 19.2 66.56 0.128 7.38 5.89 10.63
9/17/2021 11:30:00 AM 19.24 66.632 0.128 7.39 5.72 10.69
9/17/2021 11:45:00 AM 19.27 66.686 0.128 7.42 5.57 10.77
9/17/2021 12:00:00 PM 19.3 66.74 0.129 7.44 5.58 10.82
9/17/2021 12:15:00 PM 19.34 66.812 0.128 7.45 5.54 10.88
9/17/2021 12:30:00 PM 19.38 66.884 0.128 7.48 5.36 10.87
9/17/2021 12:45:00 PM 19.4 66.92 0.129 7.47 5.15 10.86
9/17/2021 1:00:00 PM 19.44 66.992 0.129 7.47 5.16 10.86
9/17/2021 1:15:00 PM 19.5 67.1 0.13 7.49 5.02 10.95
9/17/2021 1:30:00 PM 19.56 67.208 0.129 7.51 4.88 11
9/17/2021 1:45:00 PM 19.6 67.28 0.129 7.52 5.09 11
9/17/2021 2:00:00 PM 19.65 67.37 0.13 7.52 4.98 11
9/17/2021 2:15:00 PM 19.69 67.442 0.13 7.51 4.94 10.98
9/17/2021 2:30:00 PM 19.73 67.514 0.13 7.53 4.8 10.95
9/17/2021 2:45:00 PM 19.78 67.604 0.13 7.54 5.29 11.02
9/17/2021 3:00:00 PM 19.81 67.658 0.13 7.55 5.12 11.02
9/17/2021 3:15:00 PM 19.84 67.712 0.13 7.51 4.74 10.97
9/17/2021 3:30:00 PM 19.87 67.766 0.13 7.55 4.58 10.96
9/17/2021 3:45:00 PM 19.91 67.838 0.13 7.57 4.89 10.98
9/17/2021 4:00:00 PM 19.95 67.91 0.13 7.54 4.8 10.99
9/17/2021 4:15:00 PM 19.98 67.964 0.13 7.59 4.59 11.01
9/17/2021 4:30:00 PM 20.01 68.018 0.13 7.58 4.55 11
9/17/2021 4:45:00 PM 20.03 68.054 0.131 7.59 4.48 10.97
9/17/2021 5:00:00 PM 20.07 68.126 0.131 7.59 4.63 10.97
9/17/2021 5:15:00 PM 20.08 68.144 0.131 7.59 4.57 10.93
9/17/2021 5:30:00 PM 20.07 68.126 0.132 7.57 4.5 10.81
9/17/2021 5:45:00 PM 20.06 68.108 0.131 7.54 4.62 10.69
9/17/2021 6:00:00 PM 20.05 68.09 0.132 7.52 4.39 10.61
9/17/2021 6:15:00 PM 20.04 68.07201 0.132 7.51 4.49 10.49
9/17/2021 6:30:00 PM 20.03 68.054 0.133 7.49 4.37 10.39
9/17/2021 6:45:00 PM 20.01 68.018 0.133 7.46 4.44 10.28
9/17/2021 7:00:00 PM 19.99 67.982 0.133 7.45 4.42 10.18
9/17/2021 7:15:00 PM 19.97 67.946 0.134 7.43 4.63 10.1
9/17/2021 7:30:00 PM 19.94 67.892 0.133 7.41 4.79 9.99
9/17/2021 7:45:00 PM 19.92 67.856 0.134 7.41 4.94 9.91
9/17/2021 8:00:00 PM 19.9 67.82 0.134 7.38 5.25 9.84
9/17/2021 8:15:00 PM 19.88 67.784 0.134 7.37 4.95 9.78
9/17/2021 8:30:00 PM 19.85 67.73 0.134 7.36 5.34 9.72
9/17/2021 8:45:00 PM 19.83 67.694 0.134 7.35 5.01 9.68
9/17/2021 9:00:00 PM 19.81 67.658 0.134 7.33 5.04 9.63
9/17/2021 9:15:00 PM 19.78 67.604 0.134 7.32 5.23 9.6
9/17/2021 9:30:00 PM 19.74 67.532 0.135 7.32 5.15 9.56
9/17/2021 9:45:00 PM 19.71 67.478 0.135 7.3 5.13 9.55
9/17/2021 10:00:00 PM 19.67 67.406 0.135 7.3 4.9 9.51
9/17/2021 10:15:00 PM 19.63 67.334 0.135 7.3 5.18 9.49
9/17/2021 10:30:00 PM 19.6 67.28 0.136 7.28 5.17 9.45
9/17/2021 10:45:00 PM 19.55 67.19 0.136 7.29 5.12 9.44
9/17/2021 11:00:00 PM 19.52 67.136 0.136 7.28 5.35 9.42
9/17/2021 11:15:00 PM 19.47 67.046 0.136 7.27 4.94 9.41
9/17/2021 11:30:00 PM 19.43 66.974 0.136 7.26 4.98 9.38
9/17/2021 11:45:00 PM 19.4 66.92 0.136 7.27 5.11 9.36
9/18/2021 12:00:00 AM 19.37 66.866 0.137 7.26 5.15 9.35
9/18/2021 12:15:00 AM 19.33 66.794 0.137 7.25 4.99 9.34
9/18/2021 12:30:00 AM 19.3 66.74 0.137 7.25 5.03 9.33
9/18/2021 12:45:00 AM 19.27 66.686 0.138 7.25 5.76 9.32
9/18/2021 1:00:00 AM 19.23 66.614 0.138 7.25 5.81 9.32
9/18/2021 1:15:00 AM 19.19 66.542 0.138 7.25 5.6 9.32
9/18/2021 1:30:00 AM 19.15 66.47 0.138 7.22 5.44 9.32
9/18/2021 1:45:00 AM 19.12 66.416 0.138 7.25 5.3 9.31
9/18/2021 2:00:00 AM 19.08 66.344 0.138 7.24 4.93 9.32
9/18/2021 2:15:00 AM 19.04 66.272 0.138 7.23 5.46 9.31
9/18/2021 2:30:00 AM 18.99 66.182 0.139 7.22 5.03 9.32
9/18/2021 2:45:00 AM 18.95 66.11 0.139 7.2 5.49 9.32
9/18/2021 3:00:00 AM 18.91 66.038 0.139 7.2 5.23 9.31
9/18/2021 3:15:00 AM 18.87 65.966 0.139 7.21 5.11 9.32
9/18/2021 3:30:00 AM 18.83 65.894 0.14 7.21 5.24 9.33
9/18/2021 3:45:00 AM 18.8 65.84 0.14 7.21 5.12 9.32
9/18/2021 4:00:00 AM 18.77 65.786 0.14 7.18 5.37 9.33
9/18/2021 4:15:00 AM 18.75 65.75 0.14 7.21 5.14 9.33
9/18/2021 4:30:00 AM 18.73 65.714 0.14 7.2 5.11 9.33
9/18/2021 4:45:00 AM 18.7 65.66 0.141 7.2 5.41 9.33
9/18/2021 5:00:00 AM 18.68 65.624 0.141 7.21 5.3 9.34
9/18/2021 5:15:00 AM 18.65 65.57 0.141 7.19 4.96 9.35
9/18/2021 5:30:00 AM 18.63 65.534 0.141 7.22 5 9.36
9/18/2021 5:45:00 AM 18.61 65.498 0.141 7.22 5.27 9.37
9/18/2021 6:00:00 AM 18.6 65.48 0.142 7.21 5.12 9.37
9/18/2021 6:15:00 AM 18.58 65.444 0.142 7.22 5.09 9.37
9/18/2021 6:30:00 AM 18.56 65.408 0.142 7.21 5.35 9.38
9/18/2021 6:45:00 AM 18.54 65.372 0.143 7.21 5.42 9.37
9/18/2021 7:00:00 AM 18.53 65.354 0.143 7.21 5.46 9.38
9/18/2021 7:15:00 AM 18.51 65.318 0.143 7.21 5.04 9.39
9/18/2021 7:30:00 AM 18.5 65.3 0.143 7.22 5.19 9.41
9/18/2021 7:45:00 AM 18.49 65.282 0.143 7.22 5.12 9.47
9/18/2021 8:00:00 AM 18.48 65.264 0.143 7.23 5.12 9.52
9/18/2021 8:15:00 AM 18.47 65.246 0.143 7.23 4.84 9.56
9/18/2021 8:30:00 AM 18.48 65.264 0.143 7.24 4.66 9.64
9/18/2021 8:45:00 AM 18.5 65.3 0.143 7.26 4.58 9.74
9/18/2021 9:00:00 AM 18.52 65.336 0.143 7.26 4.47 9.83
9/18/2021 9:15:00 AM 18.55 65.39 0.143 7.28 4.55 9.97
9/18/2021 9:30:00 AM 18.58 65.444 0.144 7.29 4.49 10.07
9/18/2021 9:45:00 AM 18.63 65.534 0.143 7.31 4.19 10.18
9/18/2021 10:00:00 AM 18.67 65.606 0.144 7.33 4.38 10.31
9/18/2021 10:15:00 AM 18.7 65.66 0.144 7.34 4.21 10.39
9/18/2021 10:30:00 AM 18.75 65.75 0.144 7.37 4.08 10.53
9/18/2021 10:45:00 AM 18.84 65.912 0.144 7.38 4.11 10.68
9/18/2021 11:00:00 AM 18.91 66.038 0.144 7.42 3.93 10.75
9/18/2021 11:15:00 AM 18.98 66.164 0.145 7.43 3.99 10.86
9/18/2021 11:30:00 AM 19.12 66.416 0.145 7.42 3.71 10.95
9/18/2021 11:45:00 AM 19.23 66.614 0.145 7.49 3.77 11.07
9/18/2021 12:00:00 PM 19.24 66.632 0.145 7.52 3.7 11.1
9/18/2021 12:15:00 PM 19.25 66.65 0.146 7.47 3.76 11
9/18/2021 12:30:00 PM 19.38 66.884 0.146 7.53 3.51 11.1
9/18/2021 12:45:00 PM 19.48 67.064 0.146 7.56 3.54 11.26
9/18/2021 1:00:00 PM 19.53 67.154 0.146 7.59 3.4 11.36
9/18/2021 1:15:00 PM 19.68 67.424 0.146 7.61 3.44 11.46
9/18/2021 1:30:00 PM 19.82 67.676 0.146 7.64 3.27 11.53
9/18/2021 1:45:00 PM 19.94 67.892 0.146 7.67 3.37 11.6
9/18/2021 2:00:00 PM 20.02 68.036 0.146 7.69 3.36 11.66
9/18/2021 2:15:00 PM 20.07 68.126 0.146 7.72 3.25 11.74
9/18/2021 2:30:00 PM 20.12 68.216 0.146 7.73 3.18 11.73
9/18/2021 2:45:00 PM 20.13 68.234 0.146 7.73 3.02 11.64
9/18/2021 3:00:00 PM 20.16 68.288 0.147 7.73 3.08 11.52
9/18/2021 3:15:00 PM 20.24 68.432 0.147 7.72 3.19 11.51
9/18/2021 3:30:00 PM 20.36 68.648 0.147 7.75 3.08 11.6
9/18/2021 3:45:00 PM 20.43 68.774 0.147 7.76 2.97 11.56
9/18/2021 4:00:00 PM 20.52 68.936 0.147 7.76 3.04 11.56
9/18/2021 4:15:00 PM 20.58 69.044 0.148 7.78 3.05 11.47
9/18/2021 4:30:00 PM 20.64 69.152 0.148 7.76 2.99 11.43
9/18/2021 4:45:00 PM 20.7 69.26 0.148 7.77 2.96 11.4
9/18/2021 5:00:00 PM 20.74 69.332 0.148 7.76 2.92 11.32
9/18/2021 5:15:00 PM 20.77 69.386 0.148 7.76 2.96 11.24
9/18/2021 5:30:00 PM 20.81 69.458 0.148 7.73 2.97 11.14
9/18/2021 5:45:00 PM 20.83 69.494 0.148 7.71 3.06 11
9/18/2021 6:00:00 PM 20.85 69.53 0.149 7.7 3.03 10.84
9/18/2021 6:15:00 PM 20.85 69.53 0.149 7.66 3 10.68
9/18/2021 6:30:00 PM 20.85 69.53 0.149 7.64 3.05 10.53
9/18/2021 6:45:00 PM 20.84 69.512 0.149 7.61 3.5 10.4
9/18/2021 7:00:00 PM 20.83 69.494 0.149 7.6 3.07 10.25
9/18/2021 7:15:00 PM 20.81 69.458 0.15 7.57 3.24 10.12
9/18/2021 7:30:00 PM 20.78 69.404 0.15 7.53 3.31 9.98
9/18/2021 7:45:00 PM 20.74 69.332 0.15 7.51 3.44 9.86
9/18/2021 8:00:00 PM 20.69 69.242 0.151 7.48 3.8 9.76
9/18/2021 8:15:00 PM 20.66 69.188 0.15 7.47 3.72 9.67
9/18/2021 8:30:00 PM 20.62 69.116 0.151 7.45 3.71 9.6
9/18/2021 8:45:00 PM 20.58 69.044 0.151 7.43 3.88 9.54
9/18/2021 9:00:00 PM 20.53 68.954 0.15 7.42 3.91 9.48
9/18/2021 9:15:00 PM 20.48 68.864 0.15 7.41 3.91 9.42
9/18/2021 9:30:00 PM 20.43 68.774 0.15 7.41 3.99 9.38
9/18/2021 9:45:00 PM 20.37 68.666 0.15 7.39 4.02 9.34
9/18/2021 10:00:00 PM 20.3 68.54 0.15 7.38 3.83 9.31
9/18/2021 10:15:00 PM 20.24 68.432 0.15 7.38 3.73 9.29
9/18/2021 10:30:00 PM 20.17 68.306 0.15 7.37 3.85 9.27
9/18/2021 10:45:00 PM 20.1 68.18 0.15 7.36 3.89 9.26
9/18/2021 11:00:00 PM 20.02 68.036 0.15 7.36 3.79 9.23
9/18/2021 11:15:00 PM 19.94 67.892 0.151 7.35 3.86 9.21
9/18/2021 11:30:00 PM 19.88 67.784 0.151 7.34 3.99 9.18
9/18/2021 11:45:00 PM 19.8 67.64 0.151 7.32 3.85 9.18
9/19/2021 12:00:00 AM 19.74 67.532 0.151 7.32 3.91 9.17
9/19/2021 12:15:00 AM 19.69 67.442 0.151 7.31 3.84 9.17
9/19/2021 12:30:00 AM 19.63 67.334 0.151 7.3 3.98 9.16
9/19/2021 12:45:00 AM 19.56 67.208 0.151 7.31 3.86 9.17
9/19/2021 1:00:00 AM 19.49 67.082 0.151 7.3 4.04 9.17
9/19/2021 1:15:00 AM 19.43 66.974 0.151 7.3 3.68 9.15
9/19/2021 1:30:00 AM 19.36 66.848 0.151 7.29 3.77 9.16
9/19/2021 1:45:00 AM 19.27 66.686 0.152 7.29 3.74 9.17
9/19/2021 2:00:00 AM 19.2 66.56 0.152 7.29 3.82 9.15
9/19/2021 2:15:00 AM 19.13 66.434 0.152 7.28 4.28 9.18
9/19/2021 2:30:00 AM 19.05 66.29 0.152 7.28 4.41 9.19
9/19/2021 2:45:00 AM 18.99 66.182 0.152 7.28 4.42 9.19
9/19/2021 3:00:00 AM 18.92 66.056 0.152 7.28 4.14 9.22
9/19/2021 3:15:00 AM 18.85 65.93 0.152 7.27 4.34 9.21
9/19/2021 3:30:00 AM 18.78 65.804 0.152 7.27 4.02 9.21
9/19/2021 3:45:00 AM 18.7 65.66 0.153 7.26 3.89 9.23
9/19/2021 4:00:00 AM 18.63 65.534 0.153 7.27 3.88 9.23
9/19/2021 4:15:00 AM 18.57 65.426 0.153 7.26 3.91 9.23
9/19/2021 4:30:00 AM 18.49 65.282 0.153 7.22 3.97 9.27
9/19/2021 4:45:00 AM 18.43 65.174 0.153 7.24 3.86 9.28
9/19/2021 5:00:00 AM 18.37 65.066 0.153 7.22 3.85 9.28
9/19/2021 5:15:00 AM 18.3 64.94 0.153 7.21 3.72 9.3
9/19/2021 5:30:00 AM 18.24 64.832 0.153 7.21 3.77 9.31
9/19/2021 5:45:00 AM 18.18 64.724 0.153 7.22 3.96 9.32
9/19/2021 6:00:00 AM 18.12 64.616 0.153 7.21 3.89 9.33
9/19/2021 6:15:00 AM 18.05 64.49 0.153 7.21 4.07 9.35
9/19/2021 6:30:00 AM 18 64.4 0.153 7.21 4.17 9.35
9/19/2021 6:45:00 AM 17.94 64.292 0.153 7.22 4.05 9.38
9/19/2021 7:00:00 AM 17.87 64.166 0.153 7.2 4.28 9.4
9/19/2021 7:15:00 AM 17.82 64.076 0.153 7.22 4.44 9.42
9/19/2021 7:30:00 AM 17.76 63.968 0.153 7.22 4.22 9.46
9/19/2021 7:45:00 AM 17.72 63.896 0.153 7.18 3.99 9.51
9/19/2021 8:00:00 AM 17.67 63.806 0.153 7.24 4.12 9.59
9/19/2021 8:15:00 AM 17.64 63.752 0.153 7.25 4.02 9.68
9/19/2021 8:30:00 AM 17.61 63.698 0.153 7.27 3.76 9.84
9/19/2021 8:45:00 AM 17.59 63.662 0.153 7.28 3.65 9.98
9/19/2021 9:00:00 AM 17.56 63.608 0.153 7.3 3.54 10.09
9/19/2021 9:15:00 AM 17.54 63.572 0.153 7.29 3.52 10.18
9/19/2021 9:30:00 AM 17.52 63.536 0.153 7.33 3.43 10.2
9/19/2021 9:45:00 AM 17.5 63.5 0.153 7.34 3.24 10.27
9/19/2021 10:00:00 AM 17.52 63.536 0.153 7.34 3.22 10.35
9/19/2021 10:15:00 AM 17.56 63.608 0.153 7.36 3.04 10.47
9/19/2021 10:30:00 AM 17.62 63.716 0.153 7.38 3.15 10.55
9/19/2021 10:45:00 AM 17.68 63.824 0.153 7.38 3.05 10.69
9/19/2021 11:00:00 AM 17.76 63.968 0.153 7.42 3.03 10.8
9/19/2021 11:15:00 AM 17.84 64.112 0.154 7.43 2.93 10.91
9/19/2021 11:30:00 AM 17.92 64.256 0.154 7.45 2.8 10.98
9/19/2021 11:45:00 AM 17.99 64.382 0.154 7.47 2.8 11.07
9/19/2021 12:00:00 PM 18.07 64.526 0.154 7.49 2.91 11.15
9/19/2021 12:15:00 PM 18.15 64.67 0.154 7.5 2.74 11.2
9/19/2021 12:30:00 PM 18.24 64.832 0.154 7.54 2.74 11.28
9/19/2021 12:45:00 PM 18.33 64.994 0.154 7.56 2.54 11.39
9/19/2021 1:00:00 PM 18.42 65.156 0.154 7.56 2.5 11.45
9/19/2021 1:15:00 PM 18.51 65.318 0.155 7.6 2.45 11.5
9/19/2021 1:30:00 PM 18.61 65.498 0.155 7.62 2.61 11.57
9/19/2021 1:45:00 PM 18.7 65.66 0.155 7.64 2.5 11.61
9/19/2021 2:00:00 PM 18.79 65.82201 0.155 7.66 2.52 11.7
9/19/2021 2:15:00 PM 18.88 65.984 0.155 7.67 2.56 11.75
9/19/2021 2:30:00 PM 18.95 66.11 0.155 7.72 2.44 11.77
9/19/2021 2:45:00 PM 19.05 66.29 0.155 7.75 2.32 11.82
9/19/2021 3:00:00 PM 19.13 66.434 0.155 7.76 2.43 11.83
9/19/2021 3:15:00 PM 19.22 66.596 0.155 7.78 2.42 11.84
9/19/2021 3:30:00 PM 19.31 66.758 0.155 7.79 2.48 11.84
9/19/2021 3:45:00 PM 19.38 66.884 0.155 7.79 2.5 11.8
9/19/2021 4:00:00 PM 19.43 66.974 0.154 7.78 2.4 11.75
9/19/2021 4:15:00 PM 19.49 67.082 0.155 7.79 2.44 11.7
9/19/2021 4:30:00 PM 19.53 67.154 0.155 7.79 2.42 11.62
9/19/2021 4:45:00 PM 19.57 67.226 0.155 7.78 2.39 11.52
9/19/2021 5:00:00 PM 19.61 67.298 0.155 7.76 2.27 11.4
9/19/2021 5:15:00 PM 19.62 67.316 0.155 7.74 2.29 11.26
9/19/2021 5:30:00 PM 19.62 67.316 0.154 7.71 2.34 11.1
9/19/2021 5:45:00 PM 19.64 67.352 0.154 7.69 2.39 10.96
9/19/2021 6:00:00 PM 19.65 67.37 0.154 7.67 2.43 10.84
9/19/2021 6:15:00 PM 19.67 67.406 0.153 7.6 2.45 10.7
9/19/2021 6:30:00 PM 19.67 67.406 0.154 7.57 2.42 10.59
9/19/2021 6:45:00 PM 19.67 67.406 0.154 7.55 2.85 10.49
9/19/2021 7:00:00 PM 19.64 67.352 0.155 7.54 2.45 10.39
9/19/2021 7:15:00 PM 19.63 67.334 0.155 7.52 2.62 10.27
9/19/2021 7:30:00 PM 19.58 67.244 0.156 7.5 2.85 10.15
9/19/2021 7:45:00 PM 19.53 67.154 0.156 7.49 2.94 10.04
9/19/2021 8:00:00 PM 19.48 67.064 0.157 7.47 3.07 9.94
9/19/2021 8:15:00 PM 19.43 66.974 0.157 7.45 3.11 9.85
9/19/2021 8:30:00 PM 19.38 66.884 0.157 7.44 3.05 9.79
9/19/2021 8:45:00 PM 19.32 66.776 0.157 7.43 3.22 9.72
9/19/2021 9:00:00 PM 19.25 66.65 0.157 7.41 3.06 9.66
9/19/2021 9:15:00 PM 19.18 66.524 0.157 7.4 3.26 9.61
9/19/2021 9:30:00 PM 19.11 66.398 0.157 7.4 3.32 9.58
9/19/2021 9:45:00 PM 19.05 66.29 0.157 7.38 3.15 9.55
9/19/2021 10:00:00 PM 18.97 66.146 0.157 7.35 3.12 9.53
9/19/2021 10:15:00 PM 18.89 66.002 0.157 7.37 3.19 9.52
9/19/2021 10:30:00 PM 18.81 65.858 0.157 7.36 3.12 9.5
9/19/2021 10:45:00 PM 18.73 65.714 0.157 7.33 3.61 9.47
9/19/2021 11:00:00 PM 18.65 65.57 0.157 7.35 3.15 9.46
9/19/2021 11:15:00 PM 18.56 65.408 0.157 7.34 3.34 9.45
9/19/2021 11:30:00 PM 18.48 65.264 0.158 7.34 3.17 9.45
9/19/2021 11:45:00 PM 18.39 65.102 0.158 7.34 3.38 9.44
9/20/2021 12:00:00 AM 18.31 64.958 0.158 7.33 3.41 9.44
9/20/2021 12:15:00 AM 18.22 64.796 0.158 7.33 3.49 9.44
9/20/2021 12:30:00 AM 18.14 64.652 0.158 7.38 3.4 9.43
9/20/2021 12:45:00 AM 18.06 64.508 0.158 7.37 3.55 9.42
9/20/2021 1:00:00 AM 17.97 64.346 0.158 7.34 4.98 9.43
9/20/2021 1:15:00 AM 17.88 64.184 0.158 7.37 5.44 9.45
9/20/2021 1:30:00 AM 17.8 64.04 0.158 7.36 5.12 9.46
9/20/2021 1:45:00 AM 17.7 63.86 0.158 7.36 5 9.47
9/20/2021 2:00:00 AM 17.62 63.716 0.159 7.35 5.29 9.47
9/20/2021 2:15:00 AM 17.53 63.554 0.159 7.34 6.77 9.47
9/20/2021 2:30:00 AM 17.45 63.41 0.159 7.29 6.41 9.48
9/20/2021 2:45:00 AM 17.36 63.248 0.159 7.25 5.58 9.5
9/20/2021 3:00:00 AM 17.28 63.104 0.159 7.27 5.26 9.52
9/20/2021 3:15:00 AM 17.2 62.96 0.159 7.27 4.84 9.53
9/20/2021 3:30:00 AM 17.12 62.816 0.159 7.26 4.32 9.55
9/20/2021 3:45:00 AM 17.05 62.69 0.159 7.23 4.08 9.55
9/20/2021 4:00:00 AM 16.97 62.546 0.159 7.23 4.13 9.57
9/20/2021 4:15:00 AM 16.9 62.42 0.159 7.25 4.06 9.57
9/20/2021 4:30:00 AM 16.82 62.276 0.159 7.25 4.05 9.61
9/20/2021 4:45:00 AM 16.74 62.132 0.159 7.25 4.09 9.62
9/20/2021 5:00:00 AM 16.67 62.006 0.159 7.18 3.97 9.65
9/20/2021 5:15:00 AM 16.6 61.88 0.159 7.22 4.55 9.66
9/20/2021 5:30:00 AM 16.52 61.736 0.16 7.24 3.69 9.67
9/20/2021 5:45:00 AM 16.45 61.61 0.159 7.23 3.68 9.68
9/20/2021 6:00:00 AM 16.39 61.502 0.16 7.25 4.12 9.68
9/20/2021 6:15:00 AM 16.32 61.376 0.16 7.26 4.19 9.71
9/20/2021 6:30:00 AM 16.25 61.25 0.16 7.26 4.24 9.73
9/20/2021 6:45:00 AM 16.19 61.142 0.16 7.24 4.06 9.75
9/20/2021 7:00:00 AM 16.13 61.034 0.16 7.26 4 9.77
9/20/2021 7:15:00 AM 16.07 60.926 0.16 7.24 3.71 9.81
9/20/2021 7:30:00 AM 16.01 60.818 0.16 7.26 3.93 9.84
9/20/2021 7:45:00 AM 15.96 60.728 0.16 7.26 3.97 9.9
9/20/2021 8:00:00 AM 15.91 60.638 0.16 7.28 3.99 9.98
9/20/2021 8:15:00 AM 15.87 60.566 0.16 7.29 3.93 10.08
9/20/2021 8:30:00 AM 15.84 60.512 0.16 7.31 3.94 10.23
9/20/2021 8:45:00 AM 15.84 60.512 0.161 7.33 3.75 10.39
9/20/2021 9:00:00 AM 15.85 60.53 0.16 7.36 3.5 10.63
9/20/2021 9:15:00 AM 15.85 60.53 0.16 7.36 3.47 10.8
9/20/2021 9:30:00 AM 15.84 60.512 0.161 7.36 3.34 10.85
9/20/2021 9:45:00 AM 15.83 60.494 0.161 7.36 3.18 10.83
9/20/2021 10:00:00 AM 15.85 60.53 0.161 7.36 2.97 10.86
9/20/2021 10:15:00 AM 15.89 60.602 0.161 7.41 2.91 10.98
9/20/2021 10:30:00 AM 15.96 60.728 0.161 7.4 2.85 11.11
9/20/2021 10:45:00 AM 16.04 60.872 0.161 7.43 2.72 11.23
9/20/2021 11:00:00 AM 16.14 61.052 0.161 7.45 2.78 11.33
9/20/2021 11:15:00 AM 16.25 61.25 0.161 7.47 2.64 11.4
9/20/2021 11:30:00 AM 16.37 61.466 0.161 7.49 2.68 11.49
9/20/2021 11:45:00 AM 16.49 61.682 0.161 7.52 2.64 11.57
9/20/2021 12:00:00 PM 16.57 61.826 0.161 7.54 2.56 11.67
9/20/2021 12:15:00 PM 16.69 62.042 0.161 7.54 2.47 11.86
9/20/2021 12:30:00 PM 16.77 62.186 0.161 7.59 2.47 11.95
9/20/2021 12:45:00 PM 16.9 62.42 0.161 7.63 2.35 12.06
9/20/2021 1:00:00 PM 17.03 62.654 0.161 7.65 2.44 12.12
9/20/2021 1:15:00 PM 17.17 62.906 0.161 7.66 2.37 12.15
9/20/2021 1:30:00 PM 17.29 63.122 0.161 7.66 2.46 12.18
9/20/2021 1:45:00 PM 17.42 63.356 0.161 7.69 2.33 12.22
9/20/2021 2:00:00 PM 17.54 63.572 0.161 7.71 2.31 12.26
9/20/2021 2:15:00 PM 17.66 63.788 0.162 7.73 2.32 12.33
9/20/2021 2:30:00 PM 17.78 64.004 0.162 7.76 2.27 12.39
9/20/2021 2:45:00 PM 17.87 64.166 0.162 7.77 2.26 12.39
9/20/2021 3:00:00 PM 17.98 64.364 0.162 7.78 2.22 12.4
9/20/2021 3:15:00 PM 18.08 64.544 0.162 7.8 2.19 12.4
9/20/2021 3:30:00 PM 18.16 64.688 0.162 7.81 2.34 12.41
9/20/2021 3:45:00 PM 18.25 64.85 0.162 7.85 2.23 12.41
9/20/2021 4:00:00 PM 18.29 64.922 0.161 7.84 2.22 12.36
9/20/2021 4:15:00 PM 18.35 65.03 0.161 7.84 2.28 12.32
9/20/2021 4:30:00 PM 18.39 65.102 0.162 7.83 2.28 12.27
9/20/2021 4:45:00 PM 18.45 65.21 0.161 7.83 2.21 12.18
9/20/2021 5:00:00 PM 18.49 65.282 0.161 7.83 2.4 12.12
9/20/2021 5:15:00 PM 18.52 65.336 0.161 7.82 2.24 12.02
9/20/2021 5:30:00 PM 18.54 65.372 0.161 7.78 2.22 11.9
9/20/2021 5:45:00 PM 18.55 65.39 0.162 7.78 2.2 11.75
9/20/2021 6:00:00 PM 18.57 65.426 0.162 7.74 2.26 11.58
9/20/2021 6:15:00 PM 18.6 65.48 0.162 7.71 2.22 11.39
9/20/2021 6:30:00 PM 18.62 65.516 0.162 7.68 2.32 11.23
9/20/2021 6:45:00 PM 18.66 65.588 0.162 7.67 2.3 11.11
9/20/2021 7:00:00 PM 18.69 65.642 0.162 7.66 2.38 10.98
9/20/2021 7:15:00 PM 18.71 65.67799 0.162 7.63 2.34 10.83
9/20/2021 7:30:00 PM 18.73 65.714 0.163 7.6 2.47 10.66
9/20/2021 7:45:00 PM 18.74 65.732 0.163 7.57 2.53 10.48
9/20/2021 8:00:00 PM 18.74 65.732 0.163 7.5 2.58 10.35
9/20/2021 8:15:00 PM 18.75 65.75 0.164 7.53 3.16 10.23
9/20/2021 8:30:00 PM 18.75 65.75 0.164 7.51 3.71 10.11
9/20/2021 8:45:00 PM 18.76 65.768 0.164 7.49 3.92 10.01
9/20/2021 9:00:00 PM 18.74 65.732 0.164 7.49 3.28 9.92
9/20/2021 9:15:00 PM 18.73 65.714 0.164 7.43 3.07 9.87
9/20/2021 9:30:00 PM 18.71 65.67799 0.164 7.46 3.04 9.8
9/20/2021 9:45:00 PM 18.68 65.624 0.164 7.44 2.79 9.74
9/20/2021 10:00:00 PM 18.63 65.534 0.164 7.43 2.94 9.69
9/20/2021 10:15:00 PM 18.6 65.48 0.164 7.38 2.95 9.65
9/20/2021 10:30:00 PM 18.55 65.39 0.164 7.39 2.86 9.62
9/20/2021 10:45:00 PM 18.5 65.3 0.164 7.41 3.06 9.59
9/20/2021 11:00:00 PM 18.45 65.21 0.164 7.4 3.34 9.56
9/20/2021 11:15:00 PM 18.4 65.12 0.164 7.39 3.47 9.55
9/20/2021 11:30:00 PM 18.34 65.012 0.164 7.38 3.98 9.53
9/20/2021 11:45:00 PM 18.28 64.904 0.164 7.38 3.9 9.51
9/21/2021 12:00:00 AM 18.23 64.814 0.164 7.37 3.93 9.49
9/21/2021 12:15:00 AM 18.17 64.706 0.165 7.37 3.79 9.48
9/21/2021 12:30:00 AM 18.12 64.616 0.165 7.36 3.64 9.46
9/21/2021 12:45:00 AM 18.08 64.544 0.165 7.33 3.3 9.44
9/21/2021 1:00:00 AM 18.04 64.472 0.165 7.32 3.39 9.44
9/21/2021 1:15:00 AM 17.99 64.382 0.165 7.32 3.36 9.42
9/21/2021 1:30:00 AM 17.95 64.31 0.165 7.32 3.34 9.42
9/21/2021 1:45:00 AM 17.9 64.22 0.165 7.29 3.13 9.43
9/21/2021 2:00:00 AM 17.86 64.148 0.165 7.32 3.18 9.43
9/21/2021 2:15:00 AM 17.81 64.058 0.165 7.31 3.08 9.43
9/21/2021 2:30:00 AM 17.76 63.968 0.165 7.31 3.44 9.42
9/21/2021 2:45:00 AM 17.71 63.878 0.166 7.3 4.02 9.42
9/21/2021 3:00:00 AM 17.66 63.788 0.166 7.3 3.71 9.41
9/21/2021 3:15:00 AM 17.61 63.698 0.166 7.3 3.79 9.43
9/21/2021 3:30:00 AM 17.56 63.608 0.166 7.3 3.66 9.41
9/21/2021 3:45:00 AM 17.52 63.536 0.166 7.3 3.59 9.43
9/21/2021 4:00:00 AM 17.46 63.428 0.166 7.29 3.14 9.44
9/21/2021 4:15:00 AM 17.42 63.356 0.166 7.28 3.22 9.44
9/21/2021 4:30:00 AM 17.38 63.284 0.166 7.28 3.62 9.44
9/21/2021 4:45:00 AM 17.34 63.212 0.167 7.28 3.21 9.45
9/21/2021 5:00:00 AM 17.29 63.122 0.167 7.29 4.45 9.46
9/21/2021 5:15:00 AM 17.24 63.032 0.167 7.28 3.4 9.46
9/21/2021 5:30:00 AM 17.2 62.96 0.167 7.27 3.12 9.49
9/21/2021 5:45:00 AM 17.16 62.888 0.167 7.28 3.32 9.48
9/21/2021 6:00:00 AM 17.11 62.798 0.167 7.27 3.33 9.49
9/21/2021 6:15:00 AM 17.05 62.69 0.167 7.27 3.49 9.5
9/21/2021 6:30:00 AM 16.99 62.582 0.167 7.27 3.48 9.5
9/21/2021 6:45:00 AM 16.92 62.456 0.167 7.27 3.2 9.52
9/21/2021 7:00:00 AM 16.86 62.348 0.167 7.26 3.56 9.51
9/21/2021 7:15:00 AM 16.8 62.24 0.167 7.23 3.36 9.55
9/21/2021 7:30:00 AM 16.74 62.132 0.167 7.27 3.27 9.6
9/21/2021 7:45:00 AM 16.7 62.06 0.167 7.26 3.38 9.65
9/21/2021 8:00:00 AM 16.66 61.988 0.167 7.28 3.48 9.75
9/21/2021 8:15:00 AM 16.63 61.934 0.167 7.28 3.1 9.84
9/21/2021 8:30:00 AM 16.61 61.898 0.167 7.29 3.26 9.96
9/21/2021 8:45:00 AM 16.6 61.88 0.167 7.29 3.05 10.07
9/21/2021 9:00:00 AM 16.61 61.898 0.167 7.31 3.15 10.2
9/21/2021 9:15:00 AM 16.62 61.916 0.167 7.33 2.97 10.38
9/21/2021 9:30:00 AM 16.63 61.934 0.167 7.35 2.86 10.48
9/21/2021 9:45:00 AM 16.69 62.042 0.167 7.37 2.78 10.62
9/21/2021 10:00:00 AM 16.76 62.168 0.167 7.39 2.67 10.83
9/21/2021 10:15:00 AM 16.84 62.312 0.167 7.42 2.54 11.06
9/21/2021 10:30:00 AM 16.89 62.402 0.167 7.46 2.65 11.25
9/21/2021 10:45:00 AM 16.97 62.546 0.167 7.48 2.53 11.46
9/21/2021 11:00:00 AM 17.05 62.69 0.167 7.52 2.37 11.48
9/21/2021 11:15:00 AM 17.17 62.906 0.167 7.55 2.49 11.66
9/21/2021 11:30:00 AM 17.28 63.104 0.168 7.57 2.36 11.77
9/21/2021 11:45:00 AM 17.33 63.194 0.168 7.61 2.4 11.88
9/21/2021 12:00:00 PM 17.38 63.284 0.168 7.64 2.29 11.98
9/21/2021 12:15:00 PM 17.49 63.482 0.168 7.68 2.36 12.14
9/21/2021 12:30:00 PM 17.63 63.734 0.168 7.68 2.34 12.28
9/21/2021 12:45:00 PM 17.78 64.004 0.168 7.75 2.31 12.4
9/21/2021 1:00:00 PM 17.91 64.238 0.168 7.79 2.37 12.48
9/21/2021 1:15:00 PM 18.06 64.508 0.168 7.81 2.07 12.53
9/21/2021 1:30:00 PM 18.09 64.562 0.168 7.83 2.17 12.55
9/21/2021 1:45:00 PM 18.16 64.688 0.168 7.85 2.06 12.6
9/21/2021 2:00:00 PM 18.08 64.544 0.168 7.87 2.1 12.58
9/21/2021 2:15:00 PM 18.11 64.598 0.168 7.89 2.19 12.62
9/21/2021 2:30:00 PM 18.09 64.562 0.168 7.88 2.18 12.54
9/21/2021 2:45:00 PM 18.11 64.598 0.168 7.9 2.24 12.58
9/21/2021 3:00:00 PM 18.1 64.58 0.168 7.91 2.14 12.54
9/21/2021 3:15:00 PM 18.09 64.562 0.169 7.91 2.26 12.54
9/21/2021 3:30:00 PM 18.08 64.544 0.168 7.9 2.14 12.46
9/21/2021 3:45:00 PM 18.09 64.562 0.168 7.91 2.13 12.46
9/21/2021 4:00:00 PM 18.12 64.616 0.168 7.94 2.13 12.53
9/21/2021 4:15:00 PM 18.12 64.616 0.169 7.93 2.13 12.52
9/21/2021 4:30:00 PM 18.14 64.652 0.169 7.95 2.14 12.52
9/21/2021 4:45:00 PM 18.16 64.688 0.169 7.93 2.05 12.44
9/21/2021 5:00:00 PM 18.17 64.706 0.169 7.93 2.15 12.36
9/21/2021 5:15:00 PM 18.19 64.742 0.169 7.91 2.18 12.29
9/21/2021 5:30:00 PM 18.19 64.742 0.169 7.89 2.14 12.16
9/21/2021 5:45:00 PM 18.2 64.76 0.169 7.85 2.13 12.03
9/21/2021 6:00:00 PM 18.21 64.778 0.17 7.82 2.17 11.86
9/21/2021 6:15:00 PM 18.23 64.814 0.169 7.79 2.11 11.72
9/21/2021 6:30:00 PM 18.24 64.832 0.17 7.76 2.25 11.57
9/21/2021 6:45:00 PM 18.26 64.868 0.17 7.71 2.09 11.39
9/21/2021 7:00:00 PM 18.25 64.85 0.17 7.68 2.4 11.18
9/21/2021 7:15:00 PM 18.27 64.886 0.17 7.63 2.25 10.99
9/21/2021 7:30:00 PM 18.27 64.886 0.171 7.57 2.28 10.8
9/21/2021 7:45:00 PM 18.29 64.922 0.171 7.58 2.43 10.63
9/21/2021 8:00:00 PM 18.31 64.958 0.171 7.55 2.67 10.51
9/21/2021 8:15:00 PM 18.33 64.994 0.171 7.53 2.55 10.37
9/21/2021 8:30:00 PM 18.35 65.03 0.171 7.51 2.64 10.25
9/21/2021 8:45:00 PM 18.36 65.048 0.171 7.49 2.68 10.14
9/21/2021 9:00:00 PM 18.36 65.048 0.171 7.47 2.57 10.05
9/21/2021 9:15:00 PM 18.39 65.102 0.171 7.46 2.74 9.96
9/21/2021 9:30:00 PM 18.39 65.102 0.171 7.45 2.69 9.88
9/21/2021 9:45:00 PM 18.39 65.102 0.171 7.43 2.54 9.81
9/21/2021 10:00:00 PM 18.39 65.102 0.172 7.43 2.67 9.75
9/21/2021 10:15:00 PM 18.39 65.102 0.171 7.42 2.77 9.69
9/21/2021 10:30:00 PM 18.38 65.084 0.171 7.4 3.01 9.64
9/21/2021 10:45:00 PM 18.36 65.048 0.171 7.4 3.28 9.61
9/21/2021 11:00:00 PM 18.35 65.03 0.171 7.39 3.1 9.57
9/21/2021 11:15:00 PM 18.32 64.976 0.171 7.38 3.12 9.53
9/21/2021 11:30:00 PM 18.29 64.922 0.171 7.38 2.9 9.52
9/21/2021 11:45:00 PM 18.26 64.868 0.171 7.37 3.01 9.49
9/22/2021 12:00:00 AM 18.23 64.814 0.172 7.37 3.16 9.46
9/22/2021 12:15:00 AM 18.2 64.76 0.172 7.35 3.08 9.43
9/22/2021 12:30:00 AM 18.17 64.706 0.171 7.34 3.13 9.42
9/22/2021 12:45:00 AM 18.15 64.67 0.172 7.35 2.99 9.4
9/22/2021 1:00:00 AM 18.13 64.634 0.172 7.34 3.04 9.36
9/22/2021 1:15:00 AM 18.11 64.598 0.172 7.33 2.94 9.36
9/22/2021 1:30:00 AM 18.09 64.562 0.172 7.31 2.9 9.34
9/22/2021 1:45:00 AM 18.07 64.526 0.171 7.33 2.86 9.34
9/22/2021 2:00:00 AM 18.05 64.49 0.172 7.32 3.03 9.31
9/22/2021 2:15:00 AM 18.03 64.454 0.171 7.32 3.05 9.29
9/22/2021 2:30:00 AM 18.01 64.418 0.171 7.31 2.88 9.3
9/22/2021 2:45:00 AM 17.99 64.382 0.172 7.31 2.95 9.27
9/22/2021 3:00:00 AM 17.97 64.346 0.172 7.29 3.03 9.26
9/22/2021 3:15:00 AM 17.95 64.31 0.172 7.28 3.02 9.26
9/22/2021 3:30:00 AM 17.94 64.292 0.172 7.31 3.23 9.25
9/22/2021 3:45:00 AM 17.92 64.256 0.172 7.28 2.93 9.24
9/22/2021 4:00:00 AM 17.9 64.22 0.172 7.3 3.09 9.24
9/22/2021 4:15:00 AM 17.88 64.184 0.172 7.29 3 9.25
9/22/2021 4:30:00 AM 17.86 64.148 0.172 7.29 2.98 9.24
9/22/2021 4:45:00 AM 17.85 64.13 0.173 7.3 3.18 9.23
9/22/2021 5:00:00 AM 17.82 64.076 0.173 7.3 3.29 9.25
9/22/2021 5:15:00 AM 17.8 64.04 0.173 7.29 3.03 9.25
9/22/2021 5:30:00 AM 17.79 64.022 0.173 7.29 3.13 9.22
9/22/2021 5:45:00 AM 17.77 63.986 0.173 7.29 3.17 9.25
9/22/2021 6:00:00 AM 17.76 63.968 0.174 7.29 3.16 9.22
9/22/2021 6:15:00 AM 17.75 63.95 0.174 7.29 3.19 9.23
9/22/2021 6:30:00 AM 17.73 63.914 0.174 7.25 3.46 9.2
9/22/2021 6:45:00 AM 17.71 63.878 0.174 7.29 3.29 9.23
9/22/2021 7:00:00 AM 17.69 63.842 0.174 7.28 3.2 9.22
9/22/2021 7:15:00 AM 17.68 63.824 0.175 7.28 3.21 9.2
9/22/2021 7:30:00 AM 17.66 63.788 0.175 7.29 3.18 9.25
9/22/2021 7:45:00 AM 17.65 63.77 0.174 7.29 3.03 9.28
9/22/2021 8:00:00 AM 17.64 63.752 0.175 7.3 2.96 9.35
9/22/2021 8:15:00 AM 17.65 63.77 0.175 7.3 2.94 9.5
9/22/2021 8:30:00 AM 17.66 63.788 0.174 7.32 2.84 9.64
9/22/2021 8:45:00 AM 17.69 63.842 0.174 7.33 2.92 9.82
9/22/2021 9:00:00 AM 17.73 63.914 0.174 7.34 2.74 10.04
9/22/2021 9:15:00 AM 17.76 63.968 0.174 7.37 2.73 10.21
9/22/2021 9:30:00 AM 17.83 64.094 0.174 7.39 2.66 10.42
9/22/2021 9:45:00 AM 17.86 64.148 0.174 7.42 2.51 10.56
9/22/2021 10:00:00 AM 17.91 64.238 0.174 7.44 2.6 10.74
9/22/2021 10:15:00 AM 17.96 64.328 0.174 7.48 2.29 10.89
9/22/2021 10:30:00 AM 17.99 64.382 0.174 7.5 2.45 10.99
9/22/2021 10:45:00 AM 18.04 64.472 0.175 7.52 2.36 11.12
9/22/2021 11:00:00 AM 18.05 64.49 0.175 7.53 2.35 11.16
9/22/2021 11:15:00 AM 18.1 64.58 0.175 7.55 2.21 11.26
9/22/2021 11:30:00 AM 18.13 64.634 0.174 7.56 2.33 11.29
9/22/2021 11:45:00 AM 18.2 64.76 0.175 7.58 2.21 11.46
9/22/2021 12:00:00 PM 18.3 64.94 0.175 7.61 2.24 11.58
9/22/2021 12:15:00 PM 18.39 65.102 0.175 7.62 2.25 11.76
9/22/2021 12:30:00 PM 18.53 65.354 0.175 7.7 2.28 12
9/22/2021 12:45:00 PM 18.59 65.462 0.175 7.76 2.26 12.15
9/22/2021 1:00:00 PM 18.67 65.606 0.175 7.79 2.12 12.26
9/22/2021 1:15:00 PM 18.72 65.696 0.175 7.82 2.11 12.33
9/22/2021 1:30:00 PM 18.74 65.732 0.175 7.84 2.27 12.3
9/22/2021 1:45:00 PM 18.8 65.84 0.175 7.84 2.25 12.32
9/22/2021 2:00:00 PM 18.84 65.912 0.176 7.87 2.26 12.37
9/22/2021 2:15:00 PM 18.9 66.02 0.175 7.92 2.32 12.45
9/22/2021 2:30:00 PM 18.95 66.11 0.176 7.94 2.13 12.47
9/22/2021 2:45:00 PM 18.98 66.164 0.176 7.95 2.2 12.47
9/22/2021 3:00:00 PM 19.01 66.218 0.176 7.97 2.29 12.46
9/22/2021 3:15:00 PM 19.04 66.272 0.176 7.99 2.2 12.49
9/22/2021 3:30:00 PM 19.04 66.272 0.176 7.97 2.14 12.38
9/22/2021 3:45:00 PM 19.07 66.326 0.176 7.97 2.1 12.34
9/22/2021 4:00:00 PM 19.08 66.344 0.176 7.97 1.97 12.27
9/22/2021 4:15:00 PM 19.09 66.362 0.176 7.96 2.12 12.24
9/22/2021 4:30:00 PM 19.1 66.38 0.176 7.93 2.1 12.1
9/22/2021 4:45:00 PM 19.11 66.398 0.176 7.91 2.07 11.99
9/22/2021 5:00:00 PM 19.12 66.416 0.176 7.87 2.03 11.91
9/22/2021 5:15:00 PM 19.14 66.452 0.175 7.88 1.97 11.82
9/22/2021 5:30:00 PM 19.13 66.434 0.176 7.85 2 11.67
9/22/2021 5:45:00 PM 19.14 66.452 0.176 7.81 2.01 11.5
9/22/2021 6:00:00 PM 19.13 66.434 0.176 7.77 2.06 11.32
9/22/2021 6:15:00 PM 19.13 66.434 0.176 7.74 2.1 11.13
9/22/2021 6:30:00 PM 19.13 66.434 0.176 7.7 2.05 10.93
9/22/2021 6:45:00 PM 19.12 66.416 0.176 7.66 2.07 10.74
9/22/2021 7:00:00 PM 19.11 66.398 0.177 7.63 2.15 10.57
9/22/2021 7:15:00 PM 19.1 66.38 0.177 7.57 2.2 10.42
9/22/2021 7:30:00 PM 19.1 66.38 0.177 7.58 2.27 10.28
9/22/2021 7:45:00 PM 19.1 66.38 0.177 7.55 2.51 10.14
9/22/2021 8:00:00 PM 19.09 66.362 0.177 7.53 2.65 10.02
9/22/2021 8:15:00 PM 19.09 66.362 0.178 7.51 2.75 9.91
9/22/2021 8:30:00 PM 19.09 66.362 0.178 7.48 2.57 9.81
9/22/2021 8:45:00 PM 19.09 66.362 0.178 7.47 2.56 9.72
9/22/2021 9:00:00 PM 19.1 66.38 0.178 7.46 2.57 9.65
9/22/2021 9:15:00 PM 19.1 66.38 0.178 7.45 2.85 9.58
9/22/2021 9:30:00 PM 19.1 66.38 0.178 7.44 2.74 9.51
9/22/2021 9:45:00 PM 19.1 66.38 0.178 7.38 2.7 9.45
9/22/2021 10:00:00 PM 19.1 66.38 0.178 7.41 2.82 9.4
9/22/2021 10:15:00 PM 19.1 66.38 0.178 7.41 2.74 9.35
9/22/2021 10:30:00 PM 19.11 66.398 0.178 7.4 2.82 9.31
9/22/2021 10:45:00 PM 19.09 66.362 0.178 7.4 2.61 9.27
9/22/2021 11:00:00 PM 19.1 66.38 0.178 7.39 2.72 9.24
9/22/2021 11:15:00 PM 19.09 66.362 0.178 7.37 2.73 9.21
9/22/2021 11:30:00 PM 19.09 66.362 0.178 7.38 2.81 9.18
9/22/2021 11:45:00 PM 19.08 66.344 0.178 7.38 2.81 9.16
9/23/2021 12:00:00 AM 19.07 66.326 0.178 7.36 2.72 9.12
9/23/2021 12:15:00 AM 19.06 66.308 0.178 7.37 2.72 9.11
9/23/2021 12:30:00 AM 19.05 66.29 0.178 7.36 2.79 9.09
9/23/2021 12:45:00 AM 19.04 66.272 0.178 7.37 2.65 9.06
9/23/2021 1:00:00 AM 19.03 66.254 0.178 7.36 2.86 9.04
9/23/2021 1:15:00 AM 19.02 66.236 0.178 7.35 2.64 9.02
9/23/2021 1:30:00 AM 19.01 66.218 0.178 7.35 2.77 9.02
9/23/2021 1:45:00 AM 18.99 66.182 0.178 7.35 2.7 9.01
9/23/2021 2:00:00 AM 18.97 66.146 0.178 7.34 2.84 8.98
9/23/2021 2:15:00 AM 18.96 66.128 0.178 7.34 2.86 8.96
9/23/2021 2:30:00 AM 18.95 66.11 0.178 7.34 2.8 8.95
9/23/2021 2:45:00 AM 18.95 66.11 0.178 7.34 2.74 8.94
9/23/2021 3:00:00 AM 18.93 66.074 0.178 7.34 2.95 8.94
9/23/2021 3:15:00 AM 18.92 66.056 0.178 7.34 2.86 8.94
9/23/2021 3:30:00 AM 18.91 66.038 0.178 7.34 2.85 8.94
9/23/2021 3:45:00 AM 18.9 66.02 0.178 7.34 2.82 8.92
9/23/2021 4:00:00 AM 18.9 66.02 0.178 7.33 2.97 8.92
9/23/2021 4:15:00 AM 18.89 66.002 0.179 7.33 3.23 8.88
9/23/2021 4:30:00 AM 18.88 65.984 0.179 7.29 3.08 8.89
9/23/2021 4:45:00 AM 18.87 65.966 0.178 7.32 2.9 8.91
9/23/2021 5:00:00 AM 18.86 65.948 0.179 7.33 3.32 8.88
9/23/2021 5:15:00 AM 18.85 65.93 0.179 7.33 3.22 8.89
9/23/2021 5:30:00 AM 18.84 65.912 0.179 7.32 3.18 8.88
9/23/2021 5:45:00 AM 18.83 65.894 0.179 7.32 2.94 8.87
9/23/2021 6:00:00 AM 18.82 65.876 0.179 7.32 3.12 8.88
9/23/2021 6:15:00 AM 18.81 65.858 0.179 7.32 3.08 8.86
9/23/2021 6:30:00 AM 18.8 65.84 0.179 7.31 3.12 8.88
9/23/2021 6:45:00 AM 18.79 65.82201 0.179 7.31 3.18 8.86
9/23/2021 7:00:00 AM 18.78 65.804 0.179 7.31 3.41 8.87
9/23/2021 7:15:00 AM 18.76 65.768 0.18 7.31 3.47 8.87
9/23/2021 7:30:00 AM 18.76 65.768 0.18 7.31 3.3 8.89
9/23/2021 7:45:00 AM 18.76 65.768 0.179 7.32 3.14 8.94
9/23/2021 8:00:00 AM 18.76 65.768 0.18 7.32 3.01 9
9/23/2021 8:15:00 AM 18.78 65.804 0.179 7.32 3.19 9.11
9/23/2021 8:30:00 AM 18.78 65.804 0.179 7.34 3.4 9.2
9/23/2021 8:45:00 AM 18.8 65.84 0.179 7.35 3.48 9.3
9/23/2021 9:00:00 AM 18.81 65.858 0.18 7.36 3.21 9.41
9/23/2021 9:15:00 AM 18.82 65.876 0.179 7.38 3.14 9.52
9/23/2021 9:30:00 AM 18.82 65.876 0.179 7.38 2.97 9.53
9/23/2021 9:45:00 AM 18.82 65.876 0.179 7.39 2.8 9.57
9/23/2021 10:00:00 AM 18.82 65.876 0.179 7.39 2.88 9.57
9/23/2021 10:15:00 AM 18.82 65.876 0.179 7.39 2.99 9.56
9/23/2021 10:30:00 AM 18.82 65.876 0.179 7.39 2.74 9.58
9/23/2021 10:45:00 AM 18.82 65.876 0.179 7.4 2.84 9.65
9/23/2021 11:00:00 AM 18.82 65.876 0.179 7.4 2.81 9.7
9/23/2021 11:15:00 AM 18.84 65.912 0.178 7.41 2.74 9.83
9/23/2021 11:30:00 AM 18.84 65.912 0.178 7.42 2.72 9.82
9/23/2021 11:45:00 AM 18.86 65.948 0.177 7.44 2.97 9.9
9/23/2021 12:00:00 PM 18.86 65.948 0.176 7.45 3.8 9.97
9/23/2021 12:15:00 PM 18.83 65.894 0.173 7.47 4.5 9.96
9/23/2021 12:30:00 PM 18.8 65.84 0.172 7.44 4.57 9.9
9/23/2021 12:45:00 PM 18.75 65.75 0.169 7.46 5.58 9.9
9/23/2021 1:00:00 PM 18.71 65.67799 0.167 7.44 6.98 9.92
9/23/2021 1:15:00 PM 18.69 65.642 0.167 7.44 7.43 9.93
9/23/2021 1:30:00 PM 18.66 65.588 0.167 7.44 7.97 9.93
9/23/2021 1:45:00 PM 18.63 65.534 0.166 7.43 8.03 9.92
9/23/2021 2:00:00 PM 18.6 65.48 0.166 7.37 9.46 9.87
9/23/2021 2:15:00 PM 18.6 65.48 0.165 7.36 10.67 9.86
9/23/2021 2:30:00 PM 18.61 65.498 0.163 7.35 14.19 9.86
9/23/2021 2:45:00 PM 18.63 65.534 0.157 7.32 36.3 9.82
9/23/2021 3:00:00 PM 18.56 65.408 0.142 7.27 111.09 9.76
9/23/2021 3:15:00 PM 18.5 65.3 0.135 7.26 140.7 9.77
9/23/2021 3:30:00 PM 18.48 65.264 0.136 7.2 170.57 9.75
9/23/2021 3:45:00 PM 18.49 65.282 0.127 7.23 256.91 9.71
9/23/2021 4:00:00 PM 18.48 65.264 0.117 7.18 260.03 9.69
9/23/2021 4:15:00 PM 18.48 65.264 0.113 7.15 211.9 9.7
9/23/2021 4:30:00 PM 18.49 65.282 0.108 7.13 197.28 9.67
9/23/2021 4:45:00 PM 18.48 65.264 0.105 7.1 197.35 9.64
9/23/2021 5:00:00 PM 18.47 65.246 0.104 7.1 178.69 9.61
9/23/2021 5:15:00 PM 18.48 65.264 0.1 7.04 166.36 9.6
9/23/2021 5:30:00 PM 18.48 65.264 0.097 7.02 160.79 9.59
9/23/2021 5:45:00 PM 18.46 65.228 0.098 7.01 169.93 9.57
9/23/2021 6:00:00 PM 18.43 65.174 0.101 7.01 157.27 9.57
9/23/2021 6:15:00 PM 18.41 65.138 0.101 7.01 158.55 9.57
9/23/2021 6:30:00 PM 18.4 65.12 0.099 7.01 152.56 9.57
9/23/2021 6:45:00 PM 18.39 65.102 0.098 7.02 145.18 9.56
9/23/2021 7:00:00 PM 18.39 65.102 0.096 6.99 135.13 9.55
9/23/2021 7:15:00 PM 18.38 65.084 0.095 7.04 119.82 9.54
9/23/2021 7:30:00 PM 18.36 65.048 0.095 7.04 111.58 9.55
9/23/2021 7:45:00 PM 18.35 65.03 0.095 7.05 101.62 9.55
9/23/2021 8:00:00 PM 18.32 64.976 0.095 7.06 91.99 9.54
9/23/2021 8:15:00 PM 18.3 64.94 0.096 7.08 83.31 9.55
9/23/2021 8:30:00 PM 18.28 64.904 0.096 7.08 73.79 9.55
9/23/2021 8:45:00 PM 18.25 64.85 0.097 7.1 67.89 9.56
9/23/2021 9:00:00 PM 18.22 64.796 0.097 7.1 64.44 9.56
9/23/2021 9:15:00 PM 18.2 64.76 0.097 7.1 60.88 9.57
9/23/2021 9:30:00 PM 18.17 64.706 0.098 7.11 57.44 9.57
9/23/2021 9:45:00 PM 18.13 64.634 0.098 7.11 56.99 9.58
9/23/2021 10:00:00 PM 18.1 64.58 0.098 7.11 51.14 9.59
9/23/2021 10:15:00 PM 18.07 64.526 0.098 7.12 50.71 9.6
9/23/2021 10:30:00 PM 18.02 64.436 0.099 7.09 49.69 9.62
9/23/2021 10:45:00 PM 17.98 64.364 0.099 7.04 46.97 9.64
9/23/2021 11:00:00 PM 17.94 64.292 0.1 7.02 46.31 9.65
9/23/2021 11:15:00 PM 17.9 64.22 0.1 7.02 43.38 9.66
9/23/2021 11:30:00 PM 17.85 64.13 0.1 7.04 41.91 9.69
9/23/2021 11:45:00 PM 17.8 64.04 0.1 7.04 41.71 9.7
9/24/2021 12:00:00 AM 17.75 63.95 0.1 7.02 40.73 9.72
9/24/2021 12:15:00 AM 17.7 63.86 0.101 7.01 40.1 9.72
9/24/2021 12:30:00 AM 17.65 63.77 0.101 6.99 38.17 9.73
9/24/2021 12:45:00 AM 17.6 63.68 0.101 7.02 37.6 9.74
9/24/2021 1:00:00 AM 17.54 63.572 0.101 7.02 35.83 9.76
9/24/2021 1:15:00 AM 17.49 63.482 0.101 7.02 34.78 9.78
9/24/2021 1:30:00 AM 17.43 63.374 0.101 7.03 34.99 9.8
9/24/2021 1:45:00 AM 17.37 63.266 0.102 7.02 35.07 9.82
9/24/2021 2:00:00 AM 17.31 63.158 0.102 7.03 34.67 9.84
9/24/2021 2:15:00 AM 17.25 63.05 0.102 7 33.46 9.86
9/24/2021 2:30:00 AM 17.2 62.96 0.102 6.92 32.7 9.87
9/24/2021 2:45:00 AM 17.15 62.87 0.102 6.98 32.95 9.89
9/24/2021 3:00:00 AM 17.1 62.78 0.102 6.98 32.82 9.9
9/24/2021 3:15:00 AM 17.04 62.672 0.102 6.99 32.9 9.91
9/24/2021 3:30:00 AM 16.99 62.582 0.102 7.01 32.03 9.92
9/24/2021 3:45:00 AM 16.93 62.474 0.103 6.96 31.64 9.95
9/24/2021 4:00:00 AM 16.86 62.348 0.103 7 32.11 9.96
9/24/2021 4:15:00 AM 16.81 62.258 0.103 7.02 31.24 9.99
9/24/2021 4:30:00 AM 16.75 62.15 0.103 7 30.6 9.99
9/24/2021 4:45:00 AM 16.69 62.042 0.103 7.02 30.23 10.01
9/24/2021 5:00:00 AM 16.64 61.952 0.103 7.01 29.54 10.04
9/24/2021 5:15:00 AM 16.59 61.862 0.103 7.01 28.19 10.04
9/24/2021 5:30:00 AM 16.53 61.754 0.104 7.02 30.22 10.05
9/24/2021 5:45:00 AM 16.47 61.646 0.104 7.01 29.53 10.06
9/24/2021 6:00:00 AM 16.42 61.556 0.104 7.01 29.6 10.07
9/24/2021 6:15:00 AM 16.36 61.448 0.104 7.01 28.67 10.09
9/24/2021 6:30:00 AM 16.3 61.34 0.104 7 28.75 10.11
9/24/2021 6:45:00 AM 16.24 61.232 0.104 7.01 28.16 10.12
9/24/2021 7:00:00 AM 16.18 61.124 0.104 7.02 28.19 10.14
9/24/2021 7:15:00 AM 16.13 61.034 0.104 7.02 28.25 10.16
9/24/2021 7:30:00 AM 16.07 60.926 0.104 7.02 28.02 10.18
9/24/2021 7:45:00 AM 16.03 60.854 0.104 7.02 27.31 10.19
9/24/2021 8:00:00 AM 15.99 60.782 0.104 7.02 27.21 10.2
9/24/2021 8:15:00 AM 15.95 60.71 0.104 7.03 26.45 10.21
9/24/2021 8:30:00 AM 15.92 60.656 0.104 7.03 26.84 10.22
9/24/2021 8:45:00 AM 15.89 60.602 0.104 7.02 26.21 10.24
9/24/2021 9:00:00 AM 15.87 60.566 0.104 7.03 25.72 10.26
9/24/2021 9:15:00 AM 15.85 60.53 0.104 7.04 25.23 10.28
9/24/2021 9:30:00 AM 15.85 60.53 0.104 6.98 25.16 10.31
9/24/2021 9:45:00 AM 15.84 60.512 0.104 7.06 24.89 10.33
9/24/2021 10:00:00 AM 15.85 60.53 0.104 7.07 22.82 10.36
9/24/2021 10:15:00 AM 15.86 60.548 0.104 7.08 23.75 10.39
9/24/2021 10:30:00 AM 15.89 60.602 0.104 7.06 22.72 10.41
9/24/2021 10:45:00 AM 15.91 60.638 0.104 7.09 22.61 10.44
9/24/2021 11:00:00 AM 15.95 60.71 0.104 7.09 23.1 10.47
9/24/2021 11:15:00 AM 16.01 60.818 0.104 7.09 22.64 10.52
9/24/2021 11:30:00 AM 16.08 60.944 0.104 7.1 22.28 10.55
9/24/2021 11:45:00 AM 16.16 61.088 0.104 7.12 22.17 10.59
9/24/2021 12:00:00 PM 16.23 61.214 0.104 7.13 22.58 10.6
9/24/2021 12:15:00 PM 16.3 61.34 0.104 7.14 21.32 10.61
9/24/2021 12:30:00 PM 16.38 61.484 0.104 7.15 20.88 10.63
9/24/2021 12:45:00 PM 16.5 61.7 0.104 7.16 20.28 10.68
9/24/2021 1:00:00 PM 16.61 61.898 0.104 7.17 19.39 10.72
9/24/2021 1:15:00 PM 16.69 62.042 0.104 7.17 19.65 10.71
9/24/2021 1:30:00 PM 16.79 62.222 0.104 7.18 19.26 10.73
9/24/2021 1:45:00 PM 16.9 62.42 0.104 7.15 18.32 10.76
9/24/2021 2:00:00 PM 17 62.6 0.104 7.21 18.61 10.75
9/24/2021 2:15:00 PM 17.14 62.852 0.105 7.2 17.99 10.79
9/24/2021 2:30:00 PM 17.24 63.032 0.105 7.22 17.66 10.79
9/24/2021 2:45:00 PM 17.35 63.23 0.105 7.23 17.59 10.79
9/24/2021 3:00:00 PM 17.4 63.32 0.105 7.23 17.44 10.74
9/24/2021 3:15:00 PM 17.45 63.41 0.105 7.24 16.76 10.72
9/24/2021 3:30:00 PM 17.5 63.5 0.105 7.24 17.15 10.68
9/24/2021 3:45:00 PM 17.56 63.608 0.105 7.24 17.23 10.68
9/24/2021 4:00:00 PM 17.59 63.662 0.105 7.24 16.73 10.66
9/24/2021 4:15:00 PM 17.64 63.752 0.105 7.24 16.5 10.65
9/24/2021 4:30:00 PM 17.69 63.842 0.105 7.25 16.61 10.64
9/24/2021 4:45:00 PM 17.72 63.896 0.106 7.24 16.49 10.61
9/24/2021 5:00:00 PM 17.7 63.86 0.106 7.24 16.43 10.55
9/24/2021 5:15:00 PM 17.7 63.86 0.106 7.23 15.97 10.51
9/24/2021 5:30:00 PM 17.71 63.878 0.106 7.23 16.52 10.46
9/24/2021 5:45:00 PM 17.71 63.878 0.106 7.21 16.28 10.43
9/24/2021 6:00:00 PM 17.71 63.878 0.106 7.22 16.13 10.38
9/24/2021 6:15:00 PM 17.7 63.86 0.106 7.19 15.8 10.33
9/24/2021 6:30:00 PM 17.68 63.824 0.106 7.2 15.98 10.3
9/24/2021 6:45:00 PM 17.65 63.77 0.106 7.19 13.4 10.24
9/24/2021 7:00:00 PM 17.61 63.698 0.106 7.19 16.3 10.2
9/24/2021 7:15:00 PM 17.57 63.626 0.106 7.19 16.51 10.17
9/24/2021 7:30:00 PM 17.53 63.554 0.106 7.17 16.4 10.12
9/24/2021 7:45:00 PM 17.49 63.482 0.106 7.18 16.31 10.1
9/24/2021 8:00:00 PM 17.45 63.41 0.107 7.17 16.56 10.08
9/24/2021 8:15:00 PM 17.41 63.338 0.107 7.12 16.29 10.07
9/24/2021 8:30:00 PM 17.36 63.248 0.107 7.17 16.47 10.06
9/24/2021 8:45:00 PM 17.31 63.158 0.107 7.1 16.65 10.04
9/24/2021 9:00:00 PM 17.25 63.05 0.107 7.15 15.73 10.04
9/24/2021 9:15:00 PM 17.19 62.942 0.107 7.16 15.97 10.03
9/24/2021 9:30:00 PM 17.12 62.816 0.107 7.12 16.15 10.03
9/24/2021 9:45:00 PM 17.06 62.708 0.107 7.15 15.76 10.02
9/24/2021 10:00:00 PM 17 62.6 0.107 7.13 16.31 10.01
9/24/2021 10:15:00 PM 16.94 62.492 0.107 7.14 15.68 10.02
9/24/2021 10:30:00 PM 16.88 62.384 0.107 7.13 15.79 10.02
9/24/2021 10:45:00 PM 16.83 62.294 0.107 7.11 15.87 10.02
9/24/2021 11:00:00 PM 16.77 62.186 0.107 7.12 15.93 10.05
9/24/2021 11:15:00 PM 16.72 62.096 0.107 7.12 16.01 10.05
9/24/2021 11:30:00 PM 16.67 62.006 0.107 7.11 16.1 10.05
9/24/2021 11:45:00 PM 16.62 61.916 0.108 7.11 16.15 10.04
9/25/2021 12:00:00 AM 16.57 61.826 0.108 7.12 15.65 10.05
9/25/2021 12:15:00 AM 16.52 61.736 0.108 7.11 15.77 10.07
9/25/2021 12:30:00 AM 16.47 61.646 0.108 7.12 15.64 10.06
9/25/2021 12:45:00 AM 16.42 61.556 0.108 7.11 15.25 10.08
9/25/2021 1:00:00 AM 16.37 61.466 0.108 7.11 15.54 10.08
9/25/2021 1:15:00 AM 16.31 61.358 0.108 7.11 15.7 10.1
9/25/2021 1:30:00 AM 16.26 61.268 0.108 7.11 16.15 10.12
9/25/2021 1:45:00 AM 16.21 61.178 0.108 7.1 15.42 10.13
9/25/2021 2:00:00 AM 16.16 61.088 0.108 7.11 15.5 10.15
9/25/2021 2:15:00 AM 16.1 60.98 0.108 7.1 15.28 10.17
9/25/2021 2:30:00 AM 16.04 60.872 0.108 7.1 15.28 10.18
9/25/2021 2:45:00 AM 15.97 60.746 0.108 7.08 14.89 10.19
9/25/2021 3:00:00 AM 15.91 60.638 0.108 7.09 14.83 10.19
9/25/2021 3:15:00 AM 15.85 60.53 0.108 7.09 15.12 10.2
9/25/2021 3:30:00 AM 15.8 60.44 0.108 7.09 14.75 10.21
9/25/2021 3:45:00 AM 15.74 60.332 0.108 7.05 14.86 10.22
9/25/2021 4:00:00 AM 15.69 60.242 0.108 7.03 14.54 10.24
9/25/2021 4:15:00 AM 15.63 60.134 0.108 7.06 14.83 10.26
9/25/2021 4:30:00 AM 15.59 60.062 0.108 7.05 14.87 10.28
9/25/2021 4:45:00 AM 15.54 59.972 0.108 7.05 14.6 10.3
9/25/2021 5:00:00 AM 15.5 59.9 0.108 7.05 14.51 10.3
9/25/2021 5:15:00 AM 15.45 59.81 0.108 7.05 14.38 10.32
9/25/2021 5:30:00 AM 15.41 59.738 0.108 6.99 14.37 10.32
9/25/2021 5:45:00 AM 15.36 59.648 0.108 7.03 14.97 10.33
9/25/2021 6:00:00 AM 15.32 59.576 0.108 7 14.59 10.33
9/25/2021 6:15:00 AM 15.28 59.504 0.109 7.04 14.34 10.35
9/25/2021 6:30:00 AM 15.24 59.432 0.109 7.05 14.13 10.34
9/25/2021 6:45:00 AM 15.2 59.36 0.109 7.05 13.99 10.36
9/25/2021 7:00:00 AM 15.17 59.306 0.109 7.05 14.42 10.37
9/25/2021 7:15:00 AM 15.13 59.234 0.109 7.05 14.12 10.39
9/25/2021 7:30:00 AM 15.1 59.18 0.109 7.05 13.95 10.42
9/25/2021 7:45:00 AM 15.08 59.144 0.109 7.07 13.92 10.43
9/25/2021 8:00:00 AM 15.05 59.09 0.109 7.07 13.16 10.47
9/25/2021 8:15:00 AM 15.03 59.054 0.109 7.07 13.06 10.49
9/25/2021 8:30:00 AM 15.01 59.018 0.109 7.1 12.59 10.51
9/25/2021 8:45:00 AM 14.99 58.982 0.109 7.09 12.18 10.54
9/25/2021 9:00:00 AM 14.98 58.964 0.109 7.11 12.12 10.59
9/25/2021 9:15:00 AM 14.98 58.964 0.109 7.11 11.82 10.63
9/25/2021 9:30:00 AM 14.99 58.982 0.109 7.11 11.46 10.69
9/25/2021 9:45:00 AM 15 59 0.109 7.13 11.41 10.75
9/25/2021 10:00:00 AM 15 59 0.11 7.14 10.88 10.78
9/25/2021 10:15:00 AM 15.04 59.072 0.11 7.15 10.63 10.85
9/25/2021 10:30:00 AM 15.07 59.126 0.11 7.16 10.55 10.88
9/25/2021 10:45:00 AM 15.13 59.234 0.11 7.16 10.51 10.94
9/25/2021 11:00:00 AM 15.2 59.36 0.11 7.16 9.74 10.98
9/25/2021 11:15:00 AM 15.27 59.486 0.11 7.19 10.01 11.02
9/25/2021 11:30:00 AM 15.35 59.63 0.11 7.2 9.63 11.07
9/25/2021 11:45:00 AM 15.45 59.81 0.11 7.17 9.5 11.13
9/25/2021 12:00:00 PM 15.54 59.972 0.11 7.22 9.49 11.16
9/25/2021 12:15:00 PM 15.65 60.17 0.11 7.24 9.39 11.19
9/25/2021 12:30:00 PM 15.77 60.386 0.11 7.24 9.07 11.22
9/25/2021 12:45:00 PM 15.87 60.566 0.111 7.27 8.91 11.25
9/25/2021 1:00:00 PM 16 60.8 0.111 7.27 8.82 11.3
9/25/2021 1:15:00 PM 16.14 61.052 0.111 7.29 8.61 11.34
9/25/2021 1:30:00 PM 16.29 61.322 0.111 7.3 8.74 11.35
9/25/2021 1:45:00 PM 16.45 61.61 0.111 7.31 8.74 11.36
9/25/2021 2:00:00 PM 16.59 61.862 0.111 7.29 8.46 11.38
9/25/2021 2:15:00 PM 16.74 62.132 0.111 7.34 8.46 11.39
9/25/2021 2:30:00 PM 16.87 62.366 0.111 7.35 8.45 11.4
9/25/2021 2:45:00 PM 16.98 62.564 0.111 7.35 8.58 11.38
9/25/2021 3:00:00 PM 17.12 62.816 0.111 7.37 8.44 11.41
9/25/2021 3:15:00 PM 17.24 63.032 0.111 7.38 8.16 11.4
9/25/2021 3:30:00 PM 17.36 63.248 0.112 7.36 8.11 11.36
9/25/2021 3:45:00 PM 17.44 63.392 0.112 7.4 8.13 11.31
9/25/2021 4:00:00 PM 17.53 63.554 0.112 7.4 7.98 11.28
9/25/2021 4:15:00 PM 17.63 63.734 0.112 7.4 8.02 11.26
9/25/2021 4:30:00 PM 17.69 63.842 0.112 7.4 7.88 11.21
9/25/2021 4:45:00 PM 17.73 63.914 0.112 7.41 7.8 11.14
9/25/2021 5:00:00 PM 17.76 63.968 0.112 7.4 7.81 11.06
9/25/2021 5:15:00 PM 17.77 63.986 0.113 7.34 7.81 10.99
9/25/2021 5:30:00 PM 17.78 64.004 0.113 7.38 7.98 10.89
9/25/2021 5:45:00 PM 17.79 64.022 0.113 7.36 7.76 10.82
9/25/2021 6:00:00 PM 17.79 64.022 0.113 7.35 7.46 10.73
9/25/2021 6:15:00 PM 17.79 64.022 0.113 7.29 7.29 10.64
9/25/2021 6:30:00 PM 17.78 64.004 0.113 7.32 7.5 10.56
9/25/2021 6:45:00 PM 17.76 63.968 0.114 7.32 7.25 10.49
9/25/2021 7:00:00 PM 17.74 63.932 0.114 7.3 7.78 10.42
9/25/2021 7:15:00 PM 17.71 63.878 0.114 7.29 7.97 10.35
9/25/2021 7:30:00 PM 17.67 63.806 0.114 7.24 8.01 10.28
9/25/2021 7:45:00 PM 17.63 63.734 0.114 7.28 8.06 10.22
9/25/2021 8:00:00 PM 17.6 63.68 0.114 7.26 8.22 10.17
9/25/2021 8:15:00 PM 17.56 63.608 0.114 7.25 7.84 10.13
9/25/2021 8:30:00 PM 17.52 63.536 0.114 7.23 8.51 10.08
9/25/2021 8:45:00 PM 17.48 63.464 0.115 7.23 8.18 10.04
9/25/2021 9:00:00 PM 17.44 63.392 0.115 7.23 8.55 10.01
9/25/2021 9:15:00 PM 17.39 63.302 0.115 7.22 8.25 9.99
9/25/2021 9:30:00 PM 17.34 63.212 0.115 7.21 8.2 9.96
9/25/2021 9:45:00 PM 17.29 63.122 0.115 7.21 7.88 9.97
9/25/2021 10:00:00 PM 17.24 63.032 0.115 7.21 8.22 9.94
9/25/2021 10:15:00 PM 17.2 62.96 0.115 7.2 7.82 9.93
9/25/2021 10:30:00 PM 17.16 62.888 0.116 7.19 8.07 9.91
9/25/2021 10:45:00 PM 17.12 62.816 0.116 7.18 7.83 9.9
9/25/2021 11:00:00 PM 17.08 62.744 0.116 7.18 8 9.9
9/25/2021 11:15:00 PM 17.05 62.69 0.116 7.17 7.75 9.89
9/25/2021 11:30:00 PM 17.01 62.618 0.116 7.13 7.65 9.88
9/25/2021 11:45:00 PM 16.98 62.564 0.116 7.18 7.69 9.88
9/26/2021 12:00:00 AM 16.94 62.492 0.117 7.17 7.85 9.87
9/26/2021 12:15:00 AM 16.9 62.42 0.117 7.17 7.84 9.87
9/26/2021 12:30:00 AM 16.87 62.366 0.117 7.17 7.83 9.86
9/26/2021 12:45:00 AM 16.84 62.312 0.117 7.18 7.75 9.88
9/26/2021 1:00:00 AM 16.81 62.258 0.117 7.17 8.27 9.87
9/26/2021 1:15:00 AM 16.79 62.222 0.117 7.16 7.89 9.87
9/26/2021 1:30:00 AM 16.76 62.168 0.117 7.16 7.69 9.87
9/26/2021 1:45:00 AM 16.73 62.114 0.117 7.17 7.69 9.89
9/26/2021 2:00:00 AM 16.7 62.06 0.117 7.17 8.01 9.9
9/26/2021 2:15:00 AM 16.67 62.006 0.117 7.16 7.46 9.89
9/26/2021 2:30:00 AM 16.64 61.952 0.117 7.17 10934.04 9.92
9/26/2021 2:45:00 AM 16.62 61.916 0.118 7.16 7.81 9.9
9/26/2021 3:00:00 AM 16.6 61.88 0.118 7.17 7.84 9.91
9/26/2021 3:15:00 AM 16.57 61.826 0.118 7.16 7.67 9.92
9/26/2021 3:30:00 AM 16.55 61.79 0.118 7.12 9.03 9.92
9/26/2021 3:45:00 AM 16.52 61.736 0.118 7.1 7.48 9.93
9/26/2021 4:00:00 AM 16.49 61.682 0.118 7.16 7.43 9.94
9/26/2021 4:15:00 AM 16.46 61.628 0.118 7.16 7.68 9.92
9/26/2021 4:30:00 AM 16.43 61.574 0.118 7.16 7.51 9.93
9/26/2021 4:45:00 AM 16.4 61.52 0.118 7.15 7.99 9.94
9/26/2021 5:00:00 AM 16.36 61.448 0.118 7.16 7.58 9.95
9/26/2021 5:15:00 AM 16.32 61.376 0.118 7.15 7.69 9.95
9/26/2021 5:30:00 AM 16.27 61.286 0.119 7.15 7.52 9.96
9/26/2021 5:45:00 AM 16.23 61.214 0.119 7.16 7.4 9.97
9/26/2021 6:00:00 AM 16.19 61.142 0.119 7.15 7.59 9.97
9/26/2021 6:15:00 AM 16.14 61.052 0.119 7.15 7.5 10
9/26/2021 6:30:00 AM 16.1 60.98 0.119 7.16 7.25 10.01
9/26/2021 6:45:00 AM 16.05 60.89 0.119 7.16 7.43 10.02
9/26/2021 7:00:00 AM 16 60.8 0.119 7.16 7.2 10.03
9/26/2021 7:15:00 AM 15.96 60.728 0.119 7.09 7.06 10.04
9/26/2021 7:30:00 AM 15.91 60.638 0.12 7.16 7.22 10.06
9/26/2021 7:45:00 AM 15.87 60.566 0.12 7.16 6.75 10.08
9/26/2021 8:00:00 AM 15.83 60.494 0.12 7.16 6.54 10.12
9/26/2021 8:15:00 AM 15.81 60.458 0.12 7.17 6.4 10.17
9/26/2021 8:30:00 AM 15.79 60.422 0.12 7.17 6.43 10.24
9/26/2021 8:45:00 AM 15.78 60.404 0.12 7.18 6.11 10.32
9/26/2021 9:00:00 AM 15.75 60.35 0.12 7.18 5.91 10.36
9/26/2021 9:15:00 AM 15.74 60.332 0.12 7.19 5.67 10.39
9/26/2021 9:30:00 AM 15.74 60.332 0.12 7.18 5.62 10.43
9/26/2021 9:45:00 AM 15.75 60.35 0.12 7.2 5.42 10.5
9/26/2021 10:00:00 AM 15.78 60.404 0.12 7.21 5.7 10.57
9/26/2021 10:15:00 AM 15.8 60.44 0.121 7.22 5.39 10.64
9/26/2021 10:30:00 AM 15.83 60.494 0.121 7.23 5.22 10.7
9/26/2021 10:45:00 AM 15.87 60.566 0.121 7.23 5.05 10.77
9/26/2021 11:00:00 AM 15.92 60.656 0.121 7.23 4.98 10.85
9/26/2021 11:15:00 AM 15.95 60.71 0.121 7.26 4.99 10.91
9/26/2021 11:30:00 AM 16.01 60.818 0.121 7.24 4.84 10.99
9/26/2021 11:45:00 AM 16.08 60.944 0.121 7.29 4.72 11.08
9/26/2021 12:00:00 PM 16.13 61.034 0.122 7.3 4.65 11.12
9/26/2021 12:15:00 PM 16.22 61.196 0.122 7.31 4.51 11.18
9/26/2021 12:30:00 PM 16.26 61.268 0.122 7.32 4.78 11.22
9/26/2021 12:45:00 PM 16.36 61.448 0.122 7.29 4.4 11.27
9/26/2021 1:00:00 PM 16.45 61.61 0.122 7.36 4.56 11.34
9/26/2021 1:15:00 PM 16.54 61.772 0.122 7.36 7.42 11.37
9/26/2021 1:30:00 PM 16.61 61.898 0.122 7.34 4.34 11.4
9/26/2021 1:45:00 PM 16.64 61.952 0.123 7.39 4.34 11.37
9/26/2021 2:00:00 PM 16.7 62.06 0.123 7.38 4.33 11.35
9/26/2021 2:15:00 PM 16.79 62.222 0.123 7.34 4.26 11.39
9/26/2021 2:30:00 PM 16.88 62.384 0.123 7.41 4.3 11.36
9/26/2021 2:45:00 PM 16.93 62.474 0.123 7.36 4.22 11.32
9/26/2021 3:00:00 PM 17.04 62.672 0.123 7.4 4.1 11.32
9/26/2021 3:15:00 PM 17.12 62.816 0.123 7.42 4.16 11.36
9/26/2021 3:30:00 PM 17.17 62.906 0.123 7.43 4.28 11.33
9/26/2021 3:45:00 PM 17.29 63.122 0.124 7.43 4.18 11.34
9/26/2021 4:00:00 PM 17.36 63.248 0.124 7.44 3.98 11.29
9/26/2021 4:15:00 PM 17.45 63.41 0.124 7.45 4.01 11.29
9/26/2021 4:30:00 PM 17.54 63.572 0.124 7.45 4.02 11.31
9/26/2021 4:45:00 PM 17.54 63.572 0.124 7.45 4.05 11.2
9/26/2021 5:00:00 PM 17.55 63.59 0.124 7.44 4.16 11.09
9/26/2021 5:15:00 PM 17.54 63.572 0.124 7.43 4.18 11.02
9/26/2021 5:30:00 PM 17.53 63.554 0.125 7.42 4.15 10.93
9/26/2021 5:45:00 PM 17.51 63.518 0.125 7.41 3.97 10.84
9/26/2021 6:00:00 PM 17.49 63.482 0.125 7.35 4.04 10.75
9/26/2021 6:15:00 PM 17.47 63.446 0.125 7.38 4.26 10.67
9/26/2021 6:30:00 PM 17.43 63.374 0.125 7.37 4.26 10.6
9/26/2021 6:45:00 PM 17.38 63.284 0.125 7.35 4.14 10.51
9/26/2021 7:00:00 PM 17.34 63.212 0.126 7.35 4.28 10.44
9/26/2021 7:15:00 PM 17.3 63.14 0.126 7.33 4.45 10.37
9/26/2021 7:30:00 PM 17.27 63.086 0.126 7.32 4.47 10.32
9/26/2021 7:45:00 PM 17.24 63.032 0.126 7.29 4.64 10.27
9/26/2021 8:00:00 PM 17.2 62.96 0.126 7.29 4.78 10.23
9/26/2021 8:15:00 PM 17.16 62.888 0.126 7.3 4.83 10.18
9/26/2021 8:30:00 PM 17.11 62.798 0.126 7.28 4.94 10.15
9/26/2021 8:45:00 PM 17.07 62.726 0.127 7.28 4.72 10.12
9/26/2021 9:00:00 PM 17.02 62.636 0.127 7.27 4.83 10.1
9/26/2021 9:15:00 PM 16.97 62.546 0.127 7.27 4.81 10.07
9/26/2021 9:30:00 PM 16.92 62.456 0.127 7.26 4.96 10.04
9/26/2021 9:45:00 PM 16.87 62.366 0.127 7.22 4.98 10.02
9/26/2021 10:00:00 PM 16.81 62.258 0.128 7.22 4.9 10.01
9/26/2021 10:15:00 PM 16.75 62.15 0.128 7.25 4.97 10.02
9/26/2021 10:30:00 PM 16.69 62.042 0.128 7.22 4.94 10.01
9/26/2021 10:45:00 PM 16.63 61.934 0.128 7.24 4.97 10
9/26/2021 11:00:00 PM 16.57 61.826 0.128 7.23 4.97 9.99
9/26/2021 11:15:00 PM 16.51 61.718 0.128 7.23 4.87 9.99
9/26/2021 11:30:00 PM 16.46 61.628 0.128 7.23 4.83 9.98
9/26/2021 11:45:00 PM 16.41 61.538 0.129 7.19 4.85 9.96
9/27/2021 12:00:00 AM 16.35 61.43 0.129 7.22 4.91 9.97
9/27/2021 12:15:00 AM 16.3 61.34 0.129 7.21 4.98 9.97
9/27/2021 12:30:00 AM 16.25 61.25 0.129 7.21 4.62 9.97
9/27/2021 12:45:00 AM 16.2 61.16 0.129 7.2 4.96 9.97
9/27/2021 1:00:00 AM 16.16 61.088 0.129 7.14 4.96 9.97
9/27/2021 1:15:00 AM 16.11 60.998 0.129 7.2 5.05 9.99
9/27/2021 1:30:00 AM 16.07 60.926 0.129 7.18 4.97 9.98
9/27/2021 1:45:00 AM 16.03 60.854 0.129 7.2 4.86 10
9/27/2021 2:00:00 AM 15.99 60.782 0.129 7.19 4.88 10
9/27/2021 2:15:00 AM 15.95 60.71 0.129 7.19 4.75 10.01
9/27/2021 2:30:00 AM 15.91 60.638 0.129 7.19 5.03 10.01
9/27/2021 2:45:00 AM 15.88 60.584 0.13 7.19 4.73 10
9/27/2021 3:00:00 AM 15.84 60.512 0.129 7.19 4.87 10.02
9/27/2021 3:15:00 AM 15.81 60.458 0.13 7.18 4.94 10.02
9/27/2021 3:30:00 AM 15.78 60.404 0.13 7.18 4.9 10.02
9/27/2021 3:45:00 AM 15.75 60.35 0.13 7.18 5.11 10.03
9/27/2021 4:00:00 AM 15.72 60.296 0.13 7.17 5.08 10.04
9/27/2021 4:15:00 AM 15.69 60.242 0.13 7.13 5.7 10.04
9/27/2021 4:30:00 AM 15.66 60.188 0.13 7.17 6.2 10.05
9/27/2021 4:45:00 AM 15.63 60.134 0.13 7.17 10.07 10.06
9/27/2021 5:00:00 AM 15.6 60.08 0.131 7.17 5.45 10.07
9/27/2021 5:15:00 AM 15.58 60.044 0.13 7.17 4.89 10.07
9/27/2021 5:30:00 AM 15.56 60.008 0.13 7.17 4.71 10.09
9/27/2021 5:45:00 AM 15.54 59.972 0.13 7.17 5.09 10.1
9/27/2021 6:00:00 AM 15.52 59.936 0.131 7.17 5.12 10.09
9/27/2021 6:15:00 AM 15.5 59.9 0.131 7.16 5 10.12
9/27/2021 6:30:00 AM 15.48 59.864 0.131 7.16 4.82 10.12
9/27/2021 6:45:00 AM 15.46 59.828 0.131 7.16 4.84 10.12
9/27/2021 7:00:00 AM 15.45 59.81 0.131 7.16 4.94 10.13
9/27/2021 7:15:00 AM 15.43 59.774 0.131 7.17 4.81 10.14
9/27/2021 7:30:00 AM 15.41 59.738 0.131 7.16 4.64 10.14
9/27/2021 7:45:00 AM 15.4 59.72 0.131 7.16 4.56 10.16
9/27/2021 8:00:00 AM 15.39 59.702 0.131 7.17 4.4 10.19
9/27/2021 8:15:00 AM 15.38 59.684 0.131 7.17 4.35 10.2
9/27/2021 8:30:00 AM 15.36 59.648 0.131 7.18 4.1 10.21
9/27/2021 8:45:00 AM 15.35 59.63 0.132 7.18 4.18 10.23
9/27/2021 9:00:00 AM 15.35 59.63 0.132 7.18 4.04 10.26
9/27/2021 9:15:00 AM 15.35 59.63 0.132 7.19 3.9 10.31
9/27/2021 9:30:00 AM 15.36 59.648 0.132 7.2 3.72 10.39
9/27/2021 9:45:00 AM 15.38 59.684 0.132 7.22 3.77 10.5
9/27/2021 10:00:00 AM 15.45 59.81 0.132 7.21 3.62 10.69
9/27/2021 10:15:00 AM 15.5 59.9 0.132 7.26 3.67 10.81
9/27/2021 10:30:00 AM 15.56 60.008 0.132 7.28 3.66 10.94
9/27/2021 10:45:00 AM 15.65 60.17 0.132 7.3 3.33 11.04
9/27/2021 11:00:00 AM 15.73 60.314 0.132 7.32 3.34 11.18
9/27/2021 11:15:00 AM 15.82 60.476 0.132 7.33 3.29 11.28
9/27/2021 11:30:00 AM 15.9 60.62 0.132 7.35 3.39 11.33
9/27/2021 11:45:00 AM 15.96 60.728 0.133 7.35 3.19 11.38
9/27/2021 12:00:00 PM 16.06 60.908 0.133 7.38 3.21 11.46
9/27/2021 12:15:00 PM 16.18 61.124 0.133 7.4 3.24 11.53
9/27/2021 12:30:00 PM 16.21 61.178 0.133 7.42 3.12 11.54
9/27/2021 12:45:00 PM 16.25 61.25 0.133 7.43 3.29 11.57
9/27/2021 1:00:00 PM 16.37 61.466 0.133 7.41 3.04 11.66
9/27/2021 1:15:00 PM 16.49 61.682 0.133 7.47 2.64 11.74
9/27/2021 1:30:00 PM 16.6 61.88 0.134 7.48 2.85 11.79
9/27/2021 1:45:00 PM 16.7 62.06 0.134 7.51 3.13 11.85
9/27/2021 2:00:00 PM 16.81 62.258 0.134 7.53 3.05 11.9
9/27/2021 2:15:00 PM 16.89 62.402 0.134 7.53 2.89 11.93
9/27/2021 2:30:00 PM 17 62.6 0.134 7.56 2.8 11.99
9/27/2021 2:45:00 PM 17.12 62.816 0.134 7.58 2.93 12.05
9/27/2021 3:00:00 PM 17.22 62.996 0.134 7.6 2.95 12.07
9/27/2021 3:15:00 PM 17.33 63.194 0.134 7.62 2.78 12.06
9/27/2021 3:30:00 PM 17.46 63.428 0.134 7.63 2.96 12.07
9/27/2021 3:45:00 PM 17.56 63.608 0.134 7.65 2.81 12.08
9/27/2021 4:00:00 PM 17.66 63.788 0.134 7.66 2.83 12.05
9/27/2021 4:15:00 PM 17.75 63.95 0.134 7.66 2.69 11.99
9/27/2021 4:30:00 PM 17.82 64.076 0.133 7.67 2.84 11.92
9/27/2021 4:45:00 PM 17.87 64.166 0.134 7.66 2.86 11.84
9/27/2021 5:00:00 PM 17.93 64.274 0.134 7.67 2.71 11.75
9/27/2021 5:15:00 PM 17.98 64.364 0.134 7.65 2.85 11.63
9/27/2021 5:30:00 PM 18.02 64.436 0.134 7.63 2.96 11.52
9/27/2021 5:45:00 PM 18.05 64.49 0.134 7.61 2.88 11.39
9/27/2021 6:00:00 PM 18.07 64.526 0.134 7.59 2.99 11.26
9/27/2021 6:15:00 PM 18.08 64.544 0.134 7.56 3.08 11.13
9/27/2021 6:30:00 PM 18.08 64.544 0.134 7.54 3.09 10.98
9/27/2021 6:45:00 PM 18.07 64.526 0.135 7.52 3.16 10.84
9/27/2021 7:00:00 PM 18.06 64.508 0.135 7.49 3.58 10.7
9/27/2021 7:15:00 PM 18.03 64.454 0.135 7.47 3.92 10.56
9/27/2021 7:30:00 PM 18.01 64.418 0.135 7.45 4.37 10.45
9/27/2021 7:45:00 PM 17.98 64.364 0.135 7.37 4.99 10.35
9/27/2021 8:00:00 PM 17.95 64.31 0.136 7.41 5.19 10.26
9/27/2021 8:15:00 PM 17.93 64.274 0.136 7.4 6.18 10.18
9/27/2021 8:30:00 PM 17.91 64.238 0.136 7.38 6.64 10.11
9/27/2021 8:45:00 PM 17.88 64.184 0.136 7.37 6.99 10.05
9/27/2021 9:00:00 PM 17.86 64.148 0.136 7.36 7.06 10.01
9/27/2021 9:15:00 PM 17.83 64.094 0.136 7.33 7.31 9.97
9/27/2021 9:30:00 PM 17.81 64.058 0.137 7.34 6.94 9.93
9/27/2021 9:45:00 PM 17.78 64.004 0.137 7.33 8.35 9.9
9/27/2021 10:00:00 PM 17.75 63.95 0.137 7.32 7.35 9.85
9/27/2021 10:15:00 PM 17.72 63.896 0.137 7.25 8.09 9.82
9/27/2021 10:30:00 PM 17.69 63.842 0.137 7.31 7.85 9.8
9/27/2021 10:45:00 PM 17.65 63.77 0.137 7.3 8.15 9.78
9/27/2021 11:00:00 PM 17.61 63.698 0.138 7.29 7.57 9.75
9/27/2021 11:15:00 PM 17.57 63.626 0.138 7.22 7.7 9.72
9/27/2021 11:30:00 PM 17.52 63.536 0.138 7.28 8.17 9.72
9/27/2021 11:45:00 PM 17.48 63.464 0.138 7.28 7.74 9.69
9/28/2021 12:00:00 AM 17.43 63.374 0.138 7.27 7.48 9.68
9/28/2021 12:15:00 AM 17.39 63.302 0.138 7.26 7.27 9.67
9/28/2021 12:30:00 AM 17.36 63.248 0.138 7.26 7.21 9.66
9/28/2021 12:45:00 AM 17.33 63.194 0.138 7.26 7.22 9.65
9/28/2021 1:00:00 AM 17.29 63.122 0.138 7.23 6.41 9.65
9/28/2021 1:15:00 AM 17.26 63.068 0.138 7.25 7.05 9.65
9/28/2021 1:30:00 AM 17.22 62.996 0.138 7.25 6.25 9.65
9/28/2021 1:45:00 AM 17.18 62.924 0.138 7.24 5.54 9.65
9/28/2021 2:00:00 AM 17.15 62.87 0.138 7.24 5.36 9.64
9/28/2021 2:15:00 AM 17.1 62.78 0.138 7.24 5.54 9.65
9/28/2021 2:30:00 AM 17.07 62.726 0.138 7.23 4.93 9.65
9/28/2021 2:45:00 AM 17.04 62.672 0.138 7.23 5.22 9.65
9/28/2021 3:00:00 AM 17.02 62.636 0.138 7.23 4.86 9.66
9/28/2021 3:15:00 AM 17 62.6 0.139 7.23 4.41 9.65
9/28/2021 3:30:00 AM 16.98 62.564 0.139 7.23 4.18 9.65
9/28/2021 3:45:00 AM 16.96 62.528 0.139 7.19 4.54 9.65
9/28/2021 4:00:00 AM 16.93 62.474 0.139 7.23 4.27 9.64
9/28/2021 4:15:00 AM 16.91 62.438 0.139 7.22 4.34 9.65
9/28/2021 4:30:00 AM 16.88 62.384 0.139 7.21 4.25 9.65
9/28/2021 4:45:00 AM 16.85 62.33 0.139 7.22 4.58 9.64
9/28/2021 5:00:00 AM 16.82 62.276 0.14 7.22 4.09 9.64
9/28/2021 5:15:00 AM 16.79 62.222 0.14 7.22 4.04 9.65
9/28/2021 5:30:00 AM 16.75 62.15 0.14 7.21 4.33 9.65
9/28/2021 5:45:00 AM 16.72 62.096 0.14 7.22 4.08 9.67
9/28/2021 6:00:00 AM 16.68 62.024 0.14 7.21 3.89 9.68
9/28/2021 6:15:00 AM 16.66 61.988 0.14 7.2 4.03 9.67
9/28/2021 6:30:00 AM 16.62 61.916 0.14 7.15 4 9.69
9/28/2021 6:45:00 AM 16.59 61.862 0.14 7.21 4.05 9.68
9/28/2021 7:00:00 AM 16.56 61.808 0.14 7.21 4.36 9.71
9/28/2021 7:15:00 AM 16.53 61.754 0.14 7.21 3.82 9.72
9/28/2021 7:30:00 AM 16.5 61.7 0.14 7.21 3.6 9.73
9/28/2021 7:45:00 AM 16.49 61.682 0.14 7.21 3.55 9.79
9/28/2021 8:00:00 AM 16.47 61.646 0.14 7.22 3.6 9.83
9/28/2021 8:15:00 AM 16.47 61.646 0.14 7.22 3.34 9.89
9/28/2021 8:30:00 AM 16.45 61.61 0.14 7.22 3.23 9.9
9/28/2021 8:45:00 AM 16.44 61.592 0.14 7.23 3.37 9.9
9/28/2021 9:00:00 AM 16.42 61.556 0.14 7.23 3.28 9.9
9/28/2021 9:15:00 AM 16.4 61.52 0.14 7.23 3.01 9.91
9/28/2021 9:30:00 AM 16.39 61.502 0.14 7.23 3.14 9.94
9/28/2021 9:45:00 AM 16.37 61.466 0.14 7.23 3.36 9.95
9/28/2021 10:00:00 AM 16.35 61.43 0.14 7.2 3.29 9.96
9/28/2021 10:15:00 AM 16.34 61.412 0.14 7.24 3.17 9.97
9/28/2021 10:30:00 AM 16.33 61.394 0.14 7.24 3.22 9.98
9/28/2021 10:45:00 AM 16.32 61.376 0.14 7.24 3.05 10.03
9/28/2021 11:00:00 AM 16.32 61.376 0.14 7.25 3.02 10.07
9/28/2021 11:15:00 AM 16.32 61.376 0.14 7.25 2.93 10.14
9/28/2021 11:30:00 AM 16.31 61.358 0.14 7.26 2.97 10.19
9/28/2021 11:45:00 AM 16.31 61.358 0.14 7.27 2.89 10.22
9/28/2021 12:00:00 PM 16.33 61.394 0.14 7.28 2.7 10.34
9/28/2021 12:15:00 PM 16.38 61.484 0.14 7.3 2.93 10.58
9/28/2021 12:30:00 PM 16.44 61.592 0.14 7.33 2.76 10.77
9/28/2021 12:45:00 PM 16.5 61.7 0.14 7.34 2.92 10.89
9/28/2021 1:00:00 PM 16.53 61.754 0.14 7.36 2.8 11.04
9/28/2021 1:15:00 PM 16.6 61.88 0.14 7.39 2.58 11.18
9/28/2021 1:30:00 PM 16.7 62.06 0.14 7.41 2.62 11.31
9/28/2021 1:45:00 PM 16.78 62.204 0.14 7.44 2.82 11.42
9/28/2021 2:00:00 PM 16.8 62.24 0.14 7.45 2.57 11.46
9/28/2021 2:15:00 PM 16.8 62.24 0.14 7.47 2.63 11.45
9/28/2021 2:30:00 PM 16.82 62.276 0.14 7.48 2.62 11.52
9/28/2021 2:45:00 PM 16.84 62.312 0.14 7.51 2.59 11.61
9/28/2021 3:00:00 PM 16.84 62.312 0.141 7.51 2.6 11.57
9/28/2021 3:15:00 PM 16.84 62.312 0.141 7.51 2.43 11.52
9/28/2021 3:30:00 PM 16.95 62.51 0.141 7.49 2.42 11.61
9/28/2021 3:45:00 PM 17.02 62.636 0.141 7.54 2.51 11.68
9/28/2021 4:00:00 PM 17.08 62.744 0.141 7.55 2.4 11.71
9/28/2021 4:15:00 PM 17.11 62.798 0.141 7.56 2.51 11.68
9/28/2021 4:30:00 PM 17.11 62.798 0.141 7.57 2.47 11.61
9/28/2021 4:45:00 PM 17.09 62.762 0.141 7.57 2.58 11.61
9/28/2021 5:00:00 PM 17.07 62.726 0.141 7.57 2.71 11.59
9/28/2021 5:15:00 PM 17.05 62.69 0.141 7.56 2.45 11.46
9/28/2021 5:30:00 PM 17.01 62.618 0.142 7.54 2.67 11.34
9/28/2021 5:45:00 PM 17 62.6 0.142 7.53 2.59 11.25
9/28/2021 6:00:00 PM 16.99 62.582 0.141 7.45 2.59 11.21
9/28/2021 6:15:00 PM 16.98 62.564 0.142 7.51 2.86 11.11
9/28/2021 6:30:00 PM 16.97 62.546 0.142 7.5 2.64 11.02
9/28/2021 6:45:00 PM 16.95 62.51 0.141 7.49 2.77 10.93
9/28/2021 7:00:00 PM 16.91 62.438 0.141 7.47 2.79 10.82
9/28/2021 7:15:00 PM 16.87 62.366 0.141 7.45 3.11 10.71
9/28/2021 7:30:00 PM 16.82 62.276 0.141 7.45 3.6 10.64
9/28/2021 7:45:00 PM 16.78 62.204 0.141 7.44 3.29 10.57
9/28/2021 8:00:00 PM 16.73 62.114 0.141 7.43 3.58 10.51
9/28/2021 8:15:00 PM 16.68 62.024 0.141 7.42 3.72 10.47
9/28/2021 8:30:00 PM 16.63 61.934 0.141 7.42 3.65 10.44
9/28/2021 8:45:00 PM 16.58 61.844 0.141 7.41 4.15 10.41
9/28/2021 9:00:00 PM 16.52 61.736 0.141 7.4 4.06 10.39
9/28/2021 9:15:00 PM 16.46 61.628 0.141 7.39 4.04 10.37
9/28/2021 9:30:00 PM 16.4 61.52 0.142 7.38 4.43 10.33
9/28/2021 9:45:00 PM 16.35 61.43 0.142 7.38 4.21 10.31
9/28/2021 10:00:00 PM 16.29 61.322 0.142 7.37 3.97 10.27
9/28/2021 10:15:00 PM 16.23 61.214 0.142 7.37 3.66 10.26
9/28/2021 10:30:00 PM 16.18 61.124 0.142 7.36 3.88 10.24
9/28/2021 10:45:00 PM 16.13 61.034 0.142 7.35 3.72 10.23
9/28/2021 11:00:00 PM 16.07 60.926 0.143 7.35 4.15 10.22
9/28/2021 11:15:00 PM 16.01 60.818 0.143 7.33 3.93 10.21
9/28/2021 11:30:00 PM 15.96 60.728 0.143 7.34 3.8 10.2
9/28/2021 11:45:00 PM 15.91 60.638 0.143 7.3 3.52 10.2
9/29/2021 12:00:00 AM 15.85 60.53 0.143 7.3 6.05 10.19
9/29/2021 12:15:00 AM 15.79 60.422 0.143 7.32 3.75 10.17
9/29/2021 12:30:00 AM 15.73 60.314 0.143 7.31 3.59 10.17
9/29/2021 12:45:00 AM 15.66 60.188 0.143 7.3 3.66 10.16
9/29/2021 1:00:00 AM 15.61 60.098 0.144 7.29 3.76 10.16
9/29/2021 1:15:00 AM 15.54 59.972 0.144 7.28 3.58 10.19
9/29/2021 1:30:00 AM 15.48 59.864 0.144 7.27 3.57 10.19
9/29/2021 1:45:00 AM 15.41 59.738 0.144 7.26 3.8 10.2
9/29/2021 2:00:00 AM 15.35 59.63 0.144 7.26 3.24 10.2
9/29/2021 2:15:00 AM 15.28 59.504 0.144 7.25 3.51 10.21
9/29/2021 2:30:00 AM 15.23 59.414 0.144 7.25 3.45 10.21
9/29/2021 2:45:00 AM 15.17 59.306 0.143 7.25 3.56 10.22
9/29/2021 3:00:00 AM 15.12 59.216 0.144 7.2 3.96 10.22
9/29/2021 3:15:00 AM 15.07 59.126 0.144 7.24 4.3 10.23
9/29/2021 3:30:00 AM 15.02 59.036 0.143 7.24 3.91 10.24
9/29/2021 3:45:00 AM 14.99 58.982 0.143 7.24 3.89 10.25
9/29/2021 4:00:00 AM 14.95 58.91 0.144 7.24 3.74 10.26
9/29/2021 4:15:00 AM 14.92 58.856 0.143 7.23 3.61 10.27
9/29/2021 4:30:00 AM 14.88 58.784 0.143 7.21 3.66 10.29
9/29/2021 4:45:00 AM 14.84 58.712 0.143 7.22 5.91 10.29
9/29/2021 5:00:00 AM 14.78 58.604 0.143 7.22 3.43 10.31
9/29/2021 5:15:00 AM 14.74 58.532 0.142 7.23 3.51 10.32
9/29/2021 5:30:00 AM 14.69 58.442 0.142 7.23 3.26 10.32
9/29/2021 5:45:00 AM 14.65 58.37 0.142 7.21 5.92 10.32
9/29/2021 6:00:00 AM 14.61 58.298 0.142 7.23 4.22 10.34
9/29/2021 6:15:00 AM 14.57 58.226 0.142 7.23 3.54 10.35
9/29/2021 6:30:00 AM 14.53 58.154 0.142 7.23 4.01 10.35
9/29/2021 6:45:00 AM 14.48 58.064 0.141 7.23 3.78 10.37
9/29/2021 7:00:00 AM 14.44 57.992 0.141 7.23 3.41 10.37
9/29/2021 7:15:00 AM 14.4 57.92 0.141 7.23 5.58 10.41
9/29/2021 7:30:00 AM 14.36 57.848 0.141 7.22 3.32 10.45
9/29/2021 7:45:00 AM 14.33 57.794 0.141 7.23 3.32 10.5
9/29/2021 8:00:00 AM 14.3 57.74 0.141 7.24 3.37 10.56
9/29/2021 8:15:00 AM 14.28 57.704 0.141 7.21 5.52 10.66
9/29/2021 8:30:00 AM 14.25 57.65 0.141 7.18 3.4 10.72
9/29/2021 8:45:00 AM 14.25 57.65 0.141 7.27 3.12 10.82
9/29/2021 9:00:00 AM 14.24 57.632 0.141 7.28 3.04 10.93
9/29/2021 9:15:00 AM 14.24 57.632 0.141 7.3 3.33 11.03
9/29/2021 9:30:00 AM 14.25 57.65 0.141 7.31 3.05 11.12
9/29/2021 9:45:00 AM 14.27 57.686 0.141 7.31 2.95 11.21
9/29/2021 10:00:00 AM 14.3 57.74 0.141 7.33 2.81 11.3
9/29/2021 10:15:00 AM 14.35 57.83 0.141 7.35 2.97 11.41
9/29/2021 10:30:00 AM 14.38 57.884 0.141 7.37 2.65 11.47
9/29/2021 10:45:00 AM 14.42 57.956 0.141 7.39 2.62 11.55
9/29/2021 11:00:00 AM 14.48 58.064 0.142 7.38 4.75 11.63
9/29/2021 11:15:00 AM 14.55 58.19 0.142 7.39 4.93 11.71
9/29/2021 11:30:00 AM 14.64 58.352 0.142 7.44 2.54 11.79
9/29/2021 11:45:00 AM 14.74 58.532 0.142 7.46 2.68 11.88
9/29/2021 12:00:00 PM 14.83 58.694 0.142 7.48 2.39 11.94
9/29/2021 12:15:00 PM 14.92 58.856 0.142 7.49 2.56 11.99
9/29/2021 12:30:00 PM 15.03 59.054 0.142 7.51 2.53 12.05
9/29/2021 12:45:00 PM 15.09 59.162 0.142 7.49 2.62 12.12
9/29/2021 1:00:00 PM 15.14 59.252 0.143 7.55 2.38 12.14
9/29/2021 1:15:00 PM 15.22 59.396 0.143 7.56 2.39 12.2
9/29/2021 1:30:00 PM 15.24 59.432 0.143 7.57 2.31 12.23
9/29/2021 1:45:00 PM 15.29 59.522 0.143 7.6 2.28 12.32
9/29/2021 2:00:00 PM 15.3 59.54 0.143 7.62 2.32 12.36
9/29/2021 2:15:00 PM 15.28 59.504 0.143 7.55 2.41 12.25
9/29/2021 2:30:00 PM 15.29 59.522 0.143 7.62 2.29 12.26
9/29/2021 2:45:00 PM 15.32 59.576 0.143 7.62 2.26 12.29
9/29/2021 3:00:00 PM 15.36 59.648 0.143 7.62 2.39 12.32
9/29/2021 3:15:00 PM 15.38 59.684 0.143 7.65 2.37 12.32
9/29/2021 3:30:00 PM 15.41 59.738 0.143 7.65 2.38 12.28
9/29/2021 3:45:00 PM 15.44 59.792 0.143 7.62 2.4 12.21
9/29/2021 4:00:00 PM 15.48 59.864 0.143 7.64 2.32 12.09
9/29/2021 4:15:00 PM 15.51 59.918 0.143 7.62 2.28 12.02
9/29/2021 4:30:00 PM 15.56 60.008 0.143 7.62 2.29 11.97
9/29/2021 4:45:00 PM 15.61 60.098 0.142 7.62 2.18 11.94
9/29/2021 5:00:00 PM 15.66 60.188 0.142 7.62 2.25 11.86
9/29/2021 5:15:00 PM 15.71 60.278 0.142 7.61 2.34 11.78
9/29/2021 5:30:00 PM 15.76 60.368 0.142 7.59 2.13 11.79
9/29/2021 5:45:00 PM 15.81 60.458 0.142 7.61 2.27 11.78
9/29/2021 6:00:00 PM 15.84 60.512 0.142 7.59 2.29 11.69
9/29/2021 6:15:00 PM 15.87 60.566 0.142 7.58 2.46 11.57
9/29/2021 6:30:00 PM 15.88 60.584 0.142 7.56 2.33 11.45
9/29/2021 6:45:00 PM 15.88 60.584 0.142 7.54 2.3 11.32
9/29/2021 7:00:00 PM 15.87 60.566 0.142 7.52 2.61 11.21
9/29/2021 7:15:00 PM 15.84 60.512 0.142 7.51 2.33 11.1
9/29/2021 7:30:00 PM 15.8 60.44 0.142 7.49 2.68 10.99
9/29/2021 7:45:00 PM 15.76 60.368 0.142 7.47 2.78 10.89
9/29/2021 8:00:00 PM 15.72 60.296 0.142 7.46 2.88 10.82
9/29/2021 8:15:00 PM 15.69 60.242 0.142 7.44 3.13 10.77
9/29/2021 8:30:00 PM 15.66 60.188 0.142 7.43 3.07 10.71
9/29/2021 8:45:00 PM 15.62 60.116 0.142 7.42 2.72 10.66
9/29/2021 9:00:00 PM 15.59 60.062 0.142 7.39 5.05 10.61
9/29/2021 9:15:00 PM 15.55 59.99 0.142 7.39 2.94 10.59
9/29/2021 9:30:00 PM 15.52 59.936 0.142 7.39 2.89 10.56
9/29/2021 9:45:00 PM 15.48 59.864 0.142 7.39 3.06 10.54
9/29/2021 10:00:00 PM 15.45 59.81 0.142 7.38 2.95 10.51
9/29/2021 10:15:00 PM 15.42 59.756 0.142 7.37 3.06 10.49
9/29/2021 10:30:00 PM 15.39 59.702 0.142 7.35 2.92 10.47
9/29/2021 10:45:00 PM 15.35 59.63 0.143 7.36 3.42 10.45
9/29/2021 11:00:00 PM 15.31 59.558 0.143 7.35 3.33 10.43
9/29/2021 11:15:00 PM 15.26 59.468 0.142 7.35 3.36 10.41
9/29/2021 11:30:00 PM 15.22 59.396 0.143 7.32 3.43 10.39
9/29/2021 11:45:00 PM 15.18 59.324 0.143 7.28 3.52 10.37
9/30/2021 12:00:00 AM 15.14 59.252 0.143 7.33 3.43 10.36
9/30/2021 12:15:00 AM 15.1 59.18 0.143 7.32 3.49 10.35
9/30/2021 12:30:00 AM 15.06 59.108 0.143 7.32 3.05 10.35
9/30/2021 12:45:00 AM 15.02 59.036 0.143 7.32 2.84 10.35
9/30/2021 1:00:00 AM 14.98 58.964 0.143 7.32 2.84 10.35
9/30/2021 1:15:00 AM 14.94 58.892 0.143 7.31 2.98 10.35
9/30/2021 1:30:00 AM 14.91 58.838 0.143 7.3 2.86 10.34
9/30/2021 1:45:00 AM 14.87 58.766 0.143 7.23 3.25 10.35
9/30/2021 2:00:00 AM 14.84 58.712 0.143 7.26 3 10.34
9/30/2021 2:15:00 AM 14.8 58.64 0.143 7.29 3.68 10.35
9/30/2021 2:30:00 AM 14.77 58.586 0.143 7.28 3.65 10.35
9/30/2021 2:45:00 AM 14.73 58.514 0.143 7.26 3.98 10.34
9/30/2021 3:00:00 AM 14.7 58.46 0.143 7.28 3.42 10.34
9/30/2021 3:15:00 AM 14.67 58.406 0.143 7.29 3.3 10.35
9/30/2021 3:30:00 AM 14.64 58.352 0.143 7.28 3.03 10.36
9/30/2021 3:45:00 AM 14.61 58.298 0.143 7.26 2.93 10.35
9/30/2021 4:00:00 AM 14.58 58.244 0.143 7.28 2.99 10.35
9/30/2021 4:15:00 AM 14.55 58.19 0.143 7.28 3.3 10.36
9/30/2021 4:30:00 AM 14.53 58.154 0.143 7.27 3.49 10.36
9/30/2021 4:45:00 AM 14.51 58.118 0.143 7.27 3.43 10.36
9/30/2021 5:00:00 AM 14.49 58.082 0.144 7.27 3.25 10.37
9/30/2021 5:15:00 AM 14.46 58.028 0.144 7.26 3.34 10.36
9/30/2021 5:30:00 AM 14.42 57.956 0.144 7.27 3.14 10.38
9/30/2021 5:45:00 AM 14.38 57.884 0.144 7.27 3.15 10.39
9/30/2021 6:00:00 AM 14.33 57.794 0.144 7.28 5.45 10.4
9/30/2021 6:15:00 AM 14.28 57.704 0.144 7.24 3.18 10.4
9/30/2021 6:30:00 AM 14.25 57.65 0.144 7.25 3.14 10.41
9/30/2021 6:45:00 AM 14.21 57.578 0.144 7.24 3.29 10.41
9/30/2021 7:00:00 AM 14.18 57.524 0.144 7.22 5.54 10.43
9/30/2021 7:15:00 AM 14.15 57.47 0.144 7.24 3.1 10.42
9/30/2021 7:30:00 AM 14.11 57.398 0.144 7.25 3.16 10.45
9/30/2021 7:45:00 AM 14.08 57.344 0.144 7.19 2.92 10.5
9/30/2021 8:00:00 AM 14.05 57.29 0.144 7.25 3.08 10.54
9/30/2021 8:15:00 AM 14.02 57.236 0.144 7.25 2.84 10.59
9/30/2021 8:30:00 AM 14 57.2 0.144 7.26 2.66 10.66
9/30/2021 8:45:00 AM 13.98 57.164 0.144 7.27 2.62 10.75
9/30/2021 9:00:00 AM 13.97 57.146 0.144 7.29 2.62 10.85
9/30/2021 9:15:00 AM 13.99 57.182 0.144 7.29 2.59 10.95
9/30/2021 9:30:00 AM 14.01 57.218 0.144 7.29 4.76 11.07
9/30/2021 9:45:00 AM 14.02 57.236